Provisional Data: Blockhouse Creek near English Center, PA


Please select a monitoring station.
Please select start date.
Please select start date.

Toggle Unit: C/F Toggle Unit: C/F
Sample Time Temperature (C) Temperature (F) Specific Conductivity (mS/cm) pH   Turbidity (NTU+) DO (mg/L)
11/1/2022 12:00:00 AM 9.72 49.496 0.137 7.48 1.23 10.81
11/1/2022 12:15:00 AM 9.71 49.478 0.137 7.52 1.18 10.81
11/1/2022 12:30:00 AM 9.7 49.46 0.137 7.47 1.31 10.8
11/1/2022 12:45:00 AM 9.69 49.442 0.137 7.51 1.16 10.82
11/1/2022 1:00:00 AM 9.69 49.442 0.137 7.51 1.22 10.82
11/1/2022 1:15:00 AM 9.69 49.442 0.137 7.51 1.09 10.82
11/1/2022 1:30:00 AM 9.69 49.442 0.138 7.51 1.11 10.82
11/1/2022 1:45:00 AM 9.69 49.442 0.138 7.51 1.12 10.82
11/1/2022 2:00:00 AM 9.69 49.442 0.138 7.51 1.16 10.82
11/1/2022 2:15:00 AM 9.68 49.424 0.137 7.5 1.14 10.82
11/1/2022 2:30:00 AM 9.68 49.424 0.137 7.5 1.13 10.83
11/1/2022 2:45:00 AM 9.68 49.424 0.137 7.47 1.27 10.83
11/1/2022 3:00:00 AM 9.68 49.424 0.137 7.49 1.16 10.83
11/1/2022 3:15:00 AM 9.68 49.424 0.137 7.49 1.1 10.83
11/1/2022 3:30:00 AM 9.68 49.424 0.137 7.49 1.16 10.83
11/1/2022 3:45:00 AM 9.68 49.424 0.137 7.49 1.18 10.83
11/1/2022 4:00:00 AM 9.67 49.406 0.137 7.48 1.18 10.84
11/1/2022 4:15:00 AM 9.67 49.406 0.137 7.48 1.17 10.83
11/1/2022 4:30:00 AM 9.68 49.424 0.137 7.48 1.2 10.83
11/1/2022 4:45:00 AM 9.68 49.424 0.137 7.45 1.19 10.83
11/1/2022 5:00:00 AM 9.69 49.442 0.137 7.47 1.1 10.82
11/1/2022 5:15:00 AM 9.69 49.442 0.137 7.47 1.14 10.83
11/1/2022 5:30:00 AM 9.69 49.442 0.137 7.42 1.17 10.82
11/1/2022 5:45:00 AM 9.7 49.46 0.137 7.44 1.2 10.82
11/1/2022 6:00:00 AM 9.7 49.46 0.136 7.45 1.16 10.81
11/1/2022 6:15:00 AM 9.7 49.46 0.136 7.45 1.15 10.8
11/1/2022 6:30:00 AM 9.7 49.46 0.136 7.44 1.17 10.81
11/1/2022 6:45:00 AM 9.71 49.478 0.136 7.46 1.16 10.81
11/1/2022 7:00:00 AM 9.71 49.478 0.136 7.42 1.16 10.8
11/1/2022 7:15:00 AM 9.72 49.496 0.135 7.42 1.17 10.8
11/1/2022 7:30:00 AM 9.72 49.496 0.135 7.43 1.17 10.79
11/1/2022 7:45:00 AM 9.72 49.496 0.135 7.42 1.16 10.81
11/1/2022 8:00:00 AM 9.73 49.514 0.136 7.46 1.14 10.84
11/1/2022 8:15:00 AM 9.73 49.514 0.136 7.45 1.13 10.85
11/1/2022 8:30:00 AM 9.74 49.532 0.136 7.44 1.18 10.87
11/1/2022 8:45:00 AM 9.76 49.568 0.136 7.47 1.16 10.94
11/1/2022 9:00:00 AM 9.77 49.586 0.136 7.49 1.22 11.02
11/1/2022 9:15:00 AM 9.8 49.64 0.136 7.52 1.21 11.17
11/1/2022 9:30:00 AM 9.84 49.712 0.135 7.55 1.23 11.38
11/1/2022 9:45:00 AM 9.88 49.784 0.135 7.6 1.25 11.54
11/1/2022 10:00:00 AM 9.93 49.874 0.135 7.64 1.21 11.68
11/1/2022 10:15:00 AM 9.98 49.964 0.134 7.69 1.26 11.8
11/1/2022 10:30:00 AM 10.02 50.036 0.134 7.74 1.18 11.87
11/1/2022 10:45:00 AM 10.08 50.144 0.134 7.78 1.23 11.97
11/1/2022 11:00:00 AM 10.15 50.27 0.134 7.81 1.24 12.07
11/1/2022 11:15:00 AM 10.23 50.414 0.134 7.89 1.18 12.17
11/1/2022 11:30:00 AM 10.34 50.612 0.133 8.01 1.18 12.3
11/1/2022 11:45:00 AM 10.43 50.774 0.133 8.07 1.19 12.32
11/1/2022 12:00:00 PM 10.47 50.846 0.134 8.06 1.21 12.19
11/1/2022 12:15:00 PM 10.54 50.972 0.133 8.09 1.19 12.21
11/1/2022 12:30:00 PM 10.67 51.206 0.133 8.19 1.13 12.32
11/1/2022 12:45:00 PM 10.75 51.35 0.133 8.24 1.18 12.33
11/1/2022 1:00:00 PM 10.84 51.512 0.133 8.29 1.16 12.35
11/1/2022 1:15:00 PM 10.96 51.728 0.133 8.32 1.13 12.37
11/1/2022 1:30:00 PM 11.06 51.908 0.133 8.39 1.16 12.36
11/1/2022 1:45:00 PM 11.18 52.124 0.133 8.45 1.15 12.38
11/1/2022 2:00:00 PM 11.29 52.322 0.133 8.5 1.13 12.37
11/1/2022 2:15:00 PM 11.42 52.556 0.133 8.55 1.17 12.37
11/1/2022 2:30:00 PM 11.49 52.682 0.132 8.55 1.14 12.27
11/1/2022 2:45:00 PM 11.65 52.97 0.132 8.57 1.26 12.23
11/1/2022 3:00:00 PM 11.78 53.204 0.132 8.56 1.12 12.18
11/1/2022 3:15:00 PM 11.84 53.312 0.132 8.54 1.13 12.07
11/1/2022 3:30:00 PM 11.91 53.438 0.132 8.54 1.17 12.08
11/1/2022 3:45:00 PM 12.01 53.618 0.132 8.51 1.16 12
11/1/2022 4:00:00 PM 12.08 53.744 0.132 8.53 1.19 11.95
11/1/2022 4:15:00 PM 12.12 53.816 0.132 8.48 1.14 11.82
11/1/2022 4:30:00 PM 12.19 53.942 0.132 8.44 1.15 11.71
11/1/2022 4:45:00 PM 12.22 53.996 0.133 8.3 1.18 11.45
11/1/2022 5:00:00 PM 12.22 53.996 0.133 8.15 1.29 11.23
11/1/2022 5:15:00 PM 12.2 53.96 0.133 7.97 1.29 11.02
11/1/2022 5:30:00 PM 12.17 53.906 0.133 7.91 1.2 10.81
11/1/2022 5:45:00 PM 12.13 53.834 0.134 7.83 1.2 10.71
11/1/2022 6:00:00 PM 12.09 53.762 0.134 7.77 1.21 10.62
11/1/2022 6:15:00 PM 12.02 53.636 0.134 7.72 1.27 10.52
11/1/2022 6:30:00 PM 11.95 53.51 0.134 7.67 1.29 10.46
11/1/2022 6:45:00 PM 11.87 53.366 0.134 7.64 1.28 10.41
11/1/2022 7:00:00 PM 11.79 53.222 0.134 7.61 1.28 10.38
11/1/2022 7:15:00 PM 11.71 53.078 0.134 7.59 1.37 10.37
11/1/2022 7:30:00 PM 11.65 52.97 0.134 7.56 1.29 10.36
11/1/2022 7:45:00 PM 11.58 52.844 0.135 7.55 1.45 10.37
11/1/2022 8:00:00 PM 11.52 52.736 0.135 7.53 1.36 10.39
11/1/2022 8:15:00 PM 11.47 52.646 0.135 7.5 1.37 10.4
11/1/2022 8:30:00 PM 11.43 52.574 0.135 7.49 1.33 10.41
11/1/2022 8:45:00 PM 11.41 52.538 0.135 7.48 1.45 10.42
11/1/2022 9:00:00 PM 11.39 52.502 0.135 7.49 1.27 10.43
11/1/2022 9:15:00 PM 11.37 52.466 0.136 7.47 1.24 10.44
11/1/2022 9:30:00 PM 11.34 52.412 0.136 7.47 1.21 10.46
11/1/2022 9:45:00 PM 11.31 52.358 0.136 7.47 1.25 10.46
11/1/2022 10:00:00 PM 11.26 52.268 0.136 7.43 1.27 10.48
11/1/2022 10:15:00 PM 11.18 52.124 0.136 7.44 1.23 10.49
11/1/2022 10:30:00 PM 11.1 51.98 0.136 7.44 1.18 10.5
11/1/2022 10:45:00 PM 11.02 51.836 0.137 7.46 1.16 10.51
11/1/2022 11:00:00 PM 10.93 51.674 0.137 7.44 1.2 10.54
11/1/2022 11:15:00 PM 10.85 51.53 0.137 7.44 1.22 10.57
11/1/2022 11:30:00 PM 10.78 51.404 0.137 7.44 1.13 10.59
11/1/2022 11:45:00 PM 10.73 51.314 0.137 7.45 1.2 10.62
11/2/2022 12:00:00 AM 10.7 51.26 0.137 7.43 1.17 10.63
11/2/2022 12:15:00 AM 10.67 51.206 0.137 7.44 1.23 10.65
11/2/2022 12:30:00 AM 10.63 51.134 0.137 7.44 1.25 10.66
11/2/2022 12:45:00 AM 10.58 51.044 0.137 7.43 1.24 10.67
11/2/2022 1:00:00 AM 10.52 50.936 0.137 7.47 1.23 10.69
11/2/2022 1:15:00 AM 10.46 50.828 0.131 7.46 1.37 10.7
11/2/2022 1:30:00 AM 10.39 50.702 0.137 7.46 1.32 10.71
11/2/2022 1:45:00 AM 10.34 50.612 0.137 7.46 1.16 10.72
11/2/2022 2:00:00 AM 10.31 50.558 0.137 7.47 1.19 10.73
11/2/2022 2:15:00 AM 10.28 50.504 0.137 7.42 1.21 10.74
11/2/2022 2:30:00 AM 10.25 50.45 0.137 7.46 1.27 10.75
11/2/2022 2:45:00 AM 10.19 50.342 0.137 7.45 1.2 10.77
11/2/2022 3:00:00 AM 10.12 50.216 0.137 7.45 1.18 10.79
11/2/2022 3:15:00 AM 10.06 50.108 0.137 7.47 1.25 10.82
11/2/2022 3:30:00 AM 10.04 50.072 0.137 7.47 1.17 10.82
11/2/2022 3:45:00 AM 10.03 50.054 0.137 7.46 1.24 10.83
11/2/2022 4:00:00 AM 10.02 50.036 0.137 7.47 1.18 10.84
11/2/2022 4:15:00 AM 10.03 50.054 0.137 7.46 1.3 10.84
11/2/2022 4:30:00 AM 10.01 50.018 0.137 7.48 1.2 10.85
11/2/2022 4:45:00 AM 9.99 49.982 0.137 7.43 1.23 10.86
11/2/2022 5:00:00 AM 9.96 49.928 0.137 7.48 1.2 10.87
11/2/2022 5:15:00 AM 9.92 49.856 0.137 7.48 1.19 10.88
11/2/2022 5:30:00 AM 9.89 49.802 0.137 7.45 1.2 10.9
11/2/2022 5:45:00 AM 9.87 49.766 0.137 7.49 1.15 10.9
11/2/2022 6:00:00 AM 9.84 49.712 0.137 7.48 1.16 10.9
11/2/2022 6:15:00 AM 9.82 49.676 0.137 7.45 1.1 10.92
11/2/2022 6:30:00 AM 9.8 49.64 0.137 7.49 1.17 10.92
11/2/2022 6:45:00 AM 9.78 49.604 0.137 7.48 1.18 10.93
11/2/2022 7:00:00 AM 9.76 49.568 0.137 7.5 1.21 10.93
11/2/2022 7:15:00 AM 9.74 49.532 0.137 7.5 1.19 10.94
11/2/2022 7:30:00 AM 9.71 49.478 0.137 7.49 1.17 10.95
11/2/2022 7:45:00 AM 9.69 49.442 0.137 7.49 1.19 10.97
11/2/2022 8:00:00 AM 9.66 49.388 0.137 7.47 1.21 11.02
11/2/2022 8:15:00 AM 9.64 49.352 0.137 7.52 1.21 11.11
11/2/2022 8:30:00 AM 9.62 49.316 0.137 7.52 1.14 11.22
11/2/2022 8:45:00 AM 9.6 49.28 0.137 7.54 1.15 11.36
11/2/2022 9:00:00 AM 9.6 49.28 0.137 7.6 1.26 11.51
11/2/2022 9:15:00 AM 9.61 49.298 0.137 7.63 1.21 11.68
11/2/2022 9:30:00 AM 9.62 49.316 0.136 7.67 1.13 11.83
11/2/2022 9:45:00 AM 9.66 49.388 0.136 7.73 1.14 11.98
11/2/2022 10:00:00 AM 9.7 49.46 0.136 7.79 1.14 12.14
11/2/2022 10:15:00 AM 9.76 49.568 0.136 7.86 1.17 12.28
11/2/2022 10:30:00 AM 9.83 49.694 0.136 7.92 1.22 12.4
11/2/2022 10:45:00 AM 9.92 49.856 0.136 8.01 1.14 12.52
11/2/2022 11:00:00 AM 10.02 50.036 0.135 8.1 1.15 12.6
11/2/2022 11:15:00 AM 10.09 50.162 0.136 8.15 1.1 12.6
11/2/2022 11:30:00 AM 10.17 50.306 0.136 8.14 1.18 12.53
11/2/2022 11:45:00 AM 10.2 50.36 0.136 8.16 1.08 12.45
11/2/2022 12:00:00 PM 10.24 50.432 0.136 8.15 1.18 12.4
11/2/2022 12:15:00 PM 10.28 50.504 0.136 8.15 1.13 12.39
11/2/2022 12:30:00 PM 10.38 50.684 0.136 8.17 1.09 12.38
11/2/2022 12:45:00 PM 10.51 50.918 0.136 8.21 1.09 12.39
11/2/2022 1:00:00 PM 10.66 51.188 0.136 8.22 1.11 12.36
11/2/2022 1:15:00 PM 10.84 51.512 0.135 8.25 1.13 12.31
11/2/2022 1:30:00 PM 11.02 51.836 0.135 8.29 1.08 12.25
11/2/2022 1:45:00 PM 11.19 52.142 0.135 8.32 1.03 12.24
11/2/2022 2:00:00 PM 11.37 52.466 0.135 8.34 1.06 12.2
11/2/2022 2:15:00 PM 11.53 52.754 0.135 8.36 1.1 12.13
11/2/2022 2:30:00 PM 11.67 53.006 0.135 8.38 1.09 12.08
11/2/2022 2:45:00 PM 11.79 53.222 0.135 8.39 1.05 12.05
11/2/2022 3:00:00 PM 11.86 53.348 0.135 8.38 1.14 11.97
11/2/2022 3:15:00 PM 11.91 53.438 0.135 8.3 1.11 11.85
11/2/2022 3:30:00 PM 11.95 53.51 0.135 8.26 1.12 11.72
11/2/2022 3:45:00 PM 11.98 53.564 0.135 8.22 1.08 11.61
11/2/2022 4:00:00 PM 12.02 53.636 0.135 8.15 1.14 11.52
11/2/2022 4:15:00 PM 12.04 53.672 0.135 8.13 1.11 11.43
11/2/2022 4:30:00 PM 12.05 53.69 0.135 8.07 1.1 11.36
11/2/2022 4:45:00 PM 12.05 53.69 0.135 8.02 1.17 11.28
11/2/2022 5:00:00 PM 12.04 53.672 0.135 7.97 1.13 11.21
11/2/2022 5:15:00 PM 12.01 53.618 0.135 7.91 1.14 11.11
11/2/2022 5:30:00 PM 11.95 53.51 0.136 7.86 1.19 11
11/2/2022 5:45:00 PM 11.88 53.384 0.136 7.79 1.19 10.88
11/2/2022 6:00:00 PM 11.81 53.258 0.136 7.74 1.15 10.76
11/2/2022 6:15:00 PM 11.74 53.132 0.137 7.7 1.19 10.65
11/2/2022 6:30:00 PM 11.67 53.006 0.137 7.61 1.12 10.56
11/2/2022 6:45:00 PM 11.59 52.862 0.137 7.63 1.27 10.52
11/2/2022 7:00:00 PM 11.51 52.718 0.137 7.6 1.33 10.5
11/2/2022 7:15:00 PM 11.42 52.556 0.137 7.58 1.19 10.5
11/2/2022 7:30:00 PM 11.33 52.394 0.137 7.56 1.24 10.51
11/2/2022 7:45:00 PM 11.24 52.232 0.137 7.49 1.23 10.53
11/2/2022 8:00:00 PM 11.14 52.052 0.138 7.53 1.22 10.54
11/2/2022 8:15:00 PM 11.04 51.872 0.138 7.52 1.25 10.55
11/2/2022 8:30:00 PM 10.94 51.692 0.138 7.5 1.18 10.58
11/2/2022 8:45:00 PM 10.84 51.512 0.138 7.51 1.27 10.61
11/2/2022 9:00:00 PM 10.73 51.314 0.138 7.5 1.29 10.64
11/2/2022 9:15:00 PM 10.64 51.152 0.138 7.44 1.21 10.67
11/2/2022 9:30:00 PM 10.53 50.954 0.138 7.47 1.21 10.7
11/2/2022 9:45:00 PM 10.43 50.774 0.138 7.48 1.21 10.72
11/2/2022 10:00:00 PM 10.34 50.612 0.138 7.47 1.2 10.74
11/2/2022 10:15:00 PM 10.24 50.432 0.139 7.47 1.24 10.77
11/2/2022 10:30:00 PM 10.14 50.252 0.139 7.48 1.21 10.81
11/2/2022 10:45:00 PM 10.04 50.072 0.139 7.48 1.22 10.84
11/2/2022 11:00:00 PM 9.94 49.892 0.139 7.48 1.27 10.88
11/2/2022 11:15:00 PM 9.84 49.712 0.139 7.46 1.23 10.91
11/2/2022 11:30:00 PM 9.74 49.532 0.139 7.47 1.63 10.93
11/2/2022 11:45:00 PM 9.64 49.352 0.139 7.47 1.2 10.95
11/3/2022 12:00:00 AM 9.55 49.19 0.139 7.47 1.22 10.98
11/3/2022 12:15:00 AM 9.46 49.028 0.139 7.47 1.26 11.02
11/3/2022 12:30:00 AM 9.36 48.848 0.139 7.44 1.16 11.05
11/3/2022 12:45:00 AM 9.28 48.704 0.139 7.47 1.16 11.07
11/3/2022 1:00:00 AM 9.19 48.542 0.139 7.47 1.21 11.11
11/3/2022 1:15:00 AM 9.11 48.398 0.139 7.42 1.13 11.11
11/3/2022 1:30:00 AM 9.03 48.254 0.139 7.47 1.15 11.12
11/3/2022 1:45:00 AM 8.95 48.11 0.139 7.47 1.14 11.16
11/3/2022 2:00:00 AM 8.87 47.966 0.139 7.47 1.15 11.19
11/3/2022 2:15:00 AM 8.79 47.822 0.139 7.47 1.14 11.22
11/3/2022 2:30:00 AM 8.72 47.696 0.139 7.48 1.08 11.25
11/3/2022 2:45:00 AM 8.65 47.57 0.139 7.47 1.15 11.26
11/3/2022 3:00:00 AM 8.58 47.444 0.139 7.47 1.16 11.28
11/3/2022 3:15:00 AM 8.51 47.318 0.139 7.46 1.16 11.3
11/3/2022 3:30:00 AM 8.44 47.192 0.139 7.48 1.19 11.31
11/3/2022 3:45:00 AM 8.37 47.066 0.139 7.47 1.24 11.33
11/3/2022 4:00:00 AM 8.31 46.958 0.139 7.42 1.15 11.36
11/3/2022 4:15:00 AM 8.24 46.832 0.139 7.47 1.15 11.39
11/3/2022 4:30:00 AM 8.18 46.724 0.139 7.43 1.25 11.41
11/3/2022 4:45:00 AM 8.12 46.616 0.139 7.45 1.2 11.43
11/3/2022 5:00:00 AM 8.06 46.508 0.139 7.47 1.15 11.44
11/3/2022 5:15:00 AM 8 46.4 0.139 7.48 1.14 11.46
11/3/2022 5:30:00 AM 7.95 46.31 0.139 7.49 1.17 11.47
11/3/2022 5:45:00 AM 7.89 46.202 0.139 7.47 1.16 11.5
11/3/2022 6:00:00 AM 7.83 46.094 0.139 7.47 1.2 11.51
11/3/2022 6:15:00 AM 7.77 45.986 0.139 7.47 1.17 11.52
11/3/2022 6:30:00 AM 7.72 45.896 0.139 7.48 1.16 11.54
11/3/2022 6:45:00 AM 7.66 45.788 0.139 7.42 1.18 11.57
11/3/2022 7:00:00 AM 7.61 45.698 0.139 7.48 1.18 11.59
11/3/2022 7:15:00 AM 7.56 45.608 0.139 7.48 1.16 11.61
11/3/2022 7:30:00 AM 7.5 45.5 0.139 7.48 1.16 11.63
11/3/2022 7:45:00 AM 7.45 45.41 0.139 7.48 1.16 11.66
11/3/2022 8:00:00 AM 7.4 45.32 0.139 7.49 1.22 11.74
11/3/2022 8:15:00 AM 7.36 45.248 0.139 7.51 1.17 11.85
11/3/2022 8:30:00 AM 7.32 45.176 0.139 7.53 1.28 11.96
11/3/2022 8:45:00 AM 7.29 45.122 0.139 7.54 1.2 12.09
11/3/2022 9:00:00 AM 7.27 45.086 0.139 7.58 1.2 12.2
11/3/2022 9:15:00 AM 7.25 45.05 0.138 7.54 1.15 12.31
11/3/2022 9:30:00 AM 7.26 45.068 0.138 7.63 1.22 12.46
11/3/2022 9:45:00 AM 7.28 45.104 0.138 7.66 1.2 12.57
11/3/2022 10:00:00 AM 7.31 45.158 0.138 7.69 1.21 12.66
11/3/2022 10:15:00 AM 7.36 45.248 0.138 7.73 1.19 12.74
11/3/2022 10:30:00 AM 7.42 45.356 0.138 7.78 1.16 12.79
11/3/2022 10:45:00 AM 7.48 45.464 0.138 7.74 1.21 12.84
11/3/2022 11:00:00 AM 7.57 45.626 0.138 7.81 1.16 12.87
11/3/2022 11:15:00 AM 7.67 45.806 0.137 7.85 1.14 12.88
11/3/2022 11:30:00 AM 7.81 46.058 0.137 7.91 1.08 12.89
11/3/2022 11:45:00 AM 7.97 46.346 0.137 7.94 1.05 12.91
11/3/2022 12:00:00 PM 8.16 46.688 0.137 7.98 1.08 12.91
11/3/2022 12:15:00 PM 8.36 47.048 0.137 7.99 1.04 12.88
11/3/2022 12:30:00 PM 8.57 47.426 0.137 8.03 1.08 12.86
11/3/2022 12:45:00 PM 8.8 47.84 0.137 8.09 1.04 12.84
11/3/2022 1:00:00 PM 9.02 48.236 0.137 8.13 1.06 12.77
11/3/2022 1:15:00 PM 9.24 48.632 0.137 8.16 1.08 12.74
11/3/2022 1:30:00 PM 9.47 49.046 0.136 8.21 1.06 12.7
11/3/2022 1:45:00 PM 9.68 49.424 0.136 8.22 1.06 12.64
11/3/2022 2:00:00 PM 9.89 49.802 0.136 8.28 1.1 12.6
11/3/2022 2:15:00 PM 10.07 50.126 0.136 8.29 1.1 12.55
11/3/2022 2:30:00 PM 10.24 50.432 0.136 8.32 1.03 12.48
11/3/2022 2:45:00 PM 10.38 50.684 0.136 8.33 1.07 12.42
11/3/2022 3:00:00 PM 10.45 50.81 0.136 8.28 0.99 12.31
11/3/2022 3:15:00 PM 10.5 50.9 0.136 8.26 1.09 12.21
11/3/2022 3:30:00 PM 10.55 50.99 0.136 8.23 1.05 12.08
11/3/2022 3:45:00 PM 10.6 51.08 0.136 8.17 1.07 11.96
11/3/2022 4:00:00 PM 10.65 51.17 0.137 8.13 1.04 11.87
11/3/2022 4:15:00 PM 10.69 51.242 0.137 8.07 1.12 11.78
11/3/2022 4:30:00 PM 10.71 51.278 0.137 8.04 1.06 11.7
11/3/2022 4:45:00 PM 10.74 51.332 0.137 8.01 1.11 11.61
11/3/2022 5:00:00 PM 10.75 51.35 0.137 7.97 1.16 11.56
11/3/2022 5:15:00 PM 10.75 51.35 0.137 7.94 1.12 11.48
11/3/2022 5:30:00 PM 10.71 51.278 0.137 7.89 1.13 11.39
11/3/2022 5:45:00 PM 10.66 51.188 0.137 7.84 1.16 11.28
11/3/2022 6:00:00 PM 10.6 51.08 0.137 7.78 1.12 11.17
11/3/2022 6:15:00 PM 10.54 50.972 0.138 7.74 1.15 11.05
11/3/2022 6:30:00 PM 10.49 50.882 0.138 7.69 1.13 10.95
11/3/2022 6:45:00 PM 10.44 50.792 0.138 7.66 1.1 10.88
11/3/2022 7:00:00 PM 10.38 50.684 0.138 7.63 1.29 10.83
11/3/2022 7:15:00 PM 10.32 50.576 0.138 7.61 1.19 10.81
11/3/2022 7:30:00 PM 10.25 50.45 0.139 7.6 1.18 10.81
11/3/2022 7:45:00 PM 10.18 50.324 0.139 7.57 1.17 10.82
11/3/2022 8:00:00 PM 10.11 50.198 0.139 7.57 1.22 10.83
11/3/2022 8:15:00 PM 10.04 50.072 0.139 7.56 1.22 10.86
11/3/2022 8:30:00 PM 9.96 49.928 0.139 7.54 1.16 10.87
11/3/2022 8:45:00 PM 9.87 49.766 0.139 7.53 1.14 10.89
11/3/2022 9:00:00 PM 9.79 49.622 0.139 7.52 1.18 10.9
11/3/2022 9:15:00 PM 9.71 49.478 0.139 7.52 1.16 10.91
11/3/2022 9:30:00 PM 9.63 49.334 0.139 7.51 1.16 10.93
11/3/2022 9:45:00 PM 9.55 49.19 0.139 7.47 1.19 10.96
11/3/2022 10:00:00 PM 9.47 49.046 0.139 7.5 1.11 11
11/3/2022 10:15:00 PM 9.39 48.902 0.139 7.5 1.17 11.02
11/3/2022 10:30:00 PM 9.3 48.74 0.139 7.49 1.21 11.05
11/3/2022 10:45:00 PM 9.22 48.596 0.139 7.5 1.13 11.07
11/3/2022 11:00:00 PM 9.14 48.452 0.139 7.49 1.19 11.1
11/3/2022 11:15:00 PM 9.06 48.308 0.139 7.49 1.96 11.11
11/3/2022 11:30:00 PM 8.97 48.146 0.139 7.44 1.16 11.14
11/3/2022 11:45:00 PM 8.9 48.02 0.139 7.49 1.13 11.17
11/4/2022 12:00:00 AM 8.82 47.876 0.139 7.47 1.12 11.21
11/4/2022 12:15:00 AM 8.75 47.75 0.139 7.48 1.17 11.22
11/4/2022 12:30:00 AM 8.67 47.606 0.139 7.49 1.33 11.25
11/4/2022 12:45:00 AM 8.59 47.462 0.139 7.48 1.17 11.27
11/4/2022 1:00:00 AM 8.51 47.318 0.139 7.48 1.17 11.29
11/4/2022 1:15:00 AM 8.44 47.192 0.139 7.47 1.17 11.3
11/4/2022 1:30:00 AM 8.37 47.066 0.139 7.49 1.22 11.31
11/4/2022 1:45:00 AM 8.3 46.94 0.139 7.48 1.16 11.34
11/4/2022 2:00:00 AM 8.24 46.832 0.139 7.48 1.23 11.37
11/4/2022 2:15:00 AM 8.18 46.724 0.139 7.42 1.19 11.39
11/4/2022 2:30:00 AM 8.12 46.616 0.139 7.45 1.13 11.42
11/4/2022 2:45:00 AM 8.05 46.49 0.139 7.48 1.13 11.44
11/4/2022 3:00:00 AM 8 46.4 0.139 7.48 1.19 11.46
11/4/2022 3:15:00 AM 7.95 46.31 0.139 7.48 1.15 11.48
11/4/2022 3:30:00 AM 7.89 46.202 0.139 7.48 1.23 11.49
11/4/2022 3:45:00 AM 7.84 46.112 0.139 7.44 1.09 11.49
11/4/2022 4:00:00 AM 7.78 46.004 0.139 7.45 1.12 11.51
11/4/2022 4:15:00 AM 7.73 45.914 0.139 7.46 1.12 11.53
11/4/2022 4:30:00 AM 7.68 45.824 0.139 7.46 1.08 11.54
11/4/2022 4:45:00 AM 7.64 45.752 0.139 7.46 1.12 11.56
11/4/2022 5:00:00 AM 7.59 45.662 0.139 7.48 1.07 11.58
11/4/2022 5:15:00 AM 7.55 45.59 0.139 7.5 1.08 11.6
11/4/2022 5:30:00 AM 7.51 45.518 0.139 7.49 1.12 11.61
11/4/2022 5:45:00 AM 7.47 45.446 0.139 7.47 1.11 11.63
11/4/2022 6:00:00 AM 7.43 45.374 0.139 7.48 1.16 11.64
11/4/2022 6:15:00 AM 7.39 45.302 0.139 7.49 1.09 11.66
11/4/2022 6:30:00 AM 7.35 45.23 0.139 7.48 1.13 11.67
11/4/2022 6:45:00 AM 7.31 45.158 0.139 7.45 1.08 11.68
11/4/2022 7:00:00 AM 7.27 45.086 0.139 7.49 1.06 11.69
11/4/2022 7:15:00 AM 7.24 45.032 0.139 7.48 1.13 11.7
11/4/2022 7:30:00 AM 7.21 44.978 0.139 7.44 1.09 11.71
11/4/2022 7:45:00 AM 7.17 44.906 0.139 7.46 1.22 11.73
11/4/2022 8:00:00 AM 7.14 44.852 0.139 7.47 1.13 11.8
11/4/2022 8:15:00 AM 7.12 44.816 0.139 7.5 1.1 11.91
11/4/2022 8:30:00 AM 7.11 44.798 0.138 7.54 1.08 12.06
11/4/2022 8:45:00 AM 7.1 44.78 0.138 7.54 1.05 12.2
11/4/2022 9:00:00 AM 7.11 44.798 0.138 7.57 1.1 12.34
11/4/2022 9:15:00 AM 7.12 44.816 0.138 7.61 1.14 12.47
11/4/2022 9:30:00 AM 7.13 44.834 0.138 7.67 1.13 12.58
11/4/2022 9:45:00 AM 7.16 44.888 0.138 7.69 1.15 12.64
11/4/2022 10:00:00 AM 7.21 44.978 0.137 7.73 1.12 12.72
11/4/2022 10:15:00 AM 7.28 45.104 0.137 7.77 1.17 12.81
11/4/2022 10:30:00 AM 7.34 45.212 0.137 7.81 1.13 12.85
11/4/2022 10:45:00 AM 7.42 45.356 0.137 7.84 1.09 12.89
11/4/2022 11:00:00 AM 7.51 45.518 0.137 7.87 1.14 12.92
11/4/2022 11:15:00 AM 7.64 45.752 0.137 7.91 1.09 12.95
11/4/2022 11:30:00 AM 7.77 45.986 0.137 7.96 1.1 12.93
11/4/2022 11:45:00 AM 7.93 46.274 0.137 7.99 1.11 12.96
11/4/2022 12:00:00 PM 8.15 46.67 0.137 7.99 1.04 12.94
11/4/2022 12:15:00 PM 8.37 47.066 0.137 8.08 1.08 12.91
11/4/2022 12:30:00 PM 8.58 47.444 0.137 8.12 1.05 12.91
11/4/2022 12:45:00 PM 8.8 47.84 0.137 8.17 1.03 12.89
11/4/2022 1:00:00 PM 9.05 48.29 0.136 8.16 1.08 12.82
11/4/2022 1:15:00 PM 9.32 48.776 0.136 8.25 1.11 12.78
11/4/2022 1:30:00 PM 9.55 49.19 0.136 8.28 1.04 12.71
11/4/2022 1:45:00 PM 9.79 49.622 0.136 8.31 1.02 12.62
11/4/2022 2:00:00 PM 9.99 49.982 0.136 8.33 1.04 12.58
11/4/2022 2:15:00 PM 10.16 50.288 0.136 8.35 1.06 12.52
11/4/2022 2:30:00 PM 10.32 50.576 0.136 8.33 1.05 12.46
11/4/2022 2:45:00 PM 10.49 50.882 0.136 8.39 1.05 12.45
11/4/2022 3:00:00 PM 10.58 51.044 0.136 8.36 1.02 12.37
11/4/2022 3:15:00 PM 10.67 51.206 0.136 8.4 1.06 12.32
11/4/2022 3:30:00 PM 10.77 51.386 0.136 8.41 1.09 12.26
11/4/2022 3:45:00 PM 10.86 51.548 0.136 8.4 1.09 12.18
11/4/2022 4:00:00 PM 10.92 51.656 0.136 8.38 1.04 12.09
11/4/2022 4:15:00 PM 10.99 51.782 0.136 8.36 1.12 12.07
11/4/2022 4:30:00 PM 11.05 51.89 0.136 8.39 1.08 12.08
11/4/2022 4:45:00 PM 11.09 51.962 0.136 8.38 1.09 12.02
11/4/2022 5:00:00 PM 11.1 51.98 0.136 8.32 1.1 11.88
11/4/2022 5:15:00 PM 11.1 51.98 0.136 8.23 1.11 11.73
11/4/2022 5:30:00 PM 11.1 51.98 0.136 8.12 1.19 11.56
11/4/2022 5:45:00 PM 11.06 51.908 0.136 8 1.21 11.34
11/4/2022 6:00:00 PM 11.02 51.836 0.137 7.88 1.15 11.13
11/4/2022 6:15:00 PM 10.98 51.764 0.137 7.81 1.19 10.95
11/4/2022 6:30:00 PM 10.94 51.692 0.137 7.75 1.21 10.83
11/4/2022 6:45:00 PM 10.92 51.656 0.138 7.67 1.16 10.73
11/4/2022 7:00:00 PM 10.9 51.62 0.138 7.67 1.16 10.68
11/4/2022 7:15:00 PM 10.87 51.566 0.138 7.6 1.22 10.66
11/4/2022 7:30:00 PM 10.83 51.494 0.138 7.62 1.15 10.64
11/4/2022 7:45:00 PM 10.8 51.44 0.138 7.61 1.23 10.62
11/4/2022 8:00:00 PM 10.77 51.386 0.139 7.58 1.2 10.62
11/4/2022 8:15:00 PM 10.74 51.332 0.139 7.58 1.23 10.62
11/4/2022 8:30:00 PM 10.7 51.26 0.138 7.57 1.21 10.63
11/4/2022 8:45:00 PM 10.66 51.188 0.138 7.53 1.19 10.64
11/4/2022 9:00:00 PM 10.61 51.098 0.138 7.55 1.2 10.65
11/4/2022 9:15:00 PM 10.56 51.008 0.138 7.54 1.14 10.66
11/4/2022 9:30:00 PM 10.51 50.918 0.139 7.54 1.1 10.67
11/4/2022 9:45:00 PM 10.45 50.81 0.139 7.53 1.15 10.68
11/4/2022 10:00:00 PM 10.4 50.72 0.139 7.48 1.1 10.69
11/4/2022 10:15:00 PM 10.34 50.612 0.139 7.51 1.25 10.69
11/4/2022 10:30:00 PM 10.29 50.522 0.139 7.51 1.18 10.71
11/4/2022 10:45:00 PM 10.24 50.432 0.139 7.51 1.16 10.73
11/4/2022 11:00:00 PM 10.19 50.342 0.139 7.49 1.18 10.75
11/4/2022 11:15:00 PM 10.15 50.27 0.139 7.47 1.15 10.77
11/4/2022 11:30:00 PM 10.12 50.216 0.139 7.51 1.23 10.78
11/4/2022 11:45:00 PM 10.08 50.144 0.139 7.5 1.16 10.79
11/5/2022 12:00:00 AM 10.05 50.09 0.139 7.51 1.18 10.8
11/5/2022 12:15:00 AM 10.03 50.054 0.139 7.5 1.17 10.81
11/5/2022 12:30:00 AM 10 50 0.139 7.51 1.13 10.82
11/5/2022 12:45:00 AM 9.97 49.946 0.139 7.52 1.21 10.82
11/5/2022 1:00:00 AM 9.93 49.874 0.139 7.5 1.1 10.84
11/5/2022 1:15:00 AM 9.89 49.802 0.139 7.51 1.21 10.84
11/5/2022 1:30:00 AM 9.85 49.73 0.139 7.5 1.13 10.86
11/5/2022 1:45:00 AM 9.81 49.658 0.139 7.49 1.22 10.87
11/5/2022 2:00:00 AM 9.77 49.586 0.139 7.47 1.24 10.86
11/5/2022 2:15:00 AM 9.73 49.514 0.139 7.48 1.17 10.88
11/5/2022 2:30:00 AM 9.69 49.442 0.139 7.5 1.21 10.88
11/5/2022 2:45:00 AM 9.67 49.406 0.139 7.46 1.21 10.88
11/5/2022 3:00:00 AM 9.66 49.388 0.139 7.49 1.27 10.9
11/5/2022 3:15:00 AM 9.64 49.352 0.139 7.5 1.23 10.9
11/5/2022 3:30:00 AM 9.63 49.334 0.139 7.49 1.19 10.91
11/5/2022 3:45:00 AM 9.63 49.334 0.139 7.51 1.13 10.91
11/5/2022 4:00:00 AM 9.64 49.352 0.139 7.46 1.19 10.92
11/5/2022 4:15:00 AM 9.66 49.388 0.139 7.48 1.16 10.9
11/5/2022 4:30:00 AM 9.68 49.424 0.139 7.49 1.16 10.9
11/5/2022 4:45:00 AM 9.69 49.442 0.139 7.51 1.11 10.89
11/5/2022 5:00:00 AM 9.72 49.496 0.139 7.51 1.12 10.89
11/5/2022 5:15:00 AM 9.77 49.586 0.139 7.51 1.15 10.89
11/5/2022 5:30:00 AM 9.8 49.64 0.139 7.52 1.13 10.88
11/5/2022 5:45:00 AM 9.82 49.676 0.138 7.52 1.17 10.88
11/5/2022 6:00:00 AM 9.86 49.748 0.138 7.48 1.14 10.88
11/5/2022 6:15:00 AM 9.89 49.802 0.138 7.52 1.17 10.86
11/5/2022 6:30:00 AM 9.94 49.892 0.138 7.52 1.12 10.85
11/5/2022 6:45:00 AM 9.98 49.964 0.138 7.51 1.12 10.84
11/5/2022 7:00:00 AM 10.03 50.054 0.138 7.52 1.16 10.83
11/5/2022 7:15:00 AM 10.08 50.144 0.138 7.52 1.14 10.81
11/5/2022 7:30:00 AM 10.13 50.234 0.138 7.53 1.15 10.8
11/5/2022 7:45:00 AM 10.19 50.342 0.138 7.52 1.24 10.79
11/5/2022 8:00:00 AM 10.26 50.468 0.138 7.53 1.22 10.8
11/5/2022 8:15:00 AM 10.33 50.594 0.138 7.56 1.16 10.86
11/5/2022 8:30:00 AM 10.39 50.702 0.138 7.59 1.19 11.04
11/5/2022 8:45:00 AM 10.46 50.828 0.137 7.63 1.18 11.3
11/5/2022 9:00:00 AM 10.54 50.972 0.137 7.68 1.19 11.47
11/5/2022 9:15:00 AM 10.62 51.116 0.137 7.71 1.19 11.56
11/5/2022 9:30:00 AM 10.72 51.296 0.136 7.77 1.14 11.67
11/5/2022 9:45:00 AM 10.81 51.458 0.136 7.84 1.13 11.83
11/5/2022 10:00:00 AM 10.92 51.656 0.136 7.93 1.15 11.97
11/5/2022 10:15:00 AM 11.01 51.818 0.136 8 1.2 12.04
11/5/2022 10:30:00 AM 11.12 52.016 0.136 8.06 1.16 12.16
11/5/2022 10:45:00 AM 11.22 52.196 0.135 8.2 1.14 12.25
11/5/2022 11:00:00 AM 11.34 52.412 0.135 8.26 1.1 12.27
11/5/2022 11:15:00 AM 11.45 52.61 0.135 8.26 1.21 12.15
11/5/2022 11:30:00 AM 11.52 52.736 0.135 8.29 1.09 12.11
11/5/2022 11:45:00 AM 11.66 52.988 0.135 8.39 1.12 12.21
11/5/2022 12:00:00 PM 11.74 53.132 0.135 8.41 1.13 12.16
11/5/2022 12:15:00 PM 11.77 53.186 0.135 8.39 1.1 12.07
11/5/2022 12:30:00 PM 11.84 53.312 0.135 8.39 1.13 12
11/5/2022 12:45:00 PM 11.92 53.456 0.135 8.41 1.13 12
11/5/2022 1:00:00 PM 11.98 53.564 0.135 8.43 1.08 12.02
11/5/2022 1:15:00 PM 12.06 53.708 0.135 8.49 1.13 12.07
11/5/2022 1:30:00 PM 12.15 53.87 0.135 8.52 1.09 12.08
11/5/2022 1:45:00 PM 12.21 53.978 0.135 8.55 1.09 12.04
11/5/2022 2:00:00 PM 12.26 54.068 0.135 8.5 1.1 11.9
11/5/2022 2:15:00 PM 12.31 54.158 0.135 8.47 1.02 11.75
11/5/2022 2:30:00 PM 12.37 54.266 0.135 8.41 1.13 11.67
11/5/2022 2:45:00 PM 12.41 54.338 0.135 8.38 1.12 11.67
11/5/2022 3:00:00 PM 12.43 54.374 0.135 8.34 1.08 11.53
11/5/2022 3:15:00 PM 12.49 54.482 0.135 8.34 1.15 11.58
11/5/2022 3:30:00 PM 12.51 54.518 0.135 8.24 1.16 11.38
11/5/2022 3:45:00 PM 12.55 54.59 0.135 8.16 1.14 11.25
11/5/2022 4:00:00 PM 12.6 54.68 0.135 8.11 1.2 11.2
11/5/2022 4:15:00 PM 12.66 54.788 0.135 8.16 1.16 11.36
11/5/2022 4:30:00 PM 12.69 54.842 0.135 8.24 1.16 11.49
11/5/2022 4:45:00 PM 12.7 54.86 0.135 8.25 1.14 11.5
11/5/2022 5:00:00 PM 12.71 54.878 0.135 8.16 1.16 11.34
11/5/2022 5:15:00 PM 12.72 54.896 0.135 8.09 1.19 11.09
11/5/2022 5:30:00 PM 12.73 54.914 0.136 8.01 1.19 10.95
11/5/2022 5:45:00 PM 12.7 54.86 0.136 7.87 1.22 10.77
11/5/2022 6:00:00 PM 12.68 54.824 0.136 7.84 1.21 10.6
11/5/2022 6:15:00 PM 12.64 54.752 0.137 7.76 1.25 10.45
11/5/2022 6:30:00 PM 12.63 54.734 0.137 7.72 1.18 10.33
11/5/2022 6:45:00 PM 12.62 54.716 0.137 7.64 1.3 10.24
11/5/2022 7:00:00 PM 12.62 54.716 0.138 7.65 1.22 10.18
11/5/2022 7:15:00 PM 12.64 54.752 0.138 7.63 1.26 10.12
11/5/2022 7:30:00 PM 12.64 54.752 0.138 7.6 1.2 10.1
11/5/2022 7:45:00 PM 12.62 54.716 0.138 7.59 1.26 10.08
11/5/2022 8:00:00 PM 12.61 54.698 0.138 7.54 1.2 10.07
11/5/2022 8:15:00 PM 12.62 54.716 0.138 7.58 1.21 10.06
11/5/2022 8:30:00 PM 12.63 54.734 0.138 7.57 1.31 10.05
11/5/2022 8:45:00 PM 12.67 54.806 0.138 7.53 1.42 10.03
11/5/2022 9:00:00 PM 12.7 54.86 0.138 7.56 1.24 10.02
11/5/2022 9:15:00 PM 12.73 54.914 0.138 7.55 1.22 10.02
11/5/2022 9:30:00 PM 12.73 54.914 0.138 7.56 1.15 10.01
11/5/2022 9:45:00 PM 12.73 54.914 0.138 7.5 1.28 10.01
11/5/2022 10:00:00 PM 12.72 54.896 0.138 7.53 1.17 10.01
11/5/2022 10:15:00 PM 12.73 54.914 0.138 7.55 1.21 10.01
11/5/2022 10:30:00 PM 12.73 54.914 0.138 7.54 1.22 10.01
11/5/2022 10:45:00 PM 12.73 54.914 0.138 7.54 1.21 10.01
11/5/2022 11:00:00 PM 12.76 54.968 0.138 7.54 1.15 10
11/5/2022 11:15:00 PM 12.79 55.022 0.138 7.54 1.25 9.99
11/5/2022 11:30:00 PM 12.81 55.058 0.138 7.5 1.28 9.99
11/5/2022 11:45:00 PM 12.81 55.058 0.139 7.53 1.22 9.98
11/6/2022 12:00:00 AM 12.81 55.058 0.139 7.53 1.17 9.98
11/6/2022 12:15:00 AM 12.81 55.058 0.139 7.53 1.23 9.98
11/6/2022 12:30:00 AM 12.82 55.076 0.139 7.48 1.25 9.98
11/6/2022 12:45:00 AM 12.84 55.112 0.139 7.5 1.26 9.97
11/6/2022 1:00:00 AM 12.84 55.112 0.139 7.51 1.32 9.97
11/6/2022 1:15:00 AM 12.85 55.13 0.139 7.52 1.25 9.97
11/6/2022 1:30:00 AM 12.87 55.166 0.139 7.52 1.3 9.97
11/6/2022 1:45:00 AM 12.89 55.202 0.139 7.53 1.26 9.95
11/6/2022 2:00:00 AM 12.92 55.256 0.139 7.52 1.28 9.95
11/6/2022 2:15:00 AM 12.92 55.256 0.139 7.48 1.27 9.95
11/6/2022 2:30:00 AM 12.92 55.256 0.139 7.5 1.24 9.94
11/6/2022 2:45:00 AM 12.93 55.274 0.139 7.51 1.27 9.94
11/6/2022 3:00:00 AM 12.96 55.328 0.139 7.5 1.25 9.94
11/6/2022 3:15:00 AM 12.97 55.346 0.138 7.5 1.24 9.94
11/6/2022 3:30:00 AM 12.98 55.364 0.138 7.49 1.39 9.95
11/6/2022 3:45:00 AM 13 55.4 0.138 7.49 1.27 9.95
11/6/2022 4:00:00 AM 13.03 55.454 0.138 7.53 1.27 9.94
11/6/2022 4:15:00 AM 13.07 55.526 0.138 7.52 1.22 9.94
11/6/2022 4:30:00 AM 13.05 55.49 0.138 7.52 1.2 9.95
11/6/2022 4:45:00 AM 13.05 55.49 0.138 7.52 1.26 9.94
11/6/2022 5:00:00 AM 13.05 55.49 0.138 7.52 1.32 9.96
11/6/2022 5:15:00 AM 13.07 55.526 0.138 7.51 1.32 9.95
11/6/2022 5:30:00 AM 13.08 55.544 0.138 7.51 1.21 9.95
11/6/2022 5:45:00 AM 13.08 55.544 0.138 7.52 1.24 9.96
11/6/2022 6:00:00 AM 13.09 55.562 0.138 7.52 1.25 9.96
11/6/2022 6:15:00 AM 13.08 55.544 0.138 7.51 1.37 9.96
11/6/2022 6:30:00 AM 13.07 55.526 0.138 7.51 1.31 9.96
11/6/2022 6:45:00 AM 13.07 55.526 0.138 7.52 1.24 9.96
11/6/2022 7:00:00 AM 13.09 55.562 0.138 7.51 1.33 9.98
11/6/2022 7:15:00 AM 13.1 55.58 0.138 7.53 1.25 10.02
11/6/2022 7:30:00 AM 13.11 55.598 0.138 7.53 1.23 10.11
11/6/2022 7:45:00 AM 13.12 55.616 0.138 7.56 1.17 10.19
11/6/2022 8:00:00 AM 13.11 55.598 0.138 7.58 1.19 10.34
11/6/2022 8:15:00 AM 13.14 55.652 0.137 7.63 1.15 10.55
11/6/2022 8:30:00 AM 13.2 55.76 0.137 7.71 1.22 10.91
11/6/2022 8:45:00 AM 13.28 55.904 0.136 7.77 1.26 11.25
11/6/2022 9:00:00 AM 13.35 56.03 0.136 7.95 1.2 11.46
11/6/2022 9:15:00 AM 13.44 56.192 0.135 8.08 1.3 11.63
11/6/2022 9:30:00 AM 13.5 56.3 0.135 8.15 1.22 11.63
11/6/2022 9:45:00 AM 13.59 56.462 0.135 8.22 1.2 11.63
11/6/2022 10:00:00 AM 13.64 56.552 0.135 8.27 1.16 11.62
11/6/2022 10:15:00 AM 13.7 56.66 0.135 8.29 1.24 11.61
11/6/2022 10:30:00 AM 13.77 56.786 0.135 8.33 1.14 11.57
11/6/2022 10:45:00 AM 13.87 56.966 0.135 8.38 1.25 11.63
11/6/2022 11:00:00 AM 14.03 57.254 0.135 8.49 1.19 11.77
11/6/2022 11:15:00 AM 14.15 57.47 0.135 8.58 1.16 11.81
11/6/2022 11:30:00 AM 14.21 57.578 0.135 8.62 1.2 11.78
11/6/2022 11:45:00 AM 14.26 57.668 0.135 8.65 1.27 11.75
11/6/2022 12:00:00 PM 14.33 57.794 0.135 8.68 1.15 11.74
11/6/2022 12:15:00 PM 14.39 57.902 0.135 8.71 1.2 11.74
11/6/2022 12:30:00 PM 14.44 57.992 0.135 8.72 1.21 11.68
11/6/2022 12:45:00 PM 14.48 58.064 0.135 8.71 1.18 11.57
11/6/2022 1:00:00 PM 14.61 58.298 0.135 8.74 1.16 11.61
11/6/2022 1:15:00 PM 14.87 58.766 0.135 8.8 1.18 11.69
11/6/2022 1:30:00 PM 15.03 59.054 0.135 8.83 1.15 11.67
11/6/2022 1:45:00 PM 15.04 59.072 0.135 8.81 1.11 11.53
11/6/2022 2:00:00 PM 15.06 59.108 0.135 8.8 1.22 11.46
11/6/2022 2:15:00 PM 15.07 59.126 0.135 8.77 1.14 11.35
11/6/2022 2:30:00 PM 15.09 59.162 0.135 8.73 1.37 11.37
11/6/2022 2:45:00 PM 15.12 59.216 0.135 8.75 1.22 11.3
11/6/2022 3:00:00 PM 15.16 59.288 0.135 8.71 1.21 11.15
11/6/2022 3:15:00 PM 15.17 59.306 0.135 8.63 1.17 10.97
11/6/2022 3:30:00 PM 15.25 59.45 0.135 8.55 1.24 10.84
11/6/2022 3:45:00 PM 15.3 59.54 0.135 8.4 1.26 10.57
11/6/2022 4:00:00 PM 15.34 59.612 0.135 8.33 1.22 10.54
11/6/2022 4:15:00 PM 15.28 59.504 0.136 8.2 1.26 10.41
11/6/2022 4:30:00 PM 15.23 59.414 0.136 8.09 1.31 10.28
11/6/2022 4:45:00 PM 15.15 59.27 0.136 7.98 1.24 10.14
11/6/2022 5:00:00 PM 15.08 59.144 0.137 7.89 1.24 9.97
11/6/2022 5:15:00 PM 15 59 0.137 7.77 1.26 9.82
11/6/2022 5:30:00 PM 14.93 58.874 0.138 7.73 1.27 9.7
11/6/2022 5:45:00 PM 14.86 58.748 0.138 7.7 1.32 9.61
11/6/2022 6:00:00 PM 14.8 58.64 0.138 7.67 1.4 9.56
11/6/2022 6:15:00 PM 14.77 58.586 0.138 7.64 1.6 9.53
11/6/2022 6:30:00 PM 14.72 58.496 0.138 7.62 1.29 9.53
11/6/2022 6:45:00 PM 14.67 58.406 0.138 7.59 1.55 9.52
11/6/2022 7:00:00 PM 14.6 58.28 0.138 7.57 1.34 9.53
11/6/2022 7:15:00 PM 14.57 58.226 0.139 7.55 1.39 9.53
11/6/2022 7:30:00 PM 14.54 58.172 0.139 7.53 1.4 9.53
11/6/2022 7:45:00 PM 14.51 58.118 0.139 7.54 1.49 9.54
11/6/2022 8:00:00 PM 14.49 58.082 0.139 7.53 1.38 9.54
11/6/2022 8:15:00 PM 14.45 58.01 0.139 7.53 1.27 9.55
11/6/2022 8:30:00 PM 14.41 57.938 0.139 7.52 1.29 9.55
11/6/2022 8:45:00 PM 14.38 57.884 0.139 7.52 1.34 9.56
11/6/2022 9:00:00 PM 14.35 57.83 0.139 7.51 1.26 9.56
11/6/2022 9:15:00 PM 14.29 57.722 0.139 7.5 1.29 9.57
11/6/2022 9:30:00 PM 14.25 57.65 0.139 7.51 1.24 9.58
11/6/2022 9:45:00 PM 14.23 57.614 0.139 7.5 1.41 9.58
11/6/2022 10:00:00 PM 14.21 57.578 0.139 7.46 1.3 9.59
11/6/2022 10:15:00 PM 14.19 57.542 0.139 7.49 1.23 9.6
11/6/2022 10:30:00 PM 14.18 57.524 0.139 7.5 1.29 9.59
11/6/2022 10:45:00 PM 14.17 57.506 0.139 7.48 1.34 9.61
11/6/2022 11:00:00 PM 14.16 57.488 0.14 7.5 1.36 9.62
11/6/2022 11:15:00 PM 14.12 57.416 0.14 7.5 1.24 9.63
11/6/2022 11:30:00 PM 14.07 57.326 0.14 7.47 1.35 9.65
11/6/2022 11:45:00 PM 14.02 57.236 0.14 7.49 1.26 9.67
11/7/2022 12:00:00 AM 13.99 57.182 0.14 7.49 1.28 9.67
11/7/2022 12:15:00 AM 13.94 57.092 0.14 7.49 1.65 9.69
11/7/2022 12:30:00 AM 13.89 57.002 0.14 7.48 1.35 9.7
11/7/2022 12:45:00 AM 13.83 56.894 0.14 7.43 1.34 9.71
11/7/2022 1:00:00 AM 13.77 56.786 0.14 7.47 1.32 9.73
11/7/2022 1:15:00 AM 13.71 56.678 0.14 7.46 1.3 9.73
11/7/2022 1:30:00 AM 13.64 56.552 0.14 7.47 1.35 9.75
11/7/2022 1:45:00 AM 13.6 56.48 0.14 7.46 1.33 9.76
11/7/2022 2:00:00 AM 13.56 56.408 0.14 7.45 1.35 9.77
11/7/2022 2:15:00 AM 13.52 56.336 0.14 7.46 1.34 9.77
11/7/2022 2:30:00 AM 13.49 56.282 0.14 7.44 1.34 9.79
11/7/2022 2:45:00 AM 13.47 56.246 0.14 7.45 1.41 9.8
11/7/2022 3:00:00 AM 13.45 56.21 0.14 7.46 1.33 9.81
11/7/2022 3:15:00 AM 13.41 56.138 0.14 7.45 1.33 9.83
11/7/2022 3:30:00 AM 13.38 56.084 0.14 7.47 1.39 9.83
11/7/2022 3:45:00 AM 13.34 56.012 0.14 7.48 1.45 9.85
11/7/2022 4:00:00 AM 13.29 55.922 0.14 7.49 1.24 9.86
11/7/2022 4:15:00 AM 13.21 55.778 0.14 7.48 1.33 9.88
11/7/2022 4:30:00 AM 13.14 55.652 0.14 7.47 1.36 9.9
11/7/2022 4:45:00 AM 13.06 55.508 0.14 7.43 1.28 9.91
11/7/2022 5:00:00 AM 12.98 55.364 0.14 7.48 1.33 9.93
11/7/2022 5:15:00 AM 12.89 55.202 0.14 7.42 1.25 9.95
11/7/2022 5:30:00 AM 12.8 55.04 0.139 7.47 1.27 9.98
11/7/2022 5:45:00 AM 12.71 54.878 0.139 7.47 1.34 10.01
11/7/2022 6:00:00 AM 12.62 54.716 0.139 7.42 1.31 10.05
11/7/2022 6:15:00 AM 12.52 54.536 0.139 7.45 1.26 10.07
11/7/2022 6:30:00 AM 12.43 54.374 0.139 7.45 1.26 10.09
11/7/2022 6:45:00 AM 12.34 54.212 0.139 7.45 1.3 10.13
11/7/2022 7:00:00 AM 12.25 54.05 0.139 7.41 1.3 10.18
11/7/2022 7:15:00 AM 12.17 53.906 0.139 7.47 1.37 10.3
11/7/2022 7:30:00 AM 12.09 53.762 0.139 7.47 1.32 10.43
11/7/2022 7:45:00 AM 12.03 53.654 0.139 7.51 1.3 10.56
11/7/2022 8:00:00 AM 11.96 53.528 0.139 7.54 1.16 10.69
11/7/2022 8:15:00 AM 11.91 53.438 0.139 7.57 1.28 10.81
11/7/2022 8:30:00 AM 11.88 53.384 0.139 7.59 1.27 10.96
11/7/2022 8:45:00 AM 11.89 53.402 0.138 7.62 1.18 11.15
11/7/2022 9:00:00 AM 11.91 53.438 0.138 7.7 1.2 11.31
11/7/2022 9:15:00 AM 11.94 53.492 0.138 7.78 1.27 11.43
11/7/2022 9:30:00 AM 11.97 53.546 0.138 7.84 1.18 11.5
11/7/2022 9:45:00 AM 12.01 53.618 0.138 7.9 1.14 11.58
11/7/2022 10:00:00 AM 12.05 53.69 0.138 7.92 1.21 11.64
11/7/2022 10:15:00 AM 12.09 53.762 0.137 7.99 1.19 11.71
11/7/2022 10:30:00 AM 12.13 53.834 0.137 8.03 1.23 11.75
11/7/2022 10:45:00 AM 12.2 53.96 0.137 8.1 1.18 11.77
11/7/2022 11:00:00 AM 12.29 54.122 0.137 8.15 1.38 11.8
11/7/2022 11:15:00 AM 12.37 54.266 0.137 8.2 1.19 11.84
11/7/2022 11:30:00 AM 12.44 54.392 0.136 8.25 1.23 11.86
11/7/2022 11:45:00 AM 12.52 54.536 0.136 8.27 1.2 11.88
11/7/2022 12:00:00 PM 12.6 54.68 0.136 8.33 1.23 11.89
11/7/2022 12:15:00 PM 12.69 54.842 0.136 8.36 1.23 11.89
11/7/2022 12:30:00 PM 12.81 55.058 0.136 8.4 1.18 11.87
11/7/2022 12:45:00 PM 12.92 55.256 0.136 8.42 1.19 11.84
11/7/2022 1:00:00 PM 13.02 55.436 0.136 8.47 1.14 11.83
11/7/2022 1:15:00 PM 13.12 55.616 0.136 8.48 1.17 11.81
11/7/2022 1:30:00 PM 13.2 55.76 0.136 8.49 1.18 11.77
11/7/2022 1:45:00 PM 13.2 55.76 0.136 8.51 1.21 11.71
11/7/2022 2:00:00 PM 13.18 55.724 0.136 8.47 1.24 11.59
11/7/2022 2:15:00 PM 13.17 55.706 0.136 8.4 1.2 11.46
11/7/2022 2:30:00 PM 13.14 55.652 0.136 8.34 1.21 11.32
11/7/2022 2:45:00 PM 13.11 55.598 0.136 8.28 1.26 11.23
11/7/2022 3:00:00 PM 13.09 55.562 0.136 8.23 1.22 11.15
11/7/2022 3:15:00 PM 13.08 55.544 0.136 8.16 1.28 11.08
11/7/2022 3:30:00 PM 13.01 55.418 0.137 8.1 1.37 11
11/7/2022 3:45:00 PM 12.97 55.346 0.137 8.07 1.19 10.93
11/7/2022 4:00:00 PM 12.94 55.292 0.137 8.02 1.24 10.87
11/7/2022 4:15:00 PM 12.9 55.22 0.137 7.97 1.19 10.81
11/7/2022 4:30:00 PM 12.85 55.13 0.137 7.92 1.28 10.72
11/7/2022 4:45:00 PM 12.76 54.968 0.138 7.83 1.28 10.63
11/7/2022 5:00:00 PM 12.63 54.734 0.138 7.79 1.34 10.53
11/7/2022 5:15:00 PM 12.5 54.5 0.138 7.73 1.29 10.43
11/7/2022 5:30:00 PM 12.39 54.302 0.138 7.66 1.34 10.35
11/7/2022 5:45:00 PM 12.31 54.158 0.138 7.63 1.33 10.29
11/7/2022 6:00:00 PM 12.2 53.96 0.139 7.61 1.51 10.26
11/7/2022 6:15:00 PM 12.11 53.798 0.139 7.54 1.42 10.27
11/7/2022 6:30:00 PM 12.02 53.636 0.139 7.57 1.38 10.27
11/7/2022 6:45:00 PM 11.92 53.456 0.139 7.56 1.4 10.29
11/7/2022 7:00:00 PM 11.84 53.312 0.139 7.55 1.38 10.31
11/7/2022 7:15:00 PM 11.74 53.132 0.139 7.54 1.25 10.31
11/7/2022 7:30:00 PM 11.64 52.952 0.14 7.54 1.31 10.33
11/7/2022 7:45:00 PM 11.56 52.808 0.14 7.54 1.34 10.35
11/7/2022 8:00:00 PM 11.52 52.736 0.14 7.54 1.3 10.38
11/7/2022 8:15:00 PM 11.46 52.628 0.14 7.53 1.34 10.39
11/7/2022 8:30:00 PM 11.41 52.538 0.14 7.52 1.35 10.42
11/7/2022 8:45:00 PM 11.34 52.412 0.14 7.51 1.28 10.44
11/7/2022 9:00:00 PM 11.26 52.268 0.14 7.52 1.24 10.47
11/7/2022 9:15:00 PM 11.18 52.124 0.14 7.53 1.29 10.49
11/7/2022 9:30:00 PM 11.08 51.944 0.14 7.52 1.21 10.51
11/7/2022 9:45:00 PM 10.99 51.782 0.141 7.51 1.26 10.53
11/7/2022 10:00:00 PM 10.9 51.62 0.141 7.51 1.34 10.57
11/7/2022 10:15:00 PM 10.81 51.458 0.141 7.52 1.36 10.6
11/7/2022 10:30:00 PM 10.73 51.314 0.141 7.5 1.33 10.64
11/7/2022 10:45:00 PM 10.63 51.134 0.141 7.48 1.34 10.67
11/7/2022 11:00:00 PM 10.52 50.936 0.141 7.49 1.28 10.7
11/7/2022 11:15:00 PM 10.42 50.756 0.141 7.5 1.31 10.72
11/7/2022 11:30:00 PM 10.34 50.612 0.141 7.51 1.27 10.74
11/7/2022 11:45:00 PM 10.26 50.468 0.141 7.51 1.34 10.78
11/8/2022 12:00:00 AM 10.18 50.324 0.141 7.5 1.32 10.81
11/8/2022 12:15:00 AM 10.09 50.162 0.141 7.49 1.35 10.83
11/8/2022 12:30:00 AM 9.99 49.982 0.141 7.49 1.33 10.86
11/8/2022 12:45:00 AM 9.89 49.802 0.141 7.5 1.32 10.9
11/8/2022 1:00:00 AM 9.81 49.658 0.141 7.51 1.29 10.92
11/8/2022 1:15:00 AM 9.73 49.514 0.141 7.46 1.23 10.94
11/8/2022 1:30:00 AM 9.64 49.352 0.141 7.5 1.29 10.97
11/8/2022 1:45:00 AM 9.55 49.19 0.141 7.5 1.25 11.01
11/8/2022 2:00:00 AM 9.46 49.028 0.141 7.5 1.34 11.04
11/8/2022 2:15:00 AM 9.38 48.884 0.141 7.51 1.34 11.06
11/8/2022 2:30:00 AM 9.31 48.758 0.141 7.51 1.3 11.09
11/8/2022 2:45:00 AM 9.24 48.632 0.14 7.46 1.26 11.11
11/8/2022 3:00:00 AM 9.18 48.524 0.14 7.51 1.29 11.13
11/8/2022 3:15:00 AM 9.12 48.416 0.14 7.5 1.38 11.14
11/8/2022 3:30:00 AM 9.07 48.326 0.14 7.51 1.23 11.16
11/8/2022 3:45:00 AM 9.03 48.254 0.14 7.51 1.39 11.17
11/8/2022 4:00:00 AM 8.97 48.146 0.14 7.48 1.32 11.2
11/8/2022 4:15:00 AM 8.94 48.092 0.14 7.52 1.29 11.22
11/8/2022 4:30:00 AM 8.91 48.038 0.14 7.52 1.33 11.23
11/8/2022 4:45:00 AM 8.88 47.984 0.14 7.49 1.26 11.25
11/8/2022 5:00:00 AM 8.82 47.876 0.14 7.52 1.29 11.27
11/8/2022 5:15:00 AM 8.76 47.768 0.14 7.5 1.28 11.29
11/8/2022 5:30:00 AM 8.69 47.642 0.14 7.52 1.29 11.31
11/8/2022 5:45:00 AM 8.62 47.516 0.14 7.49 1.26 11.33
11/8/2022 6:00:00 AM 8.56 47.408 0.14 7.52 1.22 11.35
11/8/2022 6:15:00 AM 8.51 47.318 0.14 7.47 1.3 11.35
11/8/2022 6:30:00 AM 8.46 47.228 0.14 7.52 1.31 11.36
11/8/2022 6:45:00 AM 8.43 47.174 0.14 7.52 1.35 11.39
11/8/2022 7:00:00 AM 8.4 47.12 0.14 7.53 1.37 11.44
11/8/2022 7:15:00 AM 8.39 47.102 0.14 7.51 1.33 11.57
11/8/2022 7:30:00 AM 8.38 47.084 0.14 7.59 1.31 11.71
11/8/2022 7:45:00 AM 8.35 47.03 0.14 7.61 1.34 11.86
11/8/2022 8:00:00 AM 8.31 46.958 0.139 7.64 1.32 12
11/8/2022 8:15:00 AM 8.28 46.904 0.139 7.67 1.36 12.15
11/8/2022 8:30:00 AM 8.27 46.886 0.139 7.72 1.35 12.3
11/8/2022 8:45:00 AM 8.29 46.922 0.139 7.78 1.33 12.46
11/8/2022 9:00:00 AM 8.32 46.976 0.138 7.81 1.29 12.56
11/8/2022 9:15:00 AM 8.38 47.084 0.138 7.88 1.34 12.63
11/8/2022 9:30:00 AM 8.44 47.192 0.138 7.93 1.24 12.7
11/8/2022 9:45:00 AM 8.49 47.282 0.138 7.97 1.23 12.75
11/8/2022 10:00:00 AM 8.53 47.354 0.138 8.02 1.24 12.78
11/8/2022 10:15:00 AM 8.58 47.444 0.138 8.04 1.43 12.81
11/8/2022 10:30:00 AM 8.65 47.57 0.138 8.08 1.3 12.84
11/8/2022 10:45:00 AM 8.71 47.678 0.138 8.1 1.21 12.85
11/8/2022 11:00:00 AM 8.81 47.858 0.137 8.14 1.2 12.85
11/8/2022 11:15:00 AM 8.91 48.038 0.137 8.16 1.22 12.84
11/8/2022 11:30:00 AM 9.02 48.236 0.137 8.15 1.21 12.82
11/8/2022 11:45:00 AM 9.13 48.434 0.137 8.23 1.27 12.83
11/8/2022 12:00:00 PM 9.23 48.614 0.137 8.24 1.24 12.82
11/8/2022 12:15:00 PM 9.37 48.866 0.136 8.29 1.17 12.81
11/8/2022 12:30:00 PM 9.52 49.136 0.136 8.32 1.15 12.78
11/8/2022 12:45:00 PM 9.65 49.37 0.136 8.32 1.24 12.73
11/8/2022 1:00:00 PM 9.78 49.604 0.137 8.36 1.2 12.7
11/8/2022 1:15:00 PM 9.9 49.82 0.137 8.4 1.15 12.68
11/8/2022 1:30:00 PM 10.04 50.072 0.137 8.4 1.16 12.63
11/8/2022 1:45:00 PM 10.09 50.162 0.137 8.41 1.15 12.54
11/8/2022 2:00:00 PM 10.13 50.234 0.137 8.38 1.18 12.43
11/8/2022 2:15:00 PM 10.15 50.27 0.137 8.32 1.18 12.3
11/8/2022 2:30:00 PM 10.18 50.324 0.137 8.26 1.2 12.16
11/8/2022 2:45:00 PM 10.21 50.378 0.137 8.2 1.21 12.09
11/8/2022 3:00:00 PM 10.24 50.432 0.137 8.16 1.17 11.99
11/8/2022 3:15:00 PM 10.24 50.432 0.137 8.14 1.13 11.92
11/8/2022 3:30:00 PM 10.24 50.432 0.137 8.08 1.29 11.84
11/8/2022 3:45:00 PM 10.23 50.414 0.137 8.03 1.29 11.79
11/8/2022 4:00:00 PM 10.22 50.396 0.137 8.01 1.17 11.75
11/8/2022 4:15:00 PM 10.19 50.342 0.137 7.94 1.27 11.7
11/8/2022 4:30:00 PM 10.13 50.234 0.138 7.93 1.21 11.62
11/8/2022 4:45:00 PM 10.05 50.09 0.138 7.85 1.24 11.53
11/8/2022 5:00:00 PM 9.96 49.928 0.138 7.78 1.61 11.41
11/8/2022 5:15:00 PM 9.86 49.748 0.138 7.75 1.26 11.31
11/8/2022 5:30:00 PM 9.77 49.586 0.139 7.7 1.27 11.21
11/8/2022 5:45:00 PM 9.68 49.424 0.139 7.67 1.3 11.16
11/8/2022 6:00:00 PM 9.6 49.28 0.139 7.63 1.38 11.14
11/8/2022 6:15:00 PM 9.52 49.136 0.139 7.61 1.44 11.14
11/8/2022 6:30:00 PM 9.45 49.01 0.139 7.55 1.32 11.13
11/8/2022 6:45:00 PM 9.37 48.866 0.139 7.58 1.27 11.14
11/8/2022 7:00:00 PM 9.3 48.74 0.14 7.58 1.25 11.15
11/8/2022 7:15:00 PM 9.22 48.596 0.14 7.52 1.3 11.16
11/8/2022 7:30:00 PM 9.13 48.434 0.14 7.56 1.31 11.18
11/8/2022 7:45:00 PM 9.04 48.272 0.14 7.55 1.28 11.19
11/8/2022 8:00:00 PM 8.96 48.128 0.14 7.55 1.25 11.23
11/8/2022 8:15:00 PM 8.86 47.948 0.14 7.54 1.24 11.26
11/8/2022 8:30:00 PM 8.77 47.786 0.14 7.53 1.27 11.3
11/8/2022 8:45:00 PM 8.68 47.624 0.14 7.53 1.26 11.32
11/8/2022 9:00:00 PM 8.58 47.444 0.14 7.53 1.25 11.34
11/8/2022 9:15:00 PM 8.49 47.282 0.14 7.53 1.3 11.37
11/8/2022 9:30:00 PM 8.4 47.12 0.141 7.52 1.23 11.39
11/8/2022 9:45:00 PM 8.31 46.958 0.141 7.52 1.29 11.42
11/8/2022 10:00:00 PM 8.22 46.796 0.141 7.52 1.28 11.46
11/8/2022 10:15:00 PM 8.14 46.652 0.141 7.52 1.24 11.49
11/8/2022 10:30:00 PM 8.05 46.49 0.141 7.52 1.31 11.52
11/8/2022 10:45:00 PM 7.96 46.328 0.141 7.52 1.27 11.55
11/8/2022 11:00:00 PM 7.87 46.166 0.141 7.52 1.22 11.57
11/8/2022 11:15:00 PM 7.78 46.004 0.141 7.52 1.25 11.6
11/8/2022 11:30:00 PM 7.68 45.824 0.141 7.51 1.25 11.63
11/8/2022 11:45:00 PM 7.59 45.662 0.141 7.52 1.3 11.66
11/9/2022 12:00:00 AM 7.51 45.518 0.141 7.52 1.27 11.7
11/9/2022 12:15:00 AM 7.42 45.356 0.141 7.51 1.29 11.73
11/9/2022 12:30:00 AM 7.35 45.23 0.141 7.51 1.34 11.75
11/9/2022 12:45:00 AM 7.27 45.086 0.141 7.52 1.27 11.77
11/9/2022 1:00:00 AM 7.2 44.96 0.141 7.52 1.22 11.8
11/9/2022 1:15:00 AM 7.12 44.816 0.141 7.52 1.21 11.82
11/9/2022 1:30:00 AM 7.06 44.708 0.141 7.52 1.23 11.84
11/9/2022 1:45:00 AM 6.99 44.582 0.141 7.53 1.3 11.87
11/9/2022 2:00:00 AM 6.92 44.456 0.141 7.52 1.2 11.9
11/9/2022 2:15:00 AM 6.85 44.33 0.141 7.5 1.22 11.93
11/9/2022 2:30:00 AM 6.78 44.204 0.141 7.49 1.24 11.95
11/9/2022 2:45:00 AM 6.71 44.078 0.141 7.52 1.16 11.97
11/9/2022 3:00:00 AM 6.65 43.97 0.141 7.52 1.25 11.99
11/9/2022 3:15:00 AM 6.58 43.844 0.141 7.52 1.19 12
11/9/2022 3:30:00 AM 6.52 43.736 0.141 7.52 1.24 12.02
11/9/2022 3:45:00 AM 6.46 43.628 0.141 7.52 1.24 12.03
11/9/2022 4:00:00 AM 6.4 43.52 0.141 7.52 1.22 12.06
11/9/2022 4:15:00 AM 6.34 43.412 0.141 7.52 1.25 12.09
11/9/2022 4:30:00 AM 6.28 43.304 0.141 7.52 1.25 12.11
11/9/2022 4:45:00 AM 6.22 43.196 0.141 7.52 1.22 12.14
11/9/2022 5:00:00 AM 6.16 43.088 0.141 7.52 1.19 12.15
11/9/2022 5:15:00 AM 6.11 42.998 0.141 7.52 1.19 12.18
11/9/2022 5:30:00 AM 6.05 42.89 0.141 7.52 1.25 12.2
11/9/2022 5:45:00 AM 6 42.8 0.141 7.52 1.3 12.2
11/9/2022 6:00:00 AM 5.94 42.692 0.141 7.47 1.25 12.21
11/9/2022 6:15:00 AM 5.89 42.602 0.141 7.52 1.17 12.23
11/9/2022 6:30:00 AM 5.84 42.512 0.141 7.53 1.31 12.24
11/9/2022 6:45:00 AM 5.79 42.422 0.141 7.52 1.27 12.28
11/9/2022 7:00:00 AM 5.74 42.332 0.141 7.53 1.23 12.34
11/9/2022 7:15:00 AM 5.7 42.26 0.141 7.53 1.34 12.43
11/9/2022 7:30:00 AM 5.66 42.188 0.14 7.57 1.48 12.56
11/9/2022 7:45:00 AM 5.62 42.116 0.14 7.58 1.23 12.67
11/9/2022 8:00:00 AM 5.6 42.08 0.14 7.61 1.39 12.78
11/9/2022 8:15:00 AM 5.57 42.026 0.14 7.64 1.22 12.88
11/9/2022 8:30:00 AM 5.55 41.99 0.14 7.65 1.24 12.98
11/9/2022 8:45:00 AM 5.58 42.044 0.139 7.7 1.21 13.15
11/9/2022 9:00:00 AM 5.61 42.098 0.139 7.73 1.19 13.26
11/9/2022 9:15:00 AM 5.65 42.17 0.139 7.79 1.25 13.35
11/9/2022 9:30:00 AM 5.69 42.242 0.139 7.82 1.23 13.41
11/9/2022 9:45:00 AM 5.76 42.368 0.139 7.85 1.23 13.46
11/9/2022 10:00:00 AM 5.83 42.494 0.139 7.88 1.19 13.48
11/9/2022 10:15:00 AM 5.92 42.656 0.138 7.91 1.19 13.5
11/9/2022 10:30:00 AM 6 42.8 0.138 7.94 1.21 13.53
11/9/2022 10:45:00 AM 6.11 42.998 0.138 7.97 1.18 13.54
11/9/2022 11:00:00 AM 6.24 43.232 0.138 7.99 1.16 13.54
11/9/2022 11:15:00 AM 6.39 43.502 0.138 8.03 1.18 13.5
11/9/2022 11:30:00 AM 6.54 43.772 0.138 8.05 1.15 13.47
11/9/2022 11:45:00 AM 6.7 44.06 0.137 8.09 1.14 13.48
11/9/2022 12:00:00 PM 6.86 44.348 0.137 8.11 1.16 13.44
11/9/2022 12:15:00 PM 7.03 44.654 0.137 8.14 1.11 13.41
11/9/2022 12:30:00 PM 7.2 44.96 0.137 8.16 1.19 13.36
11/9/2022 12:45:00 PM 7.38 45.284 0.137 8.2 1.14 13.33
11/9/2022 1:00:00 PM 7.55 45.59 0.137 8.23 1.17 13.29
11/9/2022 1:15:00 PM 7.68 45.824 0.137 8.25 1.17 13.2
11/9/2022 1:30:00 PM 7.89 46.202 0.137 8.28 1.15 13.18
11/9/2022 1:45:00 PM 7.99 46.382 0.137 8.3 1.12 13.13
11/9/2022 2:00:00 PM 8.08 46.544 0.137 8.26 1.21 13.04
11/9/2022 2:15:00 PM 8.16 46.688 0.136 8.27 1.14 12.98
11/9/2022 2:30:00 PM 8.25 46.85 0.136 8.29 1.17 12.94
11/9/2022 2:45:00 PM 8.37 47.066 0.136 8.34 1.14 12.91
11/9/2022 3:00:00 PM 8.44 47.192 0.137 8.35 1.18 12.87
11/9/2022 3:15:00 PM 8.5 47.3 0.137 8.36 1.19 12.84
11/9/2022 3:30:00 PM 8.55 47.39 0.137 8.35 1.22 12.82
11/9/2022 3:45:00 PM 8.56 47.408 0.137 8.32 1.21 12.72
11/9/2022 4:00:00 PM 8.55 47.39 0.137 8.19 1.21 12.54
11/9/2022 4:15:00 PM 8.54 47.372 0.137 8.14 1.18 12.38
11/9/2022 4:30:00 PM 8.49 47.282 0.137 8.05 1.21 12.22
11/9/2022 4:45:00 PM 8.41 47.138 0.138 7.95 1.28 12.07
11/9/2022 5:00:00 PM 8.32 46.976 0.138 7.86 1.24 11.93
11/9/2022 5:15:00 PM 8.23 46.814 0.139 7.8 1.25 11.82
11/9/2022 5:30:00 PM 8.15 46.67 0.139 7.75 1.27 11.73
11/9/2022 5:45:00 PM 8.07 46.526 0.139 7.69 1.26 11.67
11/9/2022 6:00:00 PM 8 46.4 0.139 7.69 1.25 11.64
11/9/2022 6:15:00 PM 7.93 46.274 0.139 7.65 1.28 11.6
11/9/2022 6:30:00 PM 7.87 46.166 0.139 7.63 1.25 11.59
11/9/2022 6:45:00 PM 7.8 46.04 0.139 7.59 1.27 11.58
11/9/2022 7:00:00 PM 7.74 45.932 0.139 7.6 1.29 11.58
11/9/2022 7:15:00 PM 7.68 45.824 0.139 7.59 1.24 11.6
11/9/2022 7:30:00 PM 7.62 45.716 0.139 7.58 1.32 11.62
11/9/2022 7:45:00 PM 7.57 45.626 0.139 7.58 1.36 11.63
11/9/2022 8:00:00 PM 7.51 45.518 0.139 7.54 1.52 11.65
11/9/2022 8:15:00 PM 7.46 45.428 0.139 7.57 1.37 11.66
11/9/2022 8:30:00 PM 7.41 45.338 0.139 7.57 1.44 11.68
11/9/2022 8:45:00 PM 7.35 45.23 0.14 7.56 1.31 11.7
11/9/2022 9:00:00 PM 7.29 45.122 0.14 7.55 1.24 11.72
11/9/2022 9:15:00 PM 7.23 45.014 0.14 7.52 1.28 11.73
11/9/2022 9:30:00 PM 7.17 44.906 0.14 7.54 1.24 11.74
11/9/2022 9:45:00 PM 7.11 44.798 0.14 7.54 1.32 11.76
11/9/2022 10:00:00 PM 7.04 44.672 0.14 7.54 1.23 11.78
11/9/2022 10:15:00 PM 6.98 44.564 0.14 7.54 1.35 11.81
11/9/2022 10:30:00 PM 6.92 44.456 0.14 7.5 1.34 11.83
11/9/2022 10:45:00 PM 6.85 44.33 0.14 7.54 1.22 11.86
11/9/2022 11:00:00 PM 6.79 44.222 0.14 7.54 1.31 11.88
11/9/2022 11:15:00 PM 6.72 44.096 0.14 7.53 1.25 11.89
11/9/2022 11:30:00 PM 6.66 43.988 0.14 7.54 1.26 11.92
11/9/2022 11:45:00 PM 6.59 43.862 0.14 7.54 1.28 11.93
11/10/2022 12:00:00 AM 6.53 43.754 0.14 7.54 1.28 11.94
11/10/2022 12:15:00 AM 6.46 43.628 0.14 7.54 1.2 11.97
11/10/2022 12:30:00 AM 6.4 43.52 0.14 7.51 1.26 12
11/10/2022 12:45:00 AM 6.33 43.394 0.14 7.53 1.25 12.03
11/10/2022 1:00:00 AM 6.27 43.286 0.14 7.53 1.27 12.05
11/10/2022 1:15:00 AM 6.21 43.178 0.14 7.53 1.33 12.07
11/10/2022 1:30:00 AM 6.15 43.07 0.14 7.52 1.3 12.09
11/10/2022 1:45:00 AM 6.09 42.962 0.141 7.53 1.24 12.11
11/10/2022 2:00:00 AM 6.03 42.854 0.141 7.53 1.47 12.13
11/10/2022 2:15:00 AM 5.98 42.764 0.141 7.53 1.45 12.14
11/10/2022 2:30:00 AM 5.93 42.674 0.141 7.53 1.31 12.15
11/10/2022 2:45:00 AM 5.88 42.584 0.141 7.52 1.37 12.16
11/10/2022 3:00:00 AM 5.83 42.494 0.14 7.52 1.36 12.18
11/10/2022 3:15:00 AM 5.78 42.404 0.14 7.52 1.27 12.2
11/10/2022 3:30:00 AM 5.73 42.314 0.14 7.48 1.32 12.22
11/10/2022 3:45:00 AM 5.69 42.242 0.14 7.52 1.27 12.23
11/10/2022 4:00:00 AM 5.64 42.152 0.14 7.52 1.34 12.26
11/10/2022 4:15:00 AM 5.59 42.062 0.14 7.53 1.26 12.27
11/10/2022 4:30:00 AM 5.55 41.99 0.14 7.52 1.3 12.29
11/10/2022 4:45:00 AM 5.51 41.918 0.14 7.52 1.22 12.3
11/10/2022 5:00:00 AM 5.47 41.846 0.14 7.52 1.27 12.32
11/10/2022 5:15:00 AM 5.43 41.774 0.14 7.52 1.2 12.33
11/10/2022 5:30:00 AM 5.39 41.702 0.14 7.53 1.26 12.34
11/10/2022 5:45:00 AM 5.35 41.63 0.14 7.52 1.21 12.36
11/10/2022 6:00:00 AM 5.31 41.558 0.14 7.52 1.23 12.37
11/10/2022 6:15:00 AM 5.28 41.504 0.14 7.52 1.27 12.37
11/10/2022 6:30:00 AM 5.25 41.45 0.14 7.53 1.26 12.37
11/10/2022 6:45:00 AM 5.21 41.378 0.14 7.54 1.26 12.4
11/10/2022 7:00:00 AM 5.18 41.324 0.14 7.54 1.22 12.45
11/10/2022 7:15:00 AM 5.15 41.27 0.14 7.55 1.26 12.54
11/10/2022 7:30:00 AM 5.13 41.234 0.14 7.56 1.22 12.66
11/10/2022 7:45:00 AM 5.11 41.198 0.14 7.59 1.27 12.77
11/10/2022 8:00:00 AM 5.09 41.162 0.14 7.55 1.23 12.88
11/10/2022 8:15:00 AM 5.09 41.162 0.14 7.61 1.2 12.98
11/10/2022 8:30:00 AM 5.08 41.144 0.139 7.65 1.24 13.08
11/10/2022 8:45:00 AM 5.12 41.216 0.139 7.69 1.22 13.22
11/10/2022 9:00:00 AM 5.17 41.306 0.139 7.73 1.28 13.32
11/10/2022 9:15:00 AM 5.23 41.414 0.139 7.76 1.19 13.4
11/10/2022 9:30:00 AM 5.29 41.522 0.139 7.8 1.22 13.45
11/10/2022 9:45:00 AM 5.38 41.684 0.139 7.83 1.23 13.51
11/10/2022 10:00:00 AM 5.48 41.864 0.138 7.86 1.32 13.55
11/10/2022 10:15:00 AM 5.59 42.062 0.138 7.89 1.2 13.56
11/10/2022 10:30:00 AM 5.7 42.26 0.138 7.87 1.18 13.56
11/10/2022 10:45:00 AM 5.83 42.494 0.138 7.95 1.2 13.56
11/10/2022 11:00:00 AM 6 42.8 0.138 7.92 1.18 13.55
11/10/2022 11:15:00 AM 6.18 43.124 0.137 7.98 1.14 13.53
11/10/2022 11:30:00 AM 6.39 43.502 0.137 8.04 1.16 13.47
11/10/2022 11:45:00 AM 6.61 43.898 0.137 8.07 1.11 13.42
11/10/2022 12:00:00 PM 6.83 44.294 0.137 8.1 1.15 13.4
11/10/2022 12:15:00 PM 7.06 44.708 0.137 8.13 1.13 13.33
11/10/2022 12:30:00 PM 7.31 45.158 0.137 8.16 1.14 13.27
11/10/2022 12:45:00 PM 7.56 45.608 0.137 8.19 1.09 13.22
11/10/2022 1:00:00 PM 7.79 46.022 0.137 8.23 1.41 13.13
11/10/2022 1:15:00 PM 8.02 46.436 0.137 8.26 1.15 13.09
11/10/2022 1:30:00 PM 8.23 46.814 0.137 8.22 1.15 13
11/10/2022 1:45:00 PM 8.35 47.03 0.136 8.27 1.11 12.86
11/10/2022 2:00:00 PM 8.49 47.282 0.136 8.2 1.16 12.73
11/10/2022 2:15:00 PM 8.59 47.462 0.136 8.2 1.15 12.61
11/10/2022 2:30:00 PM 8.69 47.642 0.136 8.15 1.26 12.49
11/10/2022 2:45:00 PM 8.79 47.822 0.136 8.12 1.22 12.4
11/10/2022 3:00:00 PM 8.88 47.984 0.136 8.09 1.33 12.3
11/10/2022 3:15:00 PM 8.97 48.146 0.136 8.01 1.3 12.2
11/10/2022 3:30:00 PM 9.04 48.272 0.136 8 1.3 12.1
11/10/2022 3:45:00 PM 9.08 48.344 0.137 7.99 1.46 12.04
11/10/2022 4:00:00 PM 9.11 48.398 0.137 7.96 1.91 11.97
11/10/2022 4:15:00 PM 9.14 48.452 0.137 7.93 1.24 11.89
11/10/2022 4:30:00 PM 9.11 48.398 0.137 7.88 1.2 11.8
11/10/2022 4:45:00 PM 9.03 48.254 0.138 7.84 1.58 11.67
11/10/2022 5:00:00 PM 8.95 48.11 0.138 7.72 1.27 11.57
11/10/2022 5:15:00 PM 8.87 47.966 0.138 7.74 1.63 11.47
11/10/2022 5:30:00 PM 8.81 47.858 0.138 7.69 1.43 11.4
11/10/2022 5:45:00 PM 8.75 47.75 0.139 7.65 1.91 11.35
11/10/2022 6:00:00 PM 8.7 47.66 0.139 7.63 1.33 11.32
11/10/2022 6:15:00 PM 8.66 47.588 0.139 7.58 1.32 11.3
11/10/2022 6:30:00 PM 8.62 47.516 0.139 7.59 1.37 11.28
11/10/2022 6:45:00 PM 8.59 47.462 0.139 7.59 1.3 11.27
11/10/2022 7:00:00 PM 8.57 47.426 0.139 7.54 1.39 11.27
11/10/2022 7:15:00 PM 8.55 47.39 0.139 7.57 1.31 11.27
11/10/2022 7:30:00 PM 8.53 47.354 0.139 7.56 1.33 11.26
11/10/2022 7:45:00 PM 8.5 47.3 0.139 7.56 1.29 11.26
11/10/2022 8:00:00 PM 8.46 47.228 0.139 7.55 1.25 11.26
11/10/2022 8:15:00 PM 8.43 47.174 0.139 7.51 1.29 11.27
11/10/2022 8:30:00 PM 8.4 47.12 0.139 7.51 1.27 11.28
11/10/2022 8:45:00 PM 8.36 47.048 0.139 7.54 1.27 11.29
11/10/2022 9:00:00 PM 8.33 46.994 0.139 7.53 1.26 11.3
11/10/2022 9:15:00 PM 8.3 46.94 0.139 7.53 1.28 11.31
11/10/2022 9:30:00 PM 8.26 46.868 0.139 7.52 1.31 11.33
11/10/2022 9:45:00 PM 8.23 46.814 0.14 7.52 1.26 11.34
11/10/2022 10:00:00 PM 8.19 46.742 0.14 7.48 1.32 11.36
11/10/2022 10:15:00 PM 8.15 46.67 0.14 7.5 1.45 11.36
11/10/2022 10:30:00 PM 8.11 46.598 0.14 7.53 1.39 11.38
11/10/2022 10:45:00 PM 8.07 46.526 0.14 7.52 1.54 11.4
11/10/2022 11:00:00 PM 8.03 46.454 0.14 7.52 1.66 11.4
11/10/2022 11:15:00 PM 7.99 46.382 0.14 7.52 1.85 11.42
11/10/2022 11:30:00 PM 7.95 46.31 0.14 7.51 1.73 11.42
11/10/2022 11:45:00 PM 7.91 46.238 0.14 7.47 1.75 11.44
11/11/2022 12:00:00 AM 7.86 46.148 0.14 7.51 1.95 11.45
11/11/2022 12:15:00 AM 7.81 46.058 0.14 7.51 1.32 11.46
11/11/2022 12:30:00 AM 7.78 46.004 0.14 7.51 1.32 11.47
11/11/2022 12:45:00 AM 7.75 45.95 0.14 7.5 1.27 11.48
11/11/2022 1:00:00 AM 7.72 45.896 0.14 7.51 1.55 11.49
11/11/2022 1:15:00 AM 7.7 45.86 0.14 7.45 1.5 11.5
11/11/2022 1:30:00 AM 7.67 45.806 0.14 7.48 1.7 11.52
11/11/2022 1:45:00 AM 7.65 45.77 0.14 7.51 1.3 11.52
11/11/2022 2:00:00 AM 7.64 45.752 0.14 7.5 1.28 11.53
11/11/2022 2:15:00 AM 7.65 45.77 0.14 7.51 1.41 11.53
11/11/2022 2:30:00 AM 7.65 45.77 0.14 7.51 1.33 11.53
11/11/2022 2:45:00 AM 7.64 45.752 0.14 7.5 1.29 11.53
11/11/2022 3:00:00 AM 7.65 45.77 0.14 7.47 1.36 11.53
11/11/2022 3:15:00 AM 7.66 45.788 0.14 7.48 2.49 11.52
11/11/2022 3:30:00 AM 7.66 45.788 0.14 7.52 7.05 11.52
11/11/2022 3:45:00 AM 7.64 45.752 0.14 7.53 1.23 11.52
11/11/2022 4:00:00 AM 7.64 45.752 0.14 7.51 2.67 11.52
11/11/2022 4:15:00 AM 7.63 45.734 0.14 7.5 4.99 11.53
11/11/2022 4:30:00 AM 7.62 45.716 0.14 7.5 1.27 11.52
11/11/2022 4:45:00 AM 7.62 45.716 0.14 7.5 1.26 11.53
11/11/2022 5:00:00 AM 7.64 45.752 0.14 7.5 1.22 11.51
11/11/2022 5:15:00 AM 7.66 45.788 0.14 7.44 1.27 11.51
11/11/2022 5:30:00 AM 7.68 45.824 0.14 7.51 1.26 11.5
11/11/2022 5:45:00 AM 7.73 45.914 0.14 7.46 1.24 11.48
11/11/2022 6:00:00 AM 7.78 46.004 0.14 7.51 1.31 11.47
11/11/2022 6:15:00 AM 7.83 46.094 0.14 7.51 1.29 11.45
11/11/2022 6:30:00 AM 7.89 46.202 0.14 7.52 1.24 11.44
11/11/2022 6:45:00 AM 7.95 46.31 0.14 7.47 1.23 11.43
11/11/2022 7:00:00 AM 8.02 46.436 0.14 7.49 1.23 11.43
11/11/2022 7:15:00 AM 8.09 46.562 0.14 7.53 1.3 11.41
11/11/2022 7:30:00 AM 8.16 46.688 0.14 7.52 1.26 11.41
11/11/2022 7:45:00 AM 8.24 46.832 0.139 7.55 1.24 11.45
11/11/2022 8:00:00 AM 8.32 46.976 0.139 7.57 1.35 11.52
11/11/2022 8:15:00 AM 8.38 47.084 0.139 7.53 1.26 11.59
11/11/2022 8:30:00 AM 8.44 47.192 0.139 7.6 1.26 11.63
11/11/2022 8:45:00 AM 8.49 47.282 0.138 7.56 1.38 11.64
11/11/2022 9:00:00 AM 8.55 47.39 0.137 7.6 1.4 11.66
11/11/2022 9:15:00 AM 8.62 47.516 0.136 7.61 1.52 11.71
11/11/2022 9:30:00 AM 8.68 47.624 0.136 7.59 1.4 11.79
11/11/2022 9:45:00 AM 8.76 47.768 0.135 7.69 1.38 11.91
11/11/2022 10:00:00 AM 8.86 47.948 0.134 7.72 1.45 11.99
11/11/2022 10:15:00 AM 8.97 48.146 0.134 7.75 1.43 11.99
11/11/2022 10:30:00 AM 9.11 48.398 0.133 7.78 1.47 11.99
11/11/2022 10:45:00 AM 9.25 48.65 0.132 7.75 1.37 11.98
11/11/2022 11:00:00 AM 9.39 48.902 0.131 7.81 1.49 11.99
11/11/2022 11:15:00 AM 9.54 49.172 0.131 7.86 1.54 12.09
11/11/2022 11:30:00 AM 9.65 49.37 0.131 7.91 1.53 12.12
11/11/2022 11:45:00 AM 9.73 49.514 0.131 7.9 1.52 12.03
11/11/2022 12:00:00 PM 9.8 49.64 0.131 7.93 1.58 11.98
11/11/2022 12:15:00 PM 9.89 49.802 0.13 7.91 1.59 11.86
11/11/2022 12:30:00 PM 9.94 49.892 0.129 7.87 1.74 11.72
11/11/2022 12:45:00 PM 9.97 49.946 0.129 7.84 1.81 11.64
11/11/2022 1:00:00 PM 10.02 50.036 0.129 7.83 1.69 11.6
11/11/2022 1:15:00 PM 10.09 50.162 0.128 7.81 1.89 11.55
11/11/2022 1:30:00 PM 10.12 50.216 0.128 7.79 2.49 11.48
11/11/2022 1:45:00 PM 10.15 50.27 0.127 7.77 2.28 11.43
11/11/2022 2:00:00 PM 10.19 50.342 0.126 7.74 2.46 11.34
11/11/2022 2:15:00 PM 10.23 50.414 0.125 7.71 3.45 11.24
11/11/2022 2:30:00 PM 10.28 50.504 0.124 7.65 3.34 11.14
11/11/2022 2:45:00 PM 10.35 50.63 0.121 7.61 4.39 11.05
11/11/2022 3:00:00 PM 10.35 50.63 0.12 7.57 5.41 11
11/11/2022 3:15:00 PM 10.36 50.648 0.119 7.51 7.13 10.97
11/11/2022 3:30:00 PM 10.33 50.594 0.118 7.52 8.64 10.93
11/11/2022 3:45:00 PM 10.31 50.558 0.117 7.52 8.97 10.91
11/11/2022 4:00:00 PM 10.31 50.558 0.117 7.47 8.96 10.89
11/11/2022 4:15:00 PM 10.32 50.576 0.117 7.48 10.04 10.86
11/11/2022 4:30:00 PM 10.3 50.54 0.116 7.46 10.75 10.82
11/11/2022 4:45:00 PM 10.32 50.576 0.113 7.46 14.1 10.78
11/11/2022 5:00:00 PM 10.33 50.594 0.111 7.43 20.73 10.76
11/11/2022 5:15:00 PM 10.32 50.576 0.108 7.42 17.05 10.76
11/11/2022 5:30:00 PM 10.28 50.504 0.105 7.36 19.95 10.77
11/11/2022 5:45:00 PM 10.26 50.468 0.102 7.35 24.06 10.77
11/11/2022 6:00:00 PM 10.25 50.45 0.1 7.33 27.08 10.78
11/11/2022 6:15:00 PM 10.27 50.486 0.073 7.33 29.66 10.78
11/11/2022 6:30:00 PM 10.28 50.504 0.1 7.3 29.21 10.78
11/11/2022 6:45:00 PM 10.32 50.576 0.098 7.27 27.14 10.76
11/11/2022 7:00:00 PM 10.37 50.666 0.105 7.36 27.37 10.76
11/11/2022 7:15:00 PM 10.42 50.756 0.109 7.35 26.13 10.75
11/11/2022 7:30:00 PM 10.51 50.918 0.114 7.4 29.06 10.73
11/11/2022 7:45:00 PM 10.6 51.08 0.117 7.39 25.8 10.71
11/11/2022 8:00:00 PM 10.67 51.206 0.12 7.41 24.85 10.7
11/11/2022 8:15:00 PM 10.73 51.314 0.121 7.41 23.41 10.68
11/11/2022 8:30:00 PM 10.78 51.404 0.124 7.38 21.46 10.66
11/11/2022 8:45:00 PM 10.84 51.512 0.127 7.44 32.87 10.64
11/11/2022 9:00:00 PM 10.89 51.602 0.129 7.36 422.98 10.62
11/11/2022 9:15:00 PM 10.93 51.674 0.132 7.42 18.76 10.61
11/11/2022 9:30:00 PM 10.95 51.71 0.133 7.43 17.18 10.59
11/11/2022 9:45:00 PM 11.01 51.818 0.133 7.42 16.13 10.58
11/11/2022 10:00:00 PM 11.04 51.872 0.131 7.45 14.44 10.57
11/11/2022 10:15:00 PM 11.08 51.944 0.129 7.46 14.45 10.56
11/11/2022 10:30:00 PM 11.16 52.088 0.126 7.45 14.08 10.55
11/11/2022 10:45:00 PM 11.24 52.232 0.124 7.45 13.9 10.53
11/11/2022 11:00:00 PM 11.29 52.322 0.121 7.43 13.52 10.51
11/11/2022 11:15:00 PM 11.36 52.448 0.114 7.41 13.32 10.49
11/11/2022 11:30:00 PM 11.39 52.502 0.118 7.43 13.62 10.46
11/11/2022 11:45:00 PM 11.42 52.556 0.117 7.39 13.64 10.44
11/12/2022 12:00:00 AM 11.47 52.646 0.116 7.39 13.84 10.42
11/12/2022 12:15:00 AM 11.52 52.736 0.115 7.39 13.73 10.4
11/12/2022 12:30:00 AM 11.66 52.988 0.112 7.39 14.93 10.38
11/12/2022 12:45:00 AM 11.73 53.114 0.109 7.32 20.06 10.37
11/12/2022 1:00:00 AM 11.75 53.15 0.105 7.36 27.02 10.37
11/12/2022 1:15:00 AM 11.74 53.132 0.102 7.23 33.92 10.38
11/12/2022 1:30:00 AM 11.8 53.24 0.096 7.22 61.15 10.36
11/12/2022 1:45:00 AM 11.83 53.294 0.089 7.2 104.52 10.35
11/12/2022 2:00:00 AM 11.83 53.294 0.081 7.09 189.3 10.38
11/12/2022 2:15:00 AM 11.86 53.348 0.077 7.06 291.52 10.38
11/12/2022 2:30:00 AM 11.87 53.366 0.077 6.97 404.67 10.37
11/12/2022 2:45:00 AM 11.92 53.456 0.081 7 518.36 10.36
11/12/2022 3:00:00 AM 12.04 53.672 0.083 7.02 455.19 10.34
11/12/2022 3:15:00 AM 12.15 53.87 0.086 7.02 406.23 10.3
11/12/2022 3:30:00 AM 12.23 54.014 0.084 7.03 430.03 10.25
11/12/2022 3:45:00 AM 12.28 54.104 0.081 7.02 431.01 10.22
11/12/2022 4:00:00 AM 12.34 54.212 0.078 6.92 431.55 10.22
11/12/2022 4:15:00 AM 12.4 54.32 0.077 6.99 384.96 10.23
11/12/2022 4:30:00 AM 12.43 54.374 0.076 6.99 347.28 10.24
11/12/2022 4:45:00 AM 12.45 54.41 0.077 7 309.78 10.24
11/12/2022 5:00:00 AM 12.44 54.392 0.077 6.99 263.14 10.26
11/12/2022 5:15:00 AM 12.42 54.356 0.077 6.94 227.57 10.27
11/12/2022 5:30:00 AM 12.39 54.302 0.079 6.97 190.23 10.29
11/12/2022 5:45:00 AM 12.35 54.23 0.08 7.02 166.31 10.3
11/12/2022 6:00:00 AM 12.31 54.158 0.082 7.02 144.54 10.31
11/12/2022 6:15:00 AM 12.25 54.05 0.082 7.03 128.48 10.32
11/12/2022 6:30:00 AM 12.2 53.96 0.083 7.03 115.84 10.35
11/12/2022 6:45:00 AM 12.14 53.852 0.083 7.02 107.42 10.37
11/12/2022 7:00:00 AM 12.07 53.726 0.083 7.03 97.87 10.38
11/12/2022 7:15:00 AM 12.01 53.618 0.083 7.03 89.05 10.4
11/12/2022 7:30:00 AM 11.95 53.51 0.084 6.95 81.53 10.42
11/12/2022 7:45:00 AM 11.89 53.402 0.084 7.03 74.02 10.44
11/12/2022 8:00:00 AM 11.83 53.294 0.084 7.01 69.09 10.45
11/12/2022 8:15:00 AM 11.78 53.204 0.083 7.02 64.79 10.47
11/12/2022 8:30:00 AM 11.74 53.132 0.083 7.02 57.52 10.47
11/12/2022 8:45:00 AM 11.7 53.06 0.082 7.01 53.32 10.48
11/12/2022 9:00:00 AM 11.66 52.988 0.082 6.96 50.7 10.49
11/12/2022 9:15:00 AM 11.63 52.934 0.082 7.02 46.47 10.51
11/12/2022 9:30:00 AM 11.62 52.916 0.081 7.02 42.44 10.53
11/12/2022 9:45:00 AM 11.61 52.898 0.081 7.02 40.3 10.54
11/12/2022 10:00:00 AM 11.62 52.916 0.081 7.03 37.1 10.55
11/12/2022 10:15:00 AM 11.6 52.88 0.081 7.04 34.7 10.56
11/12/2022 10:30:00 AM 11.58 52.844 0.08 7.04 33.13 10.57
11/12/2022 10:45:00 AM 11.57 52.826 0.08 7.04 30.74 10.58
11/12/2022 11:00:00 AM 11.58 52.844 0.08 7.05 28.61 10.58
11/12/2022 11:15:00 AM 11.59 52.862 0.08 6.98 27.51 10.59
11/12/2022 11:30:00 AM 11.63 52.934 0.079 7.02 25.93 10.58
11/12/2022 11:45:00 AM 11.64 52.952 0.079 7.06 24.94 10.59
11/12/2022 12:00:00 PM 11.65 52.97 0.079 7.05 23.99 10.59
11/12/2022 12:15:00 PM 11.67 53.006 0.079 7.07 23.31 10.6
11/12/2022 12:30:00 PM 11.69 53.042 0.079 7.02 23.46 10.6
11/12/2022 12:45:00 PM 11.73 53.114 0.079 7.06 21.36 10.6
11/12/2022 1:00:00 PM 11.74 53.132 0.079 7.04 20.98 10.6
11/12/2022 1:15:00 PM 11.75 53.15 0.078 7.04 19.11 10.59
11/12/2022 1:30:00 PM 11.78 53.204 0.078 7.08 18.97 10.59
11/12/2022 1:45:00 PM 11.79 53.222 0.078 7.07 19.91 10.59
11/12/2022 2:00:00 PM 11.81 53.258 0.078 7.09 17.9 10.59
11/12/2022 2:15:00 PM 11.79 53.222 0.078 7.08 17.45 10.58
11/12/2022 2:30:00 PM 11.76 53.168 0.078 7.08 17.66 10.57
11/12/2022 2:45:00 PM 11.72 53.096 0.078 7.08 17.06 10.57
11/12/2022 3:00:00 PM 11.67 53.006 0.077 7.01 16.52 10.57
11/12/2022 3:15:00 PM 11.63 52.934 0.077 7.04 15.9 10.57
11/12/2022 3:30:00 PM 11.59 52.862 0.077 7.04 15.3 10.58
11/12/2022 3:45:00 PM 11.56 52.808 0.077 7.03 14.74 10.59
11/12/2022 4:00:00 PM 11.53 52.754 0.077 7.07 14.48 10.6
11/12/2022 4:15:00 PM 11.49 52.682 0.077 7.07 14.37 10.6
11/12/2022 4:30:00 PM 11.46 52.628 0.077 7.07 14.07 10.62
11/12/2022 4:45:00 PM 11.42 52.556 0.077 6.99 14.08 10.63
11/12/2022 5:00:00 PM 11.37 52.466 0.077 7.06 13.57 10.64
11/12/2022 5:15:00 PM 11.32 52.376 0.077 6.99 13.37 10.65
11/12/2022 5:30:00 PM 11.28 52.304 0.077 7.02 13.06 10.66
11/12/2022 5:45:00 PM 11.23 52.214 0.077 7.05 12.9 10.67
11/12/2022 6:00:00 PM 11.2 52.16 0.077 7.05 12.87 10.67
11/12/2022 6:15:00 PM 11.16 52.088 0.077 7 12.45 10.67
11/12/2022 6:30:00 PM 11.13 52.034 0.077 7.05 12.45 10.68
11/12/2022 6:45:00 PM 11.1 51.98 0.077 7.04 12.49 10.69
11/12/2022 7:00:00 PM 11.06 51.908 0.076 7.04 12.22 10.69
11/12/2022 7:15:00 PM 11.03 51.854 0.076 7.05 11.84 10.69
11/12/2022 7:30:00 PM 10.99 51.782 0.076 7.05 11.47 10.7
11/12/2022 7:45:00 PM 10.96 51.728 0.076 7 11.14 10.73
11/12/2022 8:00:00 PM 10.92 51.656 0.076 7.06 11.38 10.74
11/12/2022 8:15:00 PM 10.89 51.602 0.076 7.06 11.09 10.75
11/12/2022 8:30:00 PM 10.86 51.548 0.076 7.05 11.03 10.76
11/12/2022 8:45:00 PM 10.83 51.494 0.076 7.07 10.73 10.77
11/12/2022 9:00:00 PM 10.8 51.44 0.076 7.06 10.51 10.78
11/12/2022 9:15:00 PM 10.77 51.386 0.076 7.07 10.21 10.8
11/12/2022 9:30:00 PM 10.72 51.296 0.076 7.03 10.4 10.81
11/12/2022 9:45:00 PM 10.69 51.242 0.076 7.07 10 10.82
11/12/2022 10:00:00 PM 10.65 51.17 0.076 7.06 9.78 10.83
11/12/2022 10:15:00 PM 10.61 51.098 0.076 7.06 9.95 10.85
11/12/2022 10:30:00 PM 10.57 51.026 0.076 7.07 9.85 10.86
11/12/2022 10:45:00 PM 10.51 50.918 0.076 7.06 9.58 10.87
11/12/2022 11:00:00 PM 10.45 50.81 0.076 6.99 9.26 10.88
11/12/2022 11:15:00 PM 10.4 50.72 0.076 7.07 9.47 10.88
11/12/2022 11:30:00 PM 10.36 50.648 0.076 7.08 9.03 10.89
11/12/2022 11:45:00 PM 10.31 50.558 0.076 6.99 9.15 10.9
11/13/2022 12:00:00 AM 10.26 50.468 0.076 7.08 8.75 10.92
11/13/2022 12:15:00 AM 10.21 50.378 0.076 7.07 8.71 10.94
11/13/2022 12:30:00 AM 10.16 50.288 0.076 7.08 8.66 10.96
11/13/2022 12:45:00 AM 10.12 50.216 0.076 7.01 8.54 10.98
11/13/2022 1:00:00 AM 10.06 50.108 0.076 7.07 8.6 11
11/13/2022 1:15:00 AM 10.01 50.018 0.076 7.07 8.21 11.01
11/13/2022 1:30:00 AM 9.95 49.91 0.077 7.08 8.37 11.02
11/13/2022 1:45:00 AM 9.9 49.82 0.076 7.08 8.27 11.04
11/13/2022 2:00:00 AM 9.85 49.73 0.077 7.08 8.32 11.05
11/13/2022 2:15:00 AM 9.8 49.64 0.077 7.08 8.17 11.06
11/13/2022 2:30:00 AM 9.76 49.568 0.077 7.08 8.19 11.07
11/13/2022 2:45:00 AM 9.72 49.496 0.077 7.08 8.23 11.07
11/13/2022 3:00:00 AM 9.68 49.424 0.077 7.06 7.95 11.1
11/13/2022 3:15:00 AM 9.64 49.352 0.077 7.07 7.95 11.11
11/13/2022 3:30:00 AM 9.61 49.298 0.077 7.09 7.82 11.12
11/13/2022 3:45:00 AM 9.57 49.226 0.077 7.09 7.87 11.14
11/13/2022 4:00:00 AM 9.53 49.154 0.077 7.09 7.82 11.16
11/13/2022 4:15:00 AM 9.49 49.082 0.077 7.09 7.56 11.17
11/13/2022 4:30:00 AM 9.45 49.01 0.077 7.1 7.62 11.18
11/13/2022 4:45:00 AM 9.42 48.956 0.077 7.09 7.45 11.19
11/13/2022 5:00:00 AM 9.38 48.884 0.077 7.09 7.7 11.21
11/13/2022 5:15:00 AM 9.35 48.83 0.077 7.09 7.34 11.22
11/13/2022 5:30:00 AM 9.31 48.758 0.077 7.09 7.32 11.22
11/13/2022 5:45:00 AM 9.28 48.704 0.077 7.03 7.29 11.23
11/13/2022 6:00:00 AM 9.25 48.65 0.077 7.05 7.02 11.24
11/13/2022 6:15:00 AM 9.22 48.596 0.077 7.1 6.99 11.25
11/13/2022 6:30:00 AM 9.19 48.542 0.077 7.09 6.89 11.26
11/13/2022 6:45:00 AM 9.16 48.488 0.077 7.09 6.97 11.26
11/13/2022 7:00:00 AM 9.13 48.434 0.077 7.1 6.85 11.27
11/13/2022 7:15:00 AM 9.1 48.38 0.077 7.09 6.78 11.28
11/13/2022 7:30:00 AM 9.07 48.326 0.077 7.1 6.88 11.3
11/13/2022 7:45:00 AM 9.04 48.272 0.077 7.09 6.64 11.31
11/13/2022 8:00:00 AM 9.01 48.218 0.077 7.11 6.45 11.34
11/13/2022 8:15:00 AM 8.99 48.182 0.077 7.03 6.22 11.35
11/13/2022 8:30:00 AM 8.98 48.164 0.077 7.12 6.39 11.37
11/13/2022 8:45:00 AM 8.97 48.146 0.077 7.05 6.09 11.39
11/13/2022 9:00:00 AM 8.97 48.146 0.077 7.13 6 11.4
11/13/2022 9:15:00 AM 8.96 48.128 0.077 7.12 5.89 11.42
11/13/2022 9:30:00 AM 8.96 48.128 0.077 7.13 5.9 11.42
11/13/2022 9:45:00 AM 8.98 48.164 0.077 7.14 5.85 11.43
11/13/2022 10:00:00 AM 8.96 48.128 0.077 7.14 5.66 11.45
11/13/2022 10:15:00 AM 8.98 48.164 0.077 7.15 5.6 11.44
11/13/2022 10:30:00 AM 8.97 48.146 0.077 7.15 5.56 11.44
11/13/2022 10:45:00 AM 8.95 48.11 0.077 7.12 5.46 11.45
11/13/2022 11:00:00 AM 8.95 48.11 0.077 7.15 5.48 11.46
11/13/2022 11:15:00 AM 8.96 48.128 0.077 7.15 5.52 11.47
11/13/2022 11:30:00 AM 8.95 48.11 0.077 7.16 5.28 11.47
11/13/2022 11:45:00 AM 8.94 48.092 0.077 7.08 5.28 11.47
11/13/2022 12:00:00 PM 8.9 48.02 0.077 7.16 5.28 11.48
11/13/2022 12:15:00 PM 8.88 47.984 0.077 7.12 5.17 11.48
11/13/2022 12:30:00 PM 8.89 48.002 0.077 7.15 5.05 11.48
11/13/2022 12:45:00 PM 8.89 48.002 0.077 7.16 5.2 11.48
11/13/2022 1:00:00 PM 8.88 47.984 0.077 7.15 5.12 11.49
11/13/2022 1:15:00 PM 8.9 48.02 0.077 7.16 5.07 11.49
11/13/2022 1:30:00 PM 8.89 48.002 0.077 7.12 5.01 11.5
11/13/2022 1:45:00 PM 8.89 48.002 0.077 7.16 4.99 11.5
11/13/2022 2:00:00 PM 8.9 48.02 0.077 7.17 5.11 11.5
11/13/2022 2:15:00 PM 8.93 48.074 0.077 7.17 4.91 11.49
11/13/2022 2:30:00 PM 8.93 48.074 0.077 7.17 5.01 11.5
11/13/2022 2:45:00 PM 8.93 48.074 0.077 7.17 5.05 11.49
11/13/2022 3:00:00 PM 8.92 48.056 0.077 7.1 5.12 11.48
11/13/2022 3:15:00 PM 8.9 48.02 0.077 7.15 4.93 11.5
11/13/2022 3:30:00 PM 8.87 47.966 0.077 7.12 5.14 11.51
11/13/2022 3:45:00 PM 8.82 47.876 0.077 7.16 4.95 11.51
11/13/2022 4:00:00 PM 8.77 47.786 0.078 7.14 4.99 11.51
11/13/2022 4:15:00 PM 8.71 47.678 0.078 7.14 4.97 11.51
11/13/2022 4:30:00 PM 8.66 47.588 0.078 7.14 4.98 11.51
11/13/2022 4:45:00 PM 8.61 47.498 0.078 7.13 5.02 11.52
11/13/2022 5:00:00 PM 8.55 47.39 0.078 7.14 4.88 11.52
11/13/2022 5:15:00 PM 8.48 47.264 0.078 7.13 5.04 11.52
11/13/2022 5:30:00 PM 8.44 47.192 0.078 7.13 4.98 11.52
11/13/2022 5:45:00 PM 8.39 47.102 0.078 7.11 5.09 11.53
11/13/2022 6:00:00 PM 8.34 47.012 0.078 7.07 5.06 11.54
11/13/2022 6:15:00 PM 8.31 46.958 0.078 7.14 5.08 11.56
11/13/2022 6:30:00 PM 8.26 46.868 0.078 7.13 4.92 11.58
11/13/2022 6:45:00 PM 8.21 46.778 0.078 7.25 5.08 11.6
11/13/2022 7:00:00 PM 8.17 46.706 0.078 7.11 5.2 11.61
11/13/2022 7:15:00 PM 8.12 46.616 0.078 7.12 5.48 11.63
11/13/2022 7:30:00 PM 8.1 46.58 0.078 7.04 5.17 11.64
11/13/2022 7:45:00 PM 8.06 46.508 0.078 7.13 5.16 11.66
11/13/2022 8:00:00 PM 8.04 46.472 0.079 7.13 5.25 11.66
11/13/2022 8:15:00 PM 8.01 46.418 0.079 7.12 5.06 11.68
11/13/2022 8:30:00 PM 7.98 46.364 0.079 7.13 5.06 11.68
11/13/2022 8:45:00 PM 7.97 46.346 0.079 7.07 4.92 11.68
11/13/2022 9:00:00 PM 7.95 46.31 0.079 7.14 4.86 11.7
11/13/2022 9:15:00 PM 7.92 46.256 0.079 7.14 4.9 11.71
11/13/2022 9:30:00 PM 7.91 46.238 0.079 7.13 4.81 11.71
11/13/2022 9:45:00 PM 7.88 46.184 0.079 7.13 4.71 11.72
11/13/2022 10:00:00 PM 7.85 46.13 0.079 7.14 4.87 11.72
11/13/2022 10:15:00 PM 7.8 46.04 0.079 7.05 4.77 11.72
11/13/2022 10:30:00 PM 7.77 45.986 0.079 7.09 4.69 11.73
11/13/2022 10:45:00 PM 7.73 45.914 0.079 7.13 4.82 11.75
11/13/2022 11:00:00 PM 7.7 45.86 0.079 7.13 4.73 11.76
11/13/2022 11:15:00 PM 7.68 45.824 0.079 7.14 4.69 11.76
11/13/2022 11:30:00 PM 7.66 45.788 0.079 7.09 4.6 11.77
11/13/2022 11:45:00 PM 7.63 45.734 0.079 7.15 4.64 11.79
11/14/2022 12:00:00 AM 7.61 45.698 0.079 7.14 4.65 11.8
11/14/2022 12:15:00 AM 7.6 45.68 0.08 7.15 4.63 11.81
11/14/2022 12:30:00 AM 7.58 45.644 0.08 7.15 4.44 11.82
11/14/2022 12:45:00 AM 7.57 45.626 0.08 7.14 4.53 11.82
11/14/2022 1:00:00 AM 7.55 45.59 0.08 7.15 4.43 11.83
11/14/2022 1:15:00 AM 7.52 45.536 0.08 7.15 4.38 11.84
11/14/2022 1:30:00 AM 7.51 45.518 0.08 7.14 4.33 11.85
11/14/2022 1:45:00 AM 7.49 45.482 0.08 7.14 4.47 11.85
11/14/2022 2:00:00 AM 7.47 45.446 0.08 7.15 4.24 11.86
11/14/2022 2:15:00 AM 7.45 45.41 0.08 7.15 4.29 11.87
11/14/2022 2:30:00 AM 7.42 45.356 0.08 7.15 4.28 11.89
11/14/2022 2:45:00 AM 7.4 45.32 0.08 7.15 4.14 11.89
11/14/2022 3:00:00 AM 7.38 45.284 0.08 7.14 4.31 11.9
11/14/2022 3:15:00 AM 7.35 45.23 0.08 7.15 4.13 11.91
11/14/2022 3:30:00 AM 7.33 45.194 0.08 7.16 4.13 11.92
11/14/2022 3:45:00 AM 7.31 45.158 0.08 7.15 4.29 11.93
11/14/2022 4:00:00 AM 7.29 45.122 0.08 7.15 4.2 11.93
11/14/2022 4:15:00 AM 7.27 45.086 0.08 7.15 4.16 11.94
11/14/2022 4:30:00 AM 7.26 45.068 0.08 7.16 4.2 11.94
11/14/2022 4:45:00 AM 7.24 45.032 0.08 7.08 4.13 11.94
11/14/2022 5:00:00 AM 7.23 45.014 0.08 7.16 4.09 11.95
11/14/2022 5:15:00 AM 7.21 44.978 0.08 7.09 3.98 11.96
11/14/2022 5:30:00 AM 7.19 44.942 0.08 7.16 4.04 11.96
11/14/2022 5:45:00 AM 7.16 44.888 0.081 7.15 4.06 11.97
11/14/2022 6:00:00 AM 7.14 44.852 0.081 7.1 4 11.98
11/14/2022 6:15:00 AM 7.12 44.816 0.081 7.16 4.03 11.99
11/14/2022 6:30:00 AM 7.1 44.78 0.081 7.13 4.01 12
11/14/2022 6:45:00 AM 7.08 44.744 0.081 7.16 3.94 12.01
11/14/2022 7:00:00 AM 7.07 44.726 0.081 7.15 3.91 12.02
11/14/2022 7:15:00 AM 7.05 44.69 0.081 7.1 3.82 12.03
11/14/2022 7:30:00 AM 7.03 44.654 0.081 7.17 3.78 12.05
11/14/2022 7:45:00 AM 7.02 44.636 0.081 7.09 3.74 12.08
11/14/2022 8:00:00 AM 7.01 44.618 0.081 7.18 3.78 12.1
11/14/2022 8:15:00 AM 7.02 44.636 0.081 7.17 3.83 12.12
11/14/2022 8:30:00 AM 6.99 44.582 0.081 7.18 3.66 12.13
11/14/2022 8:45:00 AM 6.97 44.546 0.081 7.15 3.63 12.15
11/14/2022 9:00:00 AM 6.96 44.528 0.081 7.18 3.77 12.17
11/14/2022 9:15:00 AM 6.98 44.564 0.081 7.19 3.5 12.18
11/14/2022 9:30:00 AM 7.01 44.618 0.081 7.19 3.57 12.18
11/14/2022 9:45:00 AM 7.02 44.636 0.081 7.2 3.54 12.2
11/14/2022 10:00:00 AM 7.05 44.69 0.081 7.21 3.56 12.18
11/14/2022 10:15:00 AM 7.06 44.708 0.081 7.21 3.49 12.18
11/14/2022 10:30:00 AM 7.15 44.87 0.081 7.17 3.42 12.17
11/14/2022 10:45:00 AM 7.2 44.96 0.081 7.17 3.38 12.18
11/14/2022 11:00:00 AM 7.23 45.014 0.081 7.18 3.37 12.18
11/14/2022 11:15:00 AM 7.29 45.122 0.081 7.23 3.5 12.17
11/14/2022 11:30:00 AM 7.35 45.23 0.081 7.23 3.47 12.17
11/14/2022 11:45:00 AM 7.41 45.338 0.081 7.17 3.33 12.16
11/14/2022 12:00:00 PM 7.46 45.428 0.081 7.23 3.22 12.14
11/14/2022 12:15:00 PM 7.53 45.554 0.081 7.23 3.38 12.12
11/14/2022 12:30:00 PM 7.57 45.626 0.081 7.21 3.38 12.11
11/14/2022 12:45:00 PM 7.64 45.752 0.081 7.23 3.31 12.08
11/14/2022 1:00:00 PM 7.68 45.824 0.081 7.23 3.26 12.07
11/14/2022 1:15:00 PM 7.74 45.932 0.081 7.24 3.28 12.05
11/14/2022 1:30:00 PM 7.78 46.004 0.081 7.21 3.24 12.02
11/14/2022 1:45:00 PM 7.8 46.04 0.081 7.24 3.31 12.01
11/14/2022 2:00:00 PM 7.8 46.04 0.081 7.22 3.26 12
11/14/2022 2:15:00 PM 7.8 46.04 0.081 7.23 3.17 12.01
11/14/2022 2:30:00 PM 7.81 46.058 0.081 7.24 3.23 12
11/14/2022 2:45:00 PM 7.85 46.13 0.081 7.24 3.31 12
11/14/2022 3:00:00 PM 7.88 46.184 0.081 7.24 3.31 11.99
11/14/2022 3:15:00 PM 7.83 46.094 0.082 7.23 3.2 11.98
11/14/2022 3:30:00 PM 7.8 46.04 0.082 7.18 3.29 11.97
11/14/2022 3:45:00 PM 7.75 45.95 0.082 7.22 3.22 11.98
11/14/2022 4:00:00 PM 7.69 45.842 0.082 7.16 3.25 11.97
11/14/2022 4:15:00 PM 7.65 45.77 0.082 7.21 3.29 11.97
11/14/2022 4:30:00 PM 7.62 45.716 0.082 7.15 3.48 11.96
11/14/2022 4:45:00 PM 7.6 45.68 0.082 7.2 3.35 11.95
11/14/2022 5:00:00 PM 7.57 45.626 0.082 7.2 3.4 11.94
11/14/2022 5:15:00 PM 7.54 45.572 0.082 7.19 3.32 11.94
11/14/2022 5:30:00 PM 7.51 45.518 0.082 7.19 3.7 11.94
11/14/2022 5:45:00 PM 7.49 45.482 0.082 7.19 3.48 11.94
11/14/2022 6:00:00 PM 7.47 45.446 0.082 7.18 3.91 11.95
11/14/2022 6:15:00 PM 7.43 45.374 0.082 7.19 3.47 11.95
11/14/2022 6:30:00 PM 7.4 45.32 0.082 7.14 3.37 11.96
11/14/2022 6:45:00 PM 7.37 45.266 0.082 7.18 3.52 11.98
11/14/2022 7:00:00 PM 7.33 45.194 0.082 7.17 3.45 11.98
11/14/2022 7:15:00 PM 7.29 45.122 0.082 7.18 3.48 11.98
11/14/2022 7:30:00 PM 7.23 45.014 0.082 7.17 3.46 11.99
11/14/2022 7:45:00 PM 7.17 44.906 0.082 7.12 3.48 12
11/14/2022 8:00:00 PM 7.11 44.798 0.083 7.17 3.38 12.01
11/14/2022 8:15:00 PM 7.05 44.69 0.083 7.17 3.34 12.04
11/14/2022 8:30:00 PM 6.98 44.564 0.083 7.17 3.47 12.07
11/14/2022 8:45:00 PM 6.92 44.456 0.083 7.14 3.41 12.09
11/14/2022 9:00:00 PM 6.86 44.348 0.083 7.16 3.29 12.11
11/14/2022 9:15:00 PM 6.8 44.24 0.083 7.12 3.36 12.13
11/14/2022 9:30:00 PM 6.74 44.132 0.083 7.17 3.32 12.16
11/14/2022 9:45:00 PM 6.69 44.042 0.083 7.16 3.3 12.17
11/14/2022 10:00:00 PM 6.63 43.934 0.083 7.16 3.37 12.19
11/14/2022 10:15:00 PM 6.58 43.844 0.083 7.16 3.24 12.19
11/14/2022 10:30:00 PM 6.52 43.736 0.083 7.17 3.23 12.2
11/14/2022 10:45:00 PM 6.47 43.646 0.083 7.14 3.23 12.22
11/14/2022 11:00:00 PM 6.42 43.556 0.083 7.12 3.18 12.25
11/14/2022 11:15:00 PM 6.37 43.466 0.083 7.12 3.19 12.27
11/14/2022 11:30:00 PM 6.32 43.376 0.083 7.12 3.23 12.29
11/14/2022 11:45:00 PM 6.27 43.286 0.083 7.16 3.34 12.31
11/15/2022 12:00:00 AM 6.22 43.196 0.083 7.16 3.25 12.33
11/15/2022 12:15:00 AM 6.17 43.106 0.083 7.16 3.2 12.34
11/15/2022 12:30:00 AM 6.12 43.016 0.083 7.17 3.14 12.36
11/15/2022 12:45:00 AM 6.07 42.926 0.083 7.15 3.1 12.37
11/15/2022 1:00:00 AM 6.03 42.854 0.083 7.15 3.13 12.38
11/15/2022 1:15:00 AM 5.98 42.764 0.083 7.17 3.14 12.39
11/15/2022 1:30:00 AM 5.94 42.692 0.083 7.16 3.13 12.4
11/15/2022 1:45:00 AM 5.89 42.602 0.083 7.16 3.06 12.42
11/15/2022 2:00:00 AM 5.85 42.53 0.083 7.16 3.04 12.43
11/15/2022 2:15:00 AM 5.8 42.44 0.084 7.16 3.04 12.46
11/15/2022 2:30:00 AM 5.76 42.368 0.084 7.16 2.97 12.48
11/15/2022 2:45:00 AM 5.72 42.296 0.084 7.17 3.08 12.49
11/15/2022 3:00:00 AM 5.68 42.224 0.084 7.16 2.96 12.51
11/15/2022 3:15:00 AM 5.64 42.152 0.084 7.15 2.94 12.54
11/15/2022 3:30:00 AM 5.59 42.062 0.084 7.17 3.01 12.54
11/15/2022 3:45:00 AM 5.55 41.99 0.084 7.17 2.93 12.55
11/15/2022 4:00:00 AM 5.51 41.918 0.084 7.15 2.98 12.57
11/15/2022 4:15:00 AM 5.47 41.846 0.084 7.17 2.91 12.58
11/15/2022 4:30:00 AM 5.43 41.774 0.084 7.17 2.9 12.6
11/15/2022 4:45:00 AM 5.39 41.702 0.084 7.16 2.94 12.6
11/15/2022 5:00:00 AM 5.35 41.63 0.084 7.16 2.88 12.61
11/15/2022 5:15:00 AM 5.32 41.576 0.084 7.17 2.94 12.62
11/15/2022 5:30:00 AM 5.28 41.504 0.084 7.16 2.91 12.62
11/15/2022 5:45:00 AM 5.24 41.432 0.084 7.17 2.89 12.64
11/15/2022 6:00:00 AM 5.21 41.378 0.084 7.1 2.82 12.65
11/15/2022 6:15:00 AM 5.17 41.306 0.084 7.14 2.79 12.67
11/15/2022 6:30:00 AM 5.14 41.252 0.084 7.18 2.75 12.69
11/15/2022 6:45:00 AM 5.12 41.216 0.084 7.17 2.9 12.7
11/15/2022 7:00:00 AM 5.09 41.162 0.084 7.18 2.77 12.72
11/15/2022 7:15:00 AM 5.08 41.144 0.084 7.18 2.77 12.73
11/15/2022 7:30:00 AM 5.07 41.126 0.084 7.19 2.82 12.76
11/15/2022 7:45:00 AM 5.06 41.108 0.084 7.18 2.71 12.78
11/15/2022 8:00:00 AM 5.06 41.108 0.084 7.2 2.72 12.8
11/15/2022 8:15:00 AM 5.07 41.126 0.084 7.2 2.69 12.82
11/15/2022 8:30:00 AM 5.09 41.162 0.084 7.2 2.71 12.83
11/15/2022 8:45:00 AM 5.11 41.198 0.084 7.21 2.64 12.83
11/15/2022 9:00:00 AM 5.14 41.252 0.084 7.13 2.59 12.84
11/15/2022 9:15:00 AM 5.18 41.324 0.084 7.19 2.68 12.84
11/15/2022 9:30:00 AM 5.23 41.414 0.084 7.24 2.62 12.83
11/15/2022 9:45:00 AM 5.29 41.522 0.084 7.24 2.64 12.82
11/15/2022 10:00:00 AM 5.35 41.63 0.084 7.24 2.61 12.82
11/15/2022 10:15:00 AM 5.39 41.702 0.084 7.25 2.52 12.81
11/15/2022 10:30:00 AM 5.43 41.774 0.084 7.25 2.56 12.79
11/15/2022 10:45:00 AM 5.46 41.828 0.084 7.26 2.5 12.79
11/15/2022 11:00:00 AM 5.49 41.882 0.084 7.19 2.45 12.77
11/15/2022 11:15:00 AM 5.51 41.918 0.084 7.25 2.51 12.76
11/15/2022 11:30:00 AM 5.53 41.954 0.084 7.25 2.44 12.74
11/15/2022 11:45:00 AM 5.55 41.99 0.084 7.25 2.39 12.74
11/15/2022 12:00:00 PM 5.58 42.044 0.084 7.25 2.49 12.72
11/15/2022 12:15:00 PM 5.61 42.098 0.084 7.26 2.39 12.71
11/15/2022 12:30:00 PM 5.64 42.152 0.084 7.2 2.39 12.69
11/15/2022 12:45:00 PM 5.66 42.188 0.084 7.26 2.4 12.69
11/15/2022 1:00:00 PM 5.7 42.26 0.084 7.26 2.37 12.67
11/15/2022 1:15:00 PM 5.73 42.314 0.084 7.27 2.45 12.64
11/15/2022 1:30:00 PM 5.76 42.368 0.084 7.19 2.39 12.63
11/15/2022 1:45:00 PM 5.81 42.458 0.084 7.28 2.39 12.61
11/15/2022 2:00:00 PM 5.85 42.53 0.084 7.21 2.49 12.6
11/15/2022 2:15:00 PM 5.88 42.584 0.084 7.27 2.36 12.57
11/15/2022 2:30:00 PM 5.9 42.62 0.085 7.27 2.45 12.54
11/15/2022 2:45:00 PM 5.9 42.62 0.085 7.19 2.44 12.52
11/15/2022 3:00:00 PM 5.89 42.602 0.085 7.27 2.4 12.51
11/15/2022 3:15:00 PM 5.83 42.494 0.085 7.25 2.44 12.48
11/15/2022 3:30:00 PM 5.8 42.44 0.085 7.23 2.4 12.48
11/15/2022 3:45:00 PM 5.69 42.242 0.084 7.22 2.43 12.49
11/15/2022 4:00:00 PM 5.61 42.098 0.084 7.13 2.46 12.5
11/15/2022 4:15:00 PM 5.53 41.954 0.084 7.21 2.48 12.52
11/15/2022 4:30:00 PM 5.41 41.738 0.084 7.2 2.3 12.51
11/15/2022 4:45:00 PM 5.29 41.522 0.084 7.19 2.47 12.53
11/15/2022 5:00:00 PM 5.22 41.396 0.084 7.2 2.56 12.55
11/15/2022 5:15:00 PM 5.14 41.252 0.084 7.19 2.63 12.58
11/15/2022 5:30:00 PM 5.07 41.126 0.084 7.19 2.53 12.61
11/15/2022 5:45:00 PM 4.98 40.964 0.084 7.19 2.47 12.62
11/15/2022 6:00:00 PM 4.9 40.82 0.084 7.19 2.58 12.65
11/15/2022 6:15:00 PM 4.84 40.712 0.084 7.2 2.55 12.66
11/15/2022 6:30:00 PM 4.77 40.586 0.084 7.18 2.54 12.68
11/15/2022 6:45:00 PM 4.72 40.496 0.084 7.18 2.59 12.69
11/15/2022 7:00:00 PM 4.71 40.478 0.084 7.19 2.49 12.7
11/15/2022 7:15:00 PM 4.64 40.352 0.084 7.19 2.6 12.72
11/15/2022 7:30:00 PM 4.63 40.334 0.084 7.2 2.59 12.73
11/15/2022 7:45:00 PM 4.61 40.298 0.084 7.13 2.57 12.74
11/15/2022 8:00:00 PM 4.65 40.37 0.084 7.21 2.51 12.74
11/15/2022 8:15:00 PM 4.63 40.334 0.084 7.15 2.5 12.75
11/15/2022 8:30:00 PM 4.62 40.316 0.084 7.17 2.59 12.75
11/15/2022 8:45:00 PM 4.62 40.316 0.084 7.21 2.48 12.75
11/15/2022 9:00:00 PM 4.64 40.352 0.084 7.2 2.49 12.75
11/15/2022 9:15:00 PM 4.65 40.37 0.084 7.21 2.46 12.75
11/15/2022 9:30:00 PM 4.68 40.424 0.084 7.21 2.47 12.75
11/15/2022 9:45:00 PM 4.71 40.478 0.084 7.22 2.51 12.75
11/15/2022 10:00:00 PM 4.75 40.55 0.084 7.18 2.53 12.75
11/15/2022 10:15:00 PM 4.78 40.604 0.084 7.22 2.47 12.74
11/15/2022 10:30:00 PM 4.82 40.676 0.084 7.22 2.4 12.73
11/15/2022 10:45:00 PM 4.85 40.73 0.084 7.22 2.46 12.71
11/15/2022 11:00:00 PM 4.88 40.784 0.084 7.16 2.5 12.71
11/15/2022 11:15:00 PM 4.91 40.838 0.084 7.23 2.6 12.7
11/15/2022 11:30:00 PM 4.93 40.874 0.084 7.16 2.54 12.69
11/15/2022 11:45:00 PM 4.95 40.91 0.084 7.19 2.44 12.68
11/16/2022 12:00:00 AM 4.98 40.964 0.084 7.23 2.49 12.66
11/16/2022 12:15:00 AM 5 41 0.084 7.16 2.51 12.65
11/16/2022 12:30:00 AM 5.03 41.054 0.084 7.23 2.49 12.64
11/16/2022 12:45:00 AM 5.06 41.108 0.085 7.22 2.43 12.63
11/16/2022 1:00:00 AM 5.08 41.144 0.085 7.22 2.46 12.62
11/16/2022 1:15:00 AM 5.1 41.18 0.085 7.17 2.41 12.6
11/16/2022 1:30:00 AM 5.12 41.216 0.085 7.22 2.43 12.58
11/16/2022 1:45:00 AM 5.13 41.234 0.085 7.22 2.48 12.58
11/16/2022 2:00:00 AM 5.15 41.27 0.085 7.22 2.46 12.57
11/16/2022 2:15:00 AM 5.17 41.306 0.085 7.23 2.47 12.55
11/16/2022 2:30:00 AM 5.18 41.324 0.085 7.15 2.52 12.54
11/16/2022 2:45:00 AM 5.2 41.36 0.085 7.23 2.47 12.54
11/16/2022 3:00:00 AM 5.22 41.396 0.085 7.22 2.43 12.53
11/16/2022 3:15:00 AM 5.24 41.432 0.085 7.22 2.46 12.52
11/16/2022 3:30:00 AM 5.25 41.45 0.085 7.15 2.51 12.51
11/16/2022 3:45:00 AM 5.26 41.468 0.085 7.18 2.54 12.5
11/16/2022 4:00:00 AM 5.27 41.486 0.085 7.22 2.52 12.5
11/16/2022 4:15:00 AM 5.29 41.522 0.085 7.22 2.54 12.49
11/16/2022 4:30:00 AM 5.3 41.54 0.085 7.21 2.51 12.49
11/16/2022 4:45:00 AM 5.31 41.558 0.086 7.22 2.46 12.48
11/16/2022 5:00:00 AM 5.33 41.594 0.086 7.18 2.49 12.49
11/16/2022 5:15:00 AM 5.34 41.612 0.086 7.21 2.5 12.48
11/16/2022 5:30:00 AM 5.35 41.63 0.086 7.21 2.58 12.48
11/16/2022 5:45:00 AM 5.36 41.648 0.086 7.22 2.53 12.47
11/16/2022 6:00:00 AM 5.38 41.684 0.086 7.22 2.53 12.48
11/16/2022 6:15:00 AM 5.39 41.702 0.087 7.22 2.58 12.46
11/16/2022 6:30:00 AM 5.41 41.738 0.087 7.22 2.5 12.47
11/16/2022 6:45:00 AM 5.42 41.756 0.087 7.22 2.6 12.45
11/16/2022 7:00:00 AM 5.43 41.774 0.088 7.22 2.67 12.46
11/16/2022 7:15:00 AM 5.45 41.81 0.088 7.22 2.61 12.46
11/16/2022 7:30:00 AM 5.47 41.846 0.089 7.22 2.61 12.46
11/16/2022 7:45:00 AM 5.48 41.864 0.089 7.22 2.61 12.46
11/16/2022 8:00:00 AM 5.5 41.9 0.089 7.23 2.57 12.47
11/16/2022 8:15:00 AM 5.52 41.936 0.089 7.14 2.53 12.48
11/16/2022 8:30:00 AM 5.54 41.972 0.09 7.24 2.6 12.46
11/16/2022 8:45:00 AM 5.55 41.99 0.09 7.23 2.58 12.48
11/16/2022 9:00:00 AM 5.57 42.026 0.09 7.24 2.65 12.51
11/16/2022 9:15:00 AM 5.6 42.08 0.09 7.24 2.54 12.52
11/16/2022 9:30:00 AM 5.64 42.152 0.091 7.26 2.55 12.51
11/16/2022 9:45:00 AM 5.68 42.224 0.091 7.18 2.6 12.51
11/16/2022 10:00:00 AM 5.74 42.332 0.091 7.27 2.57 12.5
11/16/2022 10:15:00 AM 5.81 42.458 0.092 7.28 2.57 12.5
11/16/2022 10:30:00 AM 5.89 42.602 0.092 7.27 2.51 12.48
11/16/2022 10:45:00 AM 6 42.8 0.093 7.29 2.54 12.47
11/16/2022 11:00:00 AM 6.08 42.944 0.093 7.3 2.61 12.46
11/16/2022 11:15:00 AM 6.15 43.07 0.094 7.24 2.51 12.44
11/16/2022 11:30:00 AM 6.2 43.16 0.095 7.31 2.58 12.43
11/16/2022 11:45:00 AM 6.22 43.196 0.095 7.3 2.62 12.41
11/16/2022 12:00:00 PM 6.23 43.214 0.096 7.3 2.64 12.4
11/16/2022 12:15:00 PM 6.25 43.25 0.097 7.28 2.66 12.39
11/16/2022 12:30:00 PM 6.27 43.286 0.098 7.29 2.75 12.37
11/16/2022 12:45:00 PM 6.29 43.322 0.099 7.3 2.66 12.37
11/16/2022 1:00:00 PM 6.31 43.358 0.1 7.3 2.77 12.34
11/16/2022 1:15:00 PM 6.33 43.394 0.101 7.31 2.81 12.33
11/16/2022 1:30:00 PM 6.35 43.43 0.102 7.3 2.78 12.32
11/16/2022 1:45:00 PM 6.38 43.484 0.103 7.3 2.81 12.31
11/16/2022 2:00:00 PM 6.39 43.502 0.104 7.31 2.86 12.28
11/16/2022 2:15:00 PM 6.39 43.502 0.105 7.29 2.97 12.27
11/16/2022 2:30:00 PM 6.41 43.538 0.106 7.3 2.98 12.27
11/16/2022 2:45:00 PM 6.4 43.52 0.107 7.29 3.06 12.25
11/16/2022 3:00:00 PM 6.38 43.484 0.107 7.3 3.09 12.23
11/16/2022 3:15:00 PM 6.36 43.448 0.108 7.23 2.95 12.23
11/16/2022 3:30:00 PM 6.35 43.43 0.108 7.29 3.12 12.24
11/16/2022 3:45:00 PM 6.33 43.394 0.109 7.29 3.12 12.25
11/16/2022 4:00:00 PM 6.31 43.358 0.109 7.29 3.19 12.24
11/16/2022 4:15:00 PM 6.29 43.322 0.109 7.29 3.31 12.25
11/16/2022 4:30:00 PM 6.26 43.268 0.109 7.23 3.27 12.24
11/16/2022 4:45:00 PM 6.24 43.232 0.109 7.28 3.32 12.24
11/16/2022 5:00:00 PM 6.22 43.196 0.109 7.27 3.47 12.24
11/16/2022 5:15:00 PM 6.21 43.178 0.11 7.27 3.5 12.24
11/16/2022 5:30:00 PM 6.19 43.142 0.11 7.28 3.52 12.23
11/16/2022 5:45:00 PM 6.17 43.106 0.11 7.28 3.63 12.23
11/16/2022 6:00:00 PM 6.15 43.07 0.11 7.27 3.76 12.24
11/16/2022 6:15:00 PM 6.14 43.052 0.111 7.22 3.75 12.23
11/16/2022 6:30:00 PM 6.12 43.016 0.111 7.26 3.68 12.24
11/16/2022 6:45:00 PM 6.1 42.98 0.111 7.28 3.8 12.24
11/16/2022 7:00:00 PM 6.07 42.926 0.111 7.28 3.73 12.25
11/16/2022 7:15:00 PM 6.02 42.836 0.111 7.27 3.79 12.25
11/16/2022 7:30:00 PM 5.99 42.782 0.111 7.21 3.91 12.26
11/16/2022 7:45:00 PM 5.96 42.728 0.111 7.28 3.94 12.26
11/16/2022 8:00:00 PM 5.94 42.692 0.111 7.27 3.93 12.27
11/16/2022 8:15:00 PM 5.92 42.656 0.111 7.22 4.11 12.27
11/16/2022 8:30:00 PM 5.91 42.638 0.111 7.28 4.25 12.27
11/16/2022 8:45:00 PM 5.9 42.62 0.111 7.28 4.13 12.27
11/16/2022 9:00:00 PM 5.89 42.602 0.111 7.27 4.09 12.28
11/16/2022 9:15:00 PM 5.88 42.584 0.111 7.27 4.2 12.28
11/16/2022 9:30:00 PM 5.85 42.53 0.111 7.23 4.15 12.28
11/16/2022 9:45:00 PM 5.81 42.458 0.111 7.27 4.17 12.3
11/16/2022 10:00:00 PM 5.77 42.386 0.111 7.28 4.19 12.31
11/16/2022 10:15:00 PM 5.72 42.296 0.111 7.27 4.21 12.34
11/16/2022 10:30:00 PM 5.7 42.26 0.111 7.28 4.08 12.35
11/16/2022 10:45:00 PM 5.68 42.224 0.111 7.28 4.14 12.35
11/16/2022 11:00:00 PM 5.65 42.17 0.111 7.21 4.1 12.36
11/16/2022 11:15:00 PM 5.64 42.152 0.111 7.28 3.96 12.37
11/16/2022 11:30:00 PM 5.62 42.116 0.11 7.27 3.92 12.38
11/16/2022 11:45:00 PM 5.61 42.098 0.11 7.28 3.94 12.37
11/17/2022 12:00:00 AM 5.6 42.08 0.11 7.28 3.94 12.38
11/17/2022 12:15:00 AM 5.58 42.044 0.11 7.27 3.73 12.38
11/17/2022 12:30:00 AM 5.55 41.99 0.109 7.27 3.75 12.4
11/17/2022 12:45:00 AM 5.53 41.954 0.109 7.27 3.6 12.39
11/17/2022 1:00:00 AM 5.5 41.9 0.109 7.28 3.6 12.4
11/17/2022 1:15:00 AM 5.48 41.864 0.109 7.28 3.55 12.4
11/17/2022 1:30:00 AM 5.46 41.828 0.109 7.28 3.66 12.41
11/17/2022 1:45:00 AM 5.45 41.81 0.108 7.23 3.4 12.41
11/17/2022 2:00:00 AM 5.43 41.774 0.108 7.24 3.33 12.42
11/17/2022 2:15:00 AM 5.42 41.756 0.108 7.24 3.24 12.41
11/17/2022 2:30:00 AM 5.4 41.72 0.108 7.25 3.27 12.43
11/17/2022 2:45:00 AM 5.39 41.702 0.108 7.28 3.25 12.44
11/17/2022 3:00:00 AM 5.38 41.684 0.107 7.27 3.22 12.44
11/17/2022 3:15:00 AM 5.36 41.648 0.107 7.22 3.13 12.43
11/17/2022 3:30:00 AM 5.35 41.63 0.107 7.28 3.1 12.44
11/17/2022 3:45:00 AM 5.34 41.612 0.107 7.28 3.14 12.45
11/17/2022 4:00:00 AM 5.33 41.594 0.107 7.27 3.08 12.45
11/17/2022 4:15:00 AM 5.32 41.576 0.107 7.27 2.93 12.44
11/17/2022 4:30:00 AM 5.3 41.54 0.106 7.27 2.95 12.45
11/17/2022 4:45:00 AM 5.29 41.522 0.106 7.28 2.93 12.45
11/17/2022 5:00:00 AM 5.28 41.504 0.106 7.27 2.88 12.46
11/17/2022 5:15:00 AM 5.27 41.486 0.106 7.27 2.88 12.45
11/17/2022 5:30:00 AM 5.24 41.432 0.106 7.28 2.75 12.46
11/17/2022 5:45:00 AM 5.22 41.396 0.105 7.27 2.8 12.47
11/17/2022 6:00:00 AM 5.2 41.36 0.105 7.25 2.81 12.48
11/17/2022 6:15:00 AM 5.17 41.306 0.105 7.27 2.71 12.49
11/17/2022 6:30:00 AM 5.14 41.252 0.105 7.27 2.77 12.51
11/17/2022 6:45:00 AM 5.12 41.216 0.105 7.27 2.74 12.52
11/17/2022 7:00:00 AM 5.09 41.162 0.105 7.27 2.67 12.52
11/17/2022 7:15:00 AM 5.08 41.144 0.105 7.27 2.64 12.54
11/17/2022 7:30:00 AM 5.07 41.126 0.104 7.26 2.75 12.56
11/17/2022 7:45:00 AM 5.06 41.108 0.104 7.27 2.58 12.58
11/17/2022 8:00:00 AM 5.05 41.09 0.104 7.29 2.58 12.61
11/17/2022 8:15:00 AM 5.06 41.108 0.104 7.26 2.6 12.63
11/17/2022 8:30:00 AM 5.06 41.108 0.104 7.3 2.55 12.65
11/17/2022 8:45:00 AM 5.07 41.126 0.104 7.3 2.52 12.65
11/17/2022 9:00:00 AM 5.08 41.144 0.104 7.29 2.48 12.65
11/17/2022 9:15:00 AM 5.08 41.144 0.103 7.3 2.45 12.65
11/17/2022 9:30:00 AM 5.09 41.162 0.103 7.31 2.48 12.66
11/17/2022 9:45:00 AM 5.08 41.144 0.103 7.23 2.41 12.67
11/17/2022 10:00:00 AM 5.09 41.162 0.103 7.3 2.38 12.68
11/17/2022 10:15:00 AM 5.1 41.18 0.103 7.31 2.41 12.69
11/17/2022 10:30:00 AM 5.12 41.216 0.103 7.33 2.41 12.7
11/17/2022 10:45:00 AM 5.14 41.252 0.103 7.32 2.38 12.7
11/17/2022 11:00:00 AM 5.17 41.306 0.103 7.32 2.32 12.7
11/17/2022 11:15:00 AM 5.19 41.342 0.103 7.33 2.31 12.69
11/17/2022 11:30:00 AM 5.21 41.378 0.102 7.33 2.37 12.69
11/17/2022 11:45:00 AM 5.25 41.45 0.102 7.28 2.31 12.68
11/17/2022 12:00:00 PM 5.28 41.504 0.102 7.34 2.29 12.68
11/17/2022 12:15:00 PM 5.31 41.558 0.102 7.34 2.35 12.69
11/17/2022 12:30:00 PM 5.34 41.612 0.102 7.34 2.26 12.69
11/17/2022 12:45:00 PM 5.39 41.702 0.102 7.29 2.27 12.67
11/17/2022 1:00:00 PM 5.42 41.756 0.102 7.36 2.35 12.67
11/17/2022 1:15:00 PM 5.45 41.81 0.102 7.35 2.25 12.66
11/17/2022 1:30:00 PM 5.48 41.864 0.102 7.35 2.2 12.64
11/17/2022 1:45:00 PM 5.52 41.936 0.102 7.35 2.17 12.63
11/17/2022 2:00:00 PM 5.54 41.972 0.101 7.29 2.24 12.63
11/17/2022 2:15:00 PM 5.6 42.08 0.101 7.36 2.33 12.62
11/17/2022 2:30:00 PM 5.63 42.134 0.101 7.31 2.24 12.6
11/17/2022 2:45:00 PM 5.68 42.224 0.101 7.33 2.27 12.59
11/17/2022 3:00:00 PM 5.69 42.242 0.101 7.36 2.32 12.58
11/17/2022 3:15:00 PM 5.68 42.224 0.101 7.35 2.3 12.57
11/17/2022 3:30:00 PM 5.67 42.206 0.101 7.3 2.29 12.56
11/17/2022 3:45:00 PM 5.65 42.17 0.101 7.34 2.25 12.55
11/17/2022 4:00:00 PM 5.63 42.134 0.101 7.34 2.27 12.56
11/17/2022 4:15:00 PM 5.6 42.08 0.101 7.34 2.25 12.53
11/17/2022 4:30:00 PM 5.56 42.008 0.101 7.32 2.25 12.52
11/17/2022 4:45:00 PM 5.53 41.954 0.101 7.3 2.27 12.5
11/17/2022 5:00:00 PM 5.49 41.882 0.101 7.31 2.31 12.49
11/17/2022 5:15:00 PM 5.45 41.81 0.101 7.28 2.3 12.49
11/17/2022 5:30:00 PM 5.43 41.774 0.101 7.3 2.35 12.48
11/17/2022 5:45:00 PM 5.4 41.72 0.1 7.3 2.33 12.49
11/17/2022 6:00:00 PM 5.37 41.666 0.1 7.26 2.35 12.49
11/17/2022 6:15:00 PM 5.35 41.63 0.1 7.29 2.31 12.49
11/17/2022 6:30:00 PM 5.32 41.576 0.1 7.28 2.36 12.5
11/17/2022 6:45:00 PM 5.3 41.54 0.1 7.28 2.35 12.49
11/17/2022 7:00:00 PM 5.28 41.504 0.1 7.22 2.35 12.49
11/17/2022 7:15:00 PM 5.26 41.468 0.1 7.24 2.32 12.49
11/17/2022 7:30:00 PM 5.24 41.432 0.1 7.28 2.37 12.5
11/17/2022 7:45:00 PM 5.22 41.396 0.1 7.27 2.41 12.5
11/17/2022 8:00:00 PM 5.2 41.36 0.1 7.27 2.34 12.53
11/17/2022 8:15:00 PM 5.19 41.342 0.1 7.27 2.34 12.53
11/17/2022 8:30:00 PM 5.17 41.306 0.1 7.27 2.32 12.54
11/17/2022 8:45:00 PM 5.16 41.288 0.1 7.27 2.34 12.54
11/17/2022 9:00:00 PM 5.15 41.27 0.1 7.27 2.29 12.56
11/17/2022 9:15:00 PM 5.14 41.252 0.1 7.28 2.4 12.57
11/17/2022 9:30:00 PM 5.13 41.234 0.1 7.27 2.34 12.56
11/17/2022 9:45:00 PM 5.11 41.198 0.1 7.27 2.35 12.58
11/17/2022 10:00:00 PM 5.1 41.18 0.1 7.27 2.34 12.58
11/17/2022 10:15:00 PM 5.1 41.18 0.1 7.23 2.32 12.58
11/17/2022 10:30:00 PM 5.09 41.162 0.1 7.27 2.31 12.59
11/17/2022 10:45:00 PM 5.07 41.126 0.1 7.28 2.27 12.59
11/17/2022 11:00:00 PM 5.06 41.108 0.1 7.27 2.3 12.59
11/17/2022 11:15:00 PM 5.04 41.072 0.1 7.27 2.29 12.6
11/17/2022 11:30:00 PM 5.02 41.036 0.1 7.26 2.25 12.61
11/17/2022 11:45:00 PM 5 41 0.1 7.27 2.32 12.62
11/18/2022 12:00:00 AM 4.99 40.982 0.1 7.28 2.35 12.62
11/18/2022 12:15:00 AM 4.97 40.946 0.1 7.28 2.32 12.63
11/18/2022 12:30:00 AM 4.97 40.946 0.1 7.25 2.23 12.63
11/18/2022 12:45:00 AM 4.94 40.892 0.1 7.28 2.26 12.63
11/18/2022 1:00:00 AM 4.92 40.856 0.1 7.24 2.3 12.64
11/18/2022 1:15:00 AM 4.9 40.82 0.1 7.27 2.3 12.65
11/18/2022 1:30:00 AM 4.88 40.784 0.1 7.28 2.32 12.65
11/18/2022 1:45:00 AM 4.85 40.73 0.1 7.23 2.3 12.66
11/18/2022 2:00:00 AM 4.82 40.676 0.1 7.24 2.19 12.67
11/18/2022 2:15:00 AM 4.79 40.622 0.1 7.27 2.19 12.67
11/18/2022 2:30:00 AM 4.77 40.586 0.1 7.27 2.19 12.68
11/18/2022 2:45:00 AM 4.73 40.514 0.1 7.26 2.21 12.69
11/18/2022 3:00:00 AM 4.7 40.46 0.1 7.27 2.23 12.69
11/18/2022 3:15:00 AM 4.67 40.406 0.1 7.26 2.26 12.7
11/18/2022 3:30:00 AM 4.63 40.334 0.1 7.27 2.64 12.7
11/18/2022 3:45:00 AM 4.59 40.262 0.1 7.22 2.25 12.72
11/18/2022 4:00:00 AM 4.54 40.172 0.1 7.24 2.32 12.74
11/18/2022 4:15:00 AM 4.51 40.118 0.1 7.27 2.25 12.75
11/18/2022 4:30:00 AM 4.46 40.028 0.1 7.27 2.2 12.77
11/18/2022 4:45:00 AM 4.42 39.956 0.099 7.28 2.21 12.79
11/18/2022 5:00:00 AM 4.38 39.884 0.099 7.26 2.21 12.81
11/18/2022 5:15:00 AM 4.34 39.812 0.099 7.27 2.19 12.82
11/18/2022 5:30:00 AM 4.29 39.722 0.099 7.29 2.15 12.83
11/18/2022 5:45:00 AM 4.25 39.65 0.099 7.27 2.13 12.85
11/18/2022 6:00:00 AM 4.19 39.542 0.099 7.27 2.2 12.86
11/18/2022 6:15:00 AM 4.14 39.452 0.099 7.27 2.26 12.88
11/18/2022 6:30:00 AM 4.11 39.398 0.099 7.26 2.15 12.88
11/18/2022 6:45:00 AM 4.08 39.344 0.099 7.26 2.16 12.89
11/18/2022 7:00:00 AM 4.07 39.326 0.099 7.26 2.12 12.91
11/18/2022 7:15:00 AM 4.07 39.326 0.099 7.27 2.13 12.92
11/18/2022 7:30:00 AM 4.06 39.308 0.099 7.28 2.06 12.94
11/18/2022 7:45:00 AM 4.07 39.326 0.099 7.27 2.11 12.96
11/18/2022 8:00:00 AM 4.08 39.344 0.099 7.25 2.03 12.98
11/18/2022 8:15:00 AM 4.09 39.362 0.099 7.27 2.09 13
11/18/2022 8:30:00 AM 4.12 39.416 0.099 7.3 2 13.02
11/18/2022 8:45:00 AM 4.12 39.416 0.099 7.31 2.03 13.04
11/18/2022 9:00:00 AM 4.12 39.416 0.099 7.3 2 13.06
11/18/2022 9:15:00 AM 4.15 39.47 0.099 7.32 2 13.07
11/18/2022 9:30:00 AM 4.16 39.488 0.099 7.26 1.98 13.06
11/18/2022 9:45:00 AM 4.18 39.524 0.099 7.3 1.99 13.07
11/18/2022 10:00:00 AM 4.23 39.614 0.099 7.32 2.01 13.07
11/18/2022 10:15:00 AM 4.27 39.686 0.099 7.33 2.01 13.08
11/18/2022 10:30:00 AM 4.32 39.776 0.099 7.34 1.96 13.06
11/18/2022 10:45:00 AM 4.34 39.812 0.099 7.32 1.92 13.06
11/18/2022 11:00:00 AM 4.4 39.92 0.099 7.34 1.94 13.04
11/18/2022 11:15:00 AM 4.39 39.902 0.099 7.28 1.88 13.03
11/18/2022 11:30:00 AM 4.46 40.028 0.099 7.35 1.97 13.03
11/18/2022 11:45:00 AM 4.52 40.136 0.098 7.31 1.94 13.01
11/18/2022 12:00:00 PM 4.55 40.19 0.098 7.35 1.94 13
11/18/2022 12:15:00 PM 4.56 40.208 0.098 7.35 1.88 12.98
11/18/2022 12:30:00 PM 4.58 40.244 0.098 7.31 1.94 12.96
11/18/2022 12:45:00 PM 4.64 40.352 0.098 7.35 1.88 12.96
11/18/2022 1:00:00 PM 4.71 40.478 0.098 7.32 1.9 12.95
11/18/2022 1:15:00 PM 4.75 40.55 0.098 7.36 1.95 12.95
11/18/2022 1:30:00 PM 4.79 40.622 0.098 7.32 1.9 12.93
11/18/2022 1:45:00 PM 4.88 40.784 0.098 7.37 1.92 12.91
11/18/2022 2:00:00 PM 4.95 40.91 0.098 7.33 1.96 12.89
11/18/2022 2:15:00 PM 4.96 40.928 0.098 7.36 1.88 12.86
11/18/2022 2:30:00 PM 4.98 40.964 0.098 7.36 1.92 12.84
11/18/2022 2:45:00 PM 4.99 40.982 0.098 7.35 1.92 12.82
11/18/2022 3:00:00 PM 4.99 40.982 0.098 7.34 1.97 12.83
11/18/2022 3:15:00 PM 4.99 40.982 0.098 7.34 1.88 12.82
11/18/2022 3:30:00 PM 4.96 40.928 0.098 7.35 1.92 12.81
11/18/2022 3:45:00 PM 4.94 40.892 0.098 7.34 1.93 12.8
11/18/2022 4:00:00 PM 4.91 40.838 0.098 7.34 1.95 12.79
11/18/2022 4:15:00 PM 4.86 40.748 0.098 7.33 2.01 12.78
11/18/2022 4:30:00 PM 4.82 40.676 0.098 7.32 1.95 12.76
11/18/2022 4:45:00 PM 4.75 40.55 0.098 7.31 1.97 12.75
11/18/2022 5:00:00 PM 4.7 40.46 0.098 7.25 1.98 12.73
11/18/2022 5:15:00 PM 4.66 40.388 0.098 7.27 1.96 12.73
11/18/2022 5:30:00 PM 4.62 40.316 0.098 7.3 2 12.74
11/18/2022 5:45:00 PM 4.59 40.262 0.098 7.27 2 12.75
11/18/2022 6:00:00 PM 4.54 40.172 0.098 7.29 2.12 12.77
11/18/2022 6:15:00 PM 4.49 40.082 0.098 7.28 2.02 12.78
11/18/2022 6:30:00 PM 4.47 40.046 0.098 7.28 2.01 12.79
11/18/2022 6:45:00 PM 4.43 39.974 0.098 7.29 2.04 12.8
11/18/2022 7:00:00 PM 4.37 39.866 0.098 7.27 2 12.82
11/18/2022 7:15:00 PM 4.33 39.794 0.098 7.27 2.04 12.84
11/18/2022 7:30:00 PM 4.26 39.668 0.098 7.23 2.01 12.86
11/18/2022 7:45:00 PM 4.2 39.56 0.098 7.24 1.94 12.88
11/18/2022 8:00:00 PM 4.16 39.488 0.098 7.24 1.98 12.9
11/18/2022 8:15:00 PM 4.12 39.416 0.098 7.24 1.99 12.92
11/18/2022 8:30:00 PM 4.08 39.344 0.098 7.28 1.96 12.92
11/18/2022 8:45:00 PM 4.05 39.29 0.098 7.27 2.02 12.92
11/18/2022 9:00:00 PM 4.01 39.218 0.098 7.27 2 12.93
11/18/2022 9:15:00 PM 3.99 39.182 0.098 7.27 2.06 12.94
11/18/2022 9:30:00 PM 3.96 39.128 0.098 7.28 2.06 12.96
11/18/2022 9:45:00 PM 3.93 39.074 0.098 7.28 2.06 12.97
11/18/2022 10:00:00 PM 3.9 39.02 0.098 7.27 1.99 12.99
11/18/2022 10:15:00 PM 3.88 38.984 0.098 7.26 1.99 13
11/18/2022 10:30:00 PM 3.86 38.948 0.098 7.23 1.92 13.02
11/18/2022 10:45:00 PM 3.83 38.894 0.098 7.28 2 13.04
11/18/2022 11:00:00 PM 3.81 38.858 0.099 7.25 2.02 13.04
11/18/2022 11:15:00 PM 3.77 38.786 0.099 7.24 1.91 13.06
11/18/2022 11:30:00 PM 3.74 38.732 0.099 7.28 1.98 13.07
11/18/2022 11:45:00 PM 3.7 38.66 0.099 7.27 1.99 13.09
11/19/2022 12:00:00 AM 3.66 38.588 0.099 7.27 1.93 13.11
11/19/2022 12:15:00 AM 3.63 38.534 0.099 7.27 1.93 13.12
11/19/2022 12:30:00 AM 3.59 38.462 0.099 7.22 1.96 13.14
11/19/2022 12:45:00 AM 3.56 38.408 0.099 7.27 1.92 13.15
11/19/2022 1:00:00 AM 3.52 38.336 0.099 7.26 2.05 13.15
11/19/2022 1:15:00 AM 3.5 38.3 0.099 7.26 1.97 13.16
11/19/2022 1:30:00 AM 3.47 38.246 0.099 7.27 2 13.18
11/19/2022 1:45:00 AM 3.44 38.192 0.099 7.27 1.97 13.18
11/19/2022 2:00:00 AM 3.43 38.174 0.099 7.27 1.94 13.19
11/19/2022 2:15:00 AM 3.42 38.156 0.099 7.27 1.9 13.2
11/19/2022 2:30:00 AM 3.41 38.138 0.099 7.27 2.01 13.19
11/19/2022 2:45:00 AM 3.4 38.12 0.099 7.28 1.99 13.2
11/19/2022 3:00:00 AM 3.39 38.102 0.099 7.27 1.89 13.21
11/19/2022 3:15:00 AM 3.38 38.084 0.099 7.27 2.08 13.21
11/19/2022 3:30:00 AM 3.36 38.048 0.099 7.24 2.17 13.21
11/19/2022 3:45:00 AM 3.33 37.994 0.099 7.27 1.99 13.22
11/19/2022 4:00:00 AM 3.28 37.904 0.099 7.27 1.96 13.23
11/19/2022 4:15:00 AM 3.25 37.85 0.099 7.23 1.92 13.26
11/19/2022 4:30:00 AM 3.23 37.814 0.099 7.27 1.85 13.26
11/19/2022 4:45:00 AM 3.19 37.742 0.099 7.27 1.83 13.28
11/19/2022 5:00:00 AM 3.16 37.688 0.099 7.27 1.85 13.29
11/19/2022 5:15:00 AM 3.13 37.634 0.099 7.26 1.87 13.29
11/19/2022 5:30:00 AM 3.1 37.58 0.099 7.26 1.83 13.31
11/19/2022 5:45:00 AM 3.07 37.526 0.099 7.27 1.88 13.33
11/19/2022 6:00:00 AM 3.04 37.472 0.099 7.22 1.84 13.33
11/19/2022 6:15:00 AM 3.01 37.418 0.099 7.27 1.81 13.35
11/19/2022 6:30:00 AM 2.98 37.364 0.099 7.26 1.85 13.35
11/19/2022 6:45:00 AM 2.94 37.292 0.099 7.26 1.9 13.38
11/19/2022 7:00:00 AM 2.91 37.238 0.099 7.27 1.83 13.39
11/19/2022 7:15:00 AM 2.89 37.202 0.099 7.26 1.76 13.4
11/19/2022 7:30:00 AM 2.87 37.166 0.099 7.26 1.78 13.42
11/19/2022 7:45:00 AM 2.84 37.112 0.099 7.24 1.74 13.45
11/19/2022 8:00:00 AM 2.82 37.076 0.099 7.28 1.8 13.48
11/19/2022 8:15:00 AM 2.82 37.076 0.099 7.23 1.85 13.51
11/19/2022 8:30:00 AM 2.84 37.112 0.099 7.3 1.85 13.53
11/19/2022 8:45:00 AM 2.87 37.166 0.098 7.26 1.83 13.55
11/19/2022 9:00:00 AM 2.9 37.22 0.099 7.31 1.84 13.58
11/19/2022 9:15:00 AM 2.93 37.274 0.098 7.32 1.86 13.59
11/19/2022 9:30:00 AM 2.96 37.328 0.098 7.32 1.76 13.59
11/19/2022 9:45:00 AM 2.99 37.382 0.098 7.31 1.75 13.59
11/19/2022 10:00:00 AM 3.02 37.436 0.098 7.29 1.8 13.57
11/19/2022 10:15:00 AM 3.04 37.472 0.098 7.33 1.76 13.58
11/19/2022 10:30:00 AM 3.06 37.508 0.098 7.32 1.75 13.58
11/19/2022 10:45:00 AM 3.07 37.526 0.098 7.32 1.77 13.58
11/19/2022 11:00:00 AM 3.11 37.598 0.098 7.3 1.67 13.58
11/19/2022 11:15:00 AM 3.15 37.67 0.098 7.34 1.71 13.57
11/19/2022 11:30:00 AM 3.18 37.724 0.098 7.34 1.7 13.54
11/19/2022 11:45:00 AM 3.24 37.832 0.098 7.35 1.68 13.54
11/19/2022 12:00:00 PM 3.31 37.958 0.098 7.34 1.69 13.51
11/19/2022 12:15:00 PM 3.34 38.012 0.098 7.32 1.66 13.49
11/19/2022 12:30:00 PM 3.44 38.192 0.098 7.34 1.65 13.47
11/19/2022 12:45:00 PM 3.49 38.282 0.098 7.35 1.69 13.45
11/19/2022 1:00:00 PM 3.51 38.318 0.098 7.34 1.66 13.43
11/19/2022 1:15:00 PM 3.6 38.48 0.098 7.35 1.7 13.41
11/19/2022 1:30:00 PM 3.63 38.534 0.098 7.34 1.61 13.39
11/19/2022 1:45:00 PM 3.65 38.57 0.098 7.35 1.68 13.37
11/19/2022 2:00:00 PM 3.69 38.642 0.098 7.35 1.69 13.33
11/19/2022 2:15:00 PM 3.71 38.678 0.098 7.34 1.72 13.31
11/19/2022 2:30:00 PM 3.75 38.75 0.098 7.36 1.66 13.28
11/19/2022 2:45:00 PM 3.78 38.804 0.098 7.34 1.65 13.27
11/19/2022 3:00:00 PM 3.82 38.876 0.098 7.34 1.71 13.25
11/19/2022 3:15:00 PM 3.8 38.84 0.098 7.34 1.65 13.23
11/19/2022 3:30:00 PM 3.77 38.786 0.098 7.35 1.73 13.23
11/19/2022 3:45:00 PM 3.75 38.75 0.098 7.33 1.7 13.22
11/19/2022 4:00:00 PM 3.72 38.696 0.098 7.32 1.76 13.22
11/19/2022 4:15:00 PM 3.7 38.66 0.098 7.32 1.72 13.21
11/19/2022 4:30:00 PM 3.66 38.588 0.098 7.31 1.71 13.2
11/19/2022 4:45:00 PM 3.61 38.498 0.098 7.3 1.65 13.19
11/19/2022 5:00:00 PM 3.54 38.372 0.098 7.3 1.66 13.19
11/19/2022 5:15:00 PM 3.48 38.264 0.098 7.29 1.69 13.19
11/19/2022 5:30:00 PM 3.43 38.174 0.098 7.28 1.76 13.18
11/19/2022 5:45:00 PM 3.38 38.084 0.098 7.29 1.79 13.18
11/19/2022 6:00:00 PM 3.34 38.012 0.098 7.23 1.77 13.19
11/19/2022 6:15:00 PM 3.3 37.94 0.098 7.28 1.82 13.21
11/19/2022 6:30:00 PM 3.26 37.868 0.098 7.27 1.94 13.22
11/19/2022 6:45:00 PM 3.24 37.832 0.098 7.27 1.82 13.22
11/19/2022 7:00:00 PM 3.22 37.796 0.098 7.27 1.79 13.24
11/19/2022 7:15:00 PM 3.21 37.778 0.098 7.28 1.71 13.24
11/19/2022 7:30:00 PM 3.2 37.76 0.098 7.28 1.73 13.24
11/19/2022 7:45:00 PM 3.19 37.742 0.098 7.28 1.8 13.25
11/19/2022 8:00:00 PM 3.19 37.742 0.098 7.28 1.76 13.25
11/19/2022 8:15:00 PM 3.18 37.724 0.098 7.28 1.75 13.26
11/19/2022 8:30:00 PM 3.17 37.706 0.098 7.23 1.77 13.26
11/19/2022 8:45:00 PM 3.16 37.688 0.098 7.28 1.75 13.27
11/19/2022 9:00:00 PM 3.15 37.67 0.098 7.27 1.74 13.27
11/19/2022 9:15:00 PM 3.14 37.652 0.098 7.27 1.74 13.27
11/19/2022 9:30:00 PM 3.13 37.634 0.098 7.29 1.75 13.29
11/19/2022 9:45:00 PM 3.12 37.616 0.098 7.27 1.72 13.28
11/19/2022 10:00:00 PM 3.11 37.598 0.098 7.39 1.77 13.27
11/19/2022 10:15:00 PM 3.09 37.562 0.098 7.27 1.74 13.29
11/19/2022 10:30:00 PM 3.08 37.544 0.098 7.27 1.72 13.28
11/19/2022 10:45:00 PM 3.06 37.508 0.098 7.27 1.73 13.29
11/19/2022 11:00:00 PM 3.04 37.472 0.098 7.27 1.79 13.29
11/19/2022 11:15:00 PM 3.02 37.436 0.098 7.27 1.74 13.3
11/19/2022 11:30:00 PM 3 37.4 0.098 7.25 1.69 13.3
11/19/2022 11:45:00 PM 2.99 37.382 0.098 7.25 1.72 13.31
11/20/2022 12:00:00 AM 2.97 37.346 0.098 7.28 1.72 13.31
11/20/2022 12:15:00 AM 2.95 37.31 0.098 7.22 1.71 13.32
11/20/2022 12:30:00 AM 2.93 37.274 0.098 7.27 1.7 13.32
11/20/2022 12:45:00 AM 2.91 37.238 0.098 7.28 1.69 13.32
11/20/2022 1:00:00 AM 2.88 37.184 0.098 7.28 1.71 13.32
11/20/2022 1:15:00 AM 2.85 37.13 0.098 7.28 1.69 13.33
11/20/2022 1:30:00 AM 2.81 37.058 0.098 7.28 1.74 13.33
11/20/2022 1:45:00 AM 2.77 36.986 0.098 7.28 1.7 13.34
11/20/2022 2:00:00 AM 2.73 36.914 0.098 7.27 1.7 13.36
11/20/2022 2:15:00 AM 2.7 36.86 0.098 7.28 1.67 13.38
11/20/2022 2:30:00 AM 2.69 36.842 0.098 7.28 1.67 13.38
11/20/2022 2:45:00 AM 2.67 36.806 0.098 7.27 1.71 13.39
11/20/2022 3:00:00 AM 2.65 36.77 0.098 7.28 1.7 13.41
11/20/2022 3:15:00 AM 2.61 36.698 0.098 7.27 1.68 13.42
11/20/2022 3:30:00 AM 2.57 36.626 0.098 7.28 1.65 13.44
11/20/2022 3:45:00 AM 2.5 36.5 0.098 7.27 1.87 13.46
11/20/2022 4:00:00 AM 2.46 36.428 0.098 7.27 1.89 13.47
11/20/2022 4:15:00 AM 2.4 36.32 0.098 7.27 1.82 13.49
11/20/2022 4:30:00 AM 2.35 36.23 0.098 7.27 1.82 13.52
11/20/2022 4:45:00 AM 2.31 36.158 0.098 7.28 1.87 13.53
11/20/2022 5:00:00 AM 2.3 36.14 0.098 7.28 1.82 13.55
11/20/2022 5:15:00 AM 2.28 36.104 0.098 7.28 1.8 13.55
11/20/2022 5:30:00 AM 2.26 36.068 0.098 7.27 1.72 13.56
11/20/2022 5:45:00 AM 2.21 35.978 0.098 7.23 1.73 13.57
11/20/2022 6:00:00 AM 2.16 35.888 0.099 7.27 1.73 13.59
11/20/2022 6:15:00 AM 2.13 35.834 0.099 7.28 1.71 13.6
11/20/2022 6:30:00 AM 2.09 35.762 0.099 7.28 1.72 13.62
11/20/2022 6:45:00 AM 2.05 35.69 0.099 7.28 1.68 13.65
11/20/2022 7:00:00 AM 2.03 35.654 0.099 7.27 1.65 13.67
11/20/2022 7:15:00 AM 2.02 35.636 0.099 7.27 1.68 13.68
11/20/2022 7:30:00 AM 2.01 35.618 0.099 7.28 1.67 13.7
11/20/2022 7:45:00 AM 1.99 35.582 0.099 7.26 1.62 13.73
11/20/2022 8:00:00 AM 1.97 35.546 0.099 7.3 1.66 13.77
11/20/2022 8:15:00 AM 1.96 35.528 0.099 7.24 1.64 13.81
11/20/2022 8:30:00 AM 1.96 35.528 0.099 7.27 1.62 13.84
11/20/2022 8:45:00 AM 1.95 35.51 0.098 7.3 1.61 13.87
11/20/2022 9:00:00 AM 1.95 35.51 0.098 7.31 1.61 13.88
11/20/2022 9:15:00 AM 1.96 35.528 0.098 7.31 1.61 13.89
11/20/2022 9:30:00 AM 2 35.6 0.098 7.29 1.64 13.91
11/20/2022 9:45:00 AM 2.02 35.636 0.098 7.33 1.56 13.91
11/20/2022 10:00:00 AM 2.05 35.69 0.098 7.33 1.62 13.91
11/20/2022 10:15:00 AM 2.08 35.744 0.098 7.3 1.66 13.91
11/20/2022 10:30:00 AM 2.14 35.852 0.098 7.34 1.64 13.9
11/20/2022 10:45:00 AM 2.17 35.906 0.098 7.34 1.58 13.89
11/20/2022 11:00:00 AM 2.22 35.996 0.098 7.34 1.58 13.89
11/20/2022 11:15:00 AM 2.22 35.996 0.098 7.31 1.59 13.88
11/20/2022 11:30:00 AM 2.25 36.05 0.098 7.33 1.59 13.89
11/20/2022 11:45:00 AM 2.29 36.122 0.098 7.31 1.56 13.89
11/20/2022 12:00:00 PM 2.36 36.248 0.098 7.35 1.54 13.88
11/20/2022 12:15:00 PM 2.46 36.428 0.098 7.36 1.55 13.85
11/20/2022 12:30:00 PM 2.5 36.5 0.098 7.32 1.57 13.82
11/20/2022 12:45:00 PM 2.56 36.608 0.098 7.34 1.58 13.79
11/20/2022 1:00:00 PM 2.61 36.698 0.098 7.36 1.55 13.77
11/20/2022 1:15:00 PM 2.6 36.68 0.098 7.34 1.58 13.77
11/20/2022 1:30:00 PM 2.64 36.752 0.098 7.35 1.57 13.75
11/20/2022 1:45:00 PM 2.68 36.824 0.098 7.34 1.6 13.74
11/20/2022 2:00:00 PM 2.7 36.86 0.098 7.36 1.58 13.73
11/20/2022 2:15:00 PM 2.7 36.86 0.098 7.35 1.58 13.73
11/20/2022 2:30:00 PM 2.7 36.86 0.098 7.35 1.59 13.72
11/20/2022 2:45:00 PM 2.7 36.86 0.098 7.31 1.57 13.71
11/20/2022 3:00:00 PM 2.72 36.896 0.098 7.36 1.67 13.69
11/20/2022 3:15:00 PM 2.71 36.878 0.098 7.35 1.54 13.69
11/20/2022 3:30:00 PM 2.69 36.842 0.098 7.34 1.59 13.68
11/20/2022 3:45:00 PM 2.67 36.806 0.098 7.33 1.58 13.69
11/20/2022 4:00:00 PM 2.65 36.77 0.098 7.33 1.61 13.68
11/20/2022 4:15:00 PM 2.62 36.716 0.098 7.33 1.62 13.67
11/20/2022 4:30:00 PM 2.61 36.698 0.098 7.29 1.6 13.65
11/20/2022 4:45:00 PM 2.57 36.626 0.098 7.33 1.59 13.64
11/20/2022 5:00:00 PM 2.53 36.554 0.098 7.31 1.62 13.63
11/20/2022 5:15:00 PM 2.51 36.518 0.098 7.31 1.62 13.62
11/20/2022 5:30:00 PM 2.47 36.446 0.098 7.29 1.65 13.63
11/20/2022 5:45:00 PM 2.42 36.356 0.098 7.3 1.69 13.63
11/20/2022 6:00:00 PM 2.37 36.266 0.098 7.3 1.67 13.65
11/20/2022 6:15:00 PM 2.34 36.212 0.098 7.29 1.59 13.66
11/20/2022 6:30:00 PM 2.3 36.14 0.098 7.29 1.53 13.67
11/20/2022 6:45:00 PM 2.26 36.068 0.098 7.24 1.63 13.67
11/20/2022 7:00:00 PM 2.22 35.996 0.098 7.29 1.62 13.68
11/20/2022 7:15:00 PM 2.2 35.96 0.098 7.25 1.61 13.69
11/20/2022 7:30:00 PM 2.17 35.906 0.098 7.29 1.62 13.71
11/20/2022 7:45:00 PM 2.16 35.888 0.098 7.28 1.64 13.71
11/20/2022 8:00:00 PM 2.15 35.87 0.098 7.29 1.69 13.72
11/20/2022 8:15:00 PM 2.14 35.852 0.098 7.28 1.65 13.73
11/20/2022 8:30:00 PM 2.12 35.816 0.098 7.29 1.63 13.73
11/20/2022 8:45:00 PM 2.11 35.798 0.098 7.23 1.67 13.75
11/20/2022 9:00:00 PM 2.1 35.78 0.098 7.25 1.62 13.76
11/20/2022 9:15:00 PM 2.09 35.762 0.098 7.29 1.6 13.75
11/20/2022 9:30:00 PM 2.08 35.744 0.098 7.28 1.61 13.77
11/20/2022 9:45:00 PM 2.08 35.744 0.098 7.27 1.61 13.77
11/20/2022 10:00:00 PM 2.08 35.744 0.098 7.29 1.61 13.78
11/20/2022 10:15:00 PM 2.07 35.726 0.098 7.28 1.67 13.78
11/20/2022 10:30:00 PM 2.05 35.69 0.098 7.29 1.7 13.79
11/20/2022 10:45:00 PM 2.04 35.672 0.098 7.29 1.68 13.8
11/20/2022 11:00:00 PM 2.04 35.672 0.098 7.29 1.61 13.81
11/20/2022 11:15:00 PM 2.04 35.672 0.098 7.22 1.68 13.82
11/20/2022 11:30:00 PM 2.02 35.636 0.098 7.28 1.63 13.83
11/20/2022 11:45:00 PM 2.01 35.618 0.098 7.24 1.61 13.83
11/21/2022 12:00:00 AM 2.01 35.618 0.098 7.29 1.59 13.83
11/21/2022 12:15:00 AM 2 35.6 0.098 7.24 1.6 13.84
11/21/2022 12:30:00 AM 1.99 35.582 0.098 7.29 1.63 13.84
11/21/2022 12:45:00 AM 1.99 35.582 0.098 7.28 1.59 13.85
11/21/2022 1:00:00 AM 1.98 35.564 0.098 7.29 1.59 13.85
11/21/2022 1:15:00 AM 1.97 35.546 0.098 7.28 1.63 13.85
11/21/2022 1:30:00 AM 1.95 35.51 0.098 7.29 1.59 13.86
11/21/2022 1:45:00 AM 1.91 35.438 0.098 7.22 1.57 13.87
11/21/2022 2:00:00 AM 1.88 35.384 0.098 7.29 1.54 13.89
11/21/2022 2:15:00 AM 1.85 35.33 0.099 7.28 1.59 13.89
11/21/2022 2:30:00 AM 1.81 35.258 0.099 7.26 1.63 13.9
11/21/2022 2:45:00 AM 1.78 35.204 0.099 7.29 1.62 13.92
11/21/2022 3:00:00 AM 1.75 35.15 0.099 7.28 1.56 13.92
11/21/2022 3:15:00 AM 1.72 35.096 0.099 7.27 1.59 13.93
11/21/2022 3:30:00 AM 1.69 35.042 0.099 7.28 1.6 13.95
11/21/2022 3:45:00 AM 1.66 34.988 0.099 7.23 1.58 13.96
11/21/2022 4:00:00 AM 1.63 34.934 0.099 7.27 1.58 13.95
11/21/2022 4:15:00 AM 1.6 34.88 0.099 7.27 1.54 13.96
11/21/2022 4:30:00 AM 1.56 34.808 0.099 7.28 1.51 13.98
11/21/2022 4:45:00 AM 1.52 34.736 0.099 7.2 1.52 13.99
11/21/2022 5:00:00 AM 1.48 34.664 0.099 7.24 1.56 14.01
11/21/2022 5:15:00 AM 1.45 34.61 0.099 7.27 1.57 14.03
11/21/2022 5:30:00 AM 1.41 34.538 0.099 7.27 1.54 14.05
11/21/2022 5:45:00 AM 1.37 34.466 0.099 7.28 1.49 14.06
11/21/2022 6:00:00 AM 1.33 34.394 0.099 7.27 1.53 14.09
11/21/2022 6:15:00 AM 1.3 34.34 0.099 7.28 1.49 14.11
11/21/2022 6:30:00 AM 1.27 34.286 0.099 7.27 1.53 14.12
11/21/2022 6:45:00 AM 1.23 34.214 0.099 7.27 1.52 14.13
11/21/2022 7:00:00 AM 1.2 34.16 0.099 7.23 1.51 14.15
11/21/2022 7:15:00 AM 1.17 34.106 0.099 7.24 1.47 14.17
11/21/2022 7:30:00 AM 1.16 34.088 0.099 7.28 1.53 14.2
11/21/2022 7:45:00 AM 1.16 34.088 0.099 7.28 1.48 14.24
11/21/2022 8:00:00 AM 1.17 34.106 0.099 7.29 1.5 14.27
11/21/2022 8:15:00 AM 1.18 34.124 0.099 7.25 1.5 14.3
11/21/2022 8:30:00 AM 1.18 34.124 0.099 7.31 1.49 14.31
11/21/2022 8:45:00 AM 1.17 34.106 0.099 7.3 1.48 14.31
11/21/2022 9:00:00 AM 1.18 34.124 0.099 7.28 1.51 14.32
11/21/2022 9:15:00 AM 1.2 34.16 0.099 7.3 1.47 14.33
11/21/2022 9:30:00 AM 1.25 34.25 0.099 7.32 1.48 14.33
11/21/2022 9:45:00 AM 1.3 34.34 0.099 7.33 1.45 14.31
11/21/2022 10:00:00 AM 1.36 34.448 0.099 7.33 1.45 14.29
11/21/2022 10:15:00 AM 1.47 34.646 0.099 7.34 1.46 14.24
11/21/2022 10:30:00 AM 1.58 34.844 0.099 7.35 1.44 14.23
11/21/2022 10:45:00 AM 1.68 35.024 0.099 7.34 1.47 14.21
11/21/2022 11:00:00 AM 1.81 35.258 0.098 7.33 1.46 14.19
11/21/2022 11:15:00 AM 1.94 35.492 0.098 7.35 1.45 14.16
11/21/2022 11:30:00 AM 2.06 35.708 0.098 7.35 1.42 14.11
11/21/2022 11:45:00 AM 2.25 36.05 0.098 7.31 1.48 14.06
11/21/2022 12:00:00 PM 2.36 36.248 0.098 7.33 1.46 14.02
11/21/2022 12:15:00 PM 2.43 36.374 0.098 7.36 1.46 13.97
11/21/2022 12:30:00 PM 2.53 36.554 0.098 7.35 1.45 13.92
11/21/2022 12:45:00 PM 2.63 36.734 0.098 7.34 1.44 13.87
11/21/2022 1:00:00 PM 2.74 36.932 0.098 7.36 1.4 13.81
11/21/2022 1:15:00 PM 2.87 37.166 0.098 7.34 1.48 13.77
11/21/2022 1:30:00 PM 2.97 37.346 0.098 7.34 1.48 13.73
11/21/2022 1:45:00 PM 3.05 37.49 0.098 7.36 1.52 13.69
11/21/2022 2:00:00 PM 3.11 37.598 0.098 7.35 1.49 13.66
11/21/2022 2:15:00 PM 3.15 37.67 0.098 7.36 1.5 13.6
11/21/2022 2:30:00 PM 3.18 37.724 0.098 7.36 1.41 13.58
11/21/2022 2:45:00 PM 3.23 37.814 0.098 7.34 1.49 13.53
11/21/2022 3:00:00 PM 3.26 37.868 0.098 7.37 1.53 13.51
11/21/2022 3:15:00 PM 3.29 37.922 0.098 7.36 1.49 13.5
11/21/2022 3:30:00 PM 3.32 37.976 0.098 7.36 1.51 13.48
11/21/2022 3:45:00 PM 3.32 37.976 0.098 7.36 1.53 13.45
11/21/2022 4:00:00 PM 3.32 37.976 0.097 7.32 1.51 13.43
11/21/2022 4:15:00 PM 3.3 37.94 0.097 7.35 1.56 13.41
11/21/2022 4:30:00 PM 3.28 37.904 0.098 7.35 1.54 13.4
11/21/2022 4:45:00 PM 3.26 37.868 0.098 7.33 1.52 13.39
11/21/2022 5:00:00 PM 3.23 37.814 0.098 7.32 1.55 13.37
11/21/2022 5:15:00 PM 3.19 37.742 0.098 7.32 1.58 13.36
11/21/2022 5:30:00 PM 3.17 37.706 0.098 7.31 1.58 13.37
11/21/2022 5:45:00 PM 3.14 37.652 0.098 7.25 1.59 13.37
11/21/2022 6:00:00 PM 3.1 37.58 0.098 7.27 1.6 13.37
11/21/2022 6:15:00 PM 3.06 37.508 0.098 7.31 1.58 13.38
11/21/2022 6:30:00 PM 3.03 37.454 0.098 7.3 1.61 13.39
11/21/2022 6:45:00 PM 3 37.4 0.098 7.25 1.66 13.39
11/21/2022 7:00:00 PM 2.98 37.364 0.098 7.29 1.62 13.39
11/21/2022 7:15:00 PM 2.95 37.31 0.098 7.27 1.59 13.4
11/21/2022 7:30:00 PM 2.93 37.274 0.098 7.3 1.57 13.4
11/21/2022 7:45:00 PM 2.91 37.238 0.098 7.28 1.65 13.42
11/21/2022 8:00:00 PM 2.89 37.202 0.098 7.3 1.64 13.41
11/21/2022 8:15:00 PM 2.87 37.166 0.098 7.29 1.59 13.42
11/21/2022 8:30:00 PM 2.85 37.13 0.098 7.29 1.57 13.43
11/21/2022 8:45:00 PM 2.83 37.094 0.098 7.29 1.57 13.43
11/21/2022 9:00:00 PM 2.8 37.04 0.098 7.29 1.64 13.44
11/21/2022 9:15:00 PM 2.77 36.986 0.098 7.28 1.65 13.46
11/21/2022 9:30:00 PM 2.73 36.914 0.098 7.28 1.58 13.47
11/21/2022 9:45:00 PM 2.69 36.842 0.099 7.25 1.61 13.5
11/21/2022 10:00:00 PM 2.65 36.77 0.099 7.29 1.58 13.51
11/21/2022 10:15:00 PM 2.62 36.716 0.099 7.29 1.58 13.53
11/21/2022 10:30:00 PM 2.58 36.644 0.099 7.28 1.62 13.55
11/21/2022 10:45:00 PM 2.54 36.572 0.099 7.27 1.62 13.57
11/21/2022 11:00:00 PM 2.5 36.5 0.099 7.28 1.61 13.59
11/21/2022 11:15:00 PM 2.47 36.446 0.099 7.29 1.58 13.61
11/21/2022 11:30:00 PM 2.43 36.374 0.099 7.21 1.65 13.62
11/21/2022 11:45:00 PM 2.39 36.302 0.099 7.25 1.62 13.64
11/22/2022 12:00:00 AM 2.36 36.248 0.099 7.28 1.56 13.66
11/22/2022 12:15:00 AM 2.32 36.176 0.099 7.28 1.56 13.67
11/22/2022 12:30:00 AM 2.29 36.122 0.099 7.28 1.57 13.68
11/22/2022 12:45:00 AM 2.27 36.086 0.099 7.23 1.58 13.69
11/22/2022 1:00:00 AM 2.23 36.014 0.099 7.25 1.55 13.7
11/22/2022 1:15:00 AM 2.2 35.96 0.099 7.28 1.57 13.71
11/22/2022 1:30:00 AM 2.17 35.906 0.099 7.27 1.53 13.71
11/22/2022 1:45:00 AM 2.14 35.852 0.099 7.28 1.52 13.73
11/22/2022 2:00:00 AM 2.12 35.816 0.1 7.29 1.5 13.74
11/22/2022 2:15:00 AM 2.09 35.762 0.1 7.28 1.49 13.76
11/22/2022 2:30:00 AM 2.06 35.708 0.1 7.28 1.5 13.77
11/22/2022 2:45:00 AM 2.03 35.654 0.1 7.28 1.48 13.79
11/22/2022 3:00:00 AM 2 35.6 0.1 7.27 1.52 13.81
11/22/2022 3:15:00 AM 1.97 35.546 0.1 7.28 1.46 13.82
11/22/2022 3:30:00 AM 1.94 35.492 0.1 7.28 1.51 13.84
11/22/2022 3:45:00 AM 1.91 35.438 0.1 7.28 1.54 13.85
11/22/2022 4:00:00 AM 1.88 35.384 0.1 7.24 1.55 13.87
11/22/2022 4:15:00 AM 1.85 35.33 0.1 7.28 1.5 13.88
11/22/2022 4:30:00 AM 1.83 35.294 0.1 7.21 1.55 13.9
11/22/2022 4:45:00 AM 1.8 35.24 0.1 7.25 1.51 13.91
11/22/2022 5:00:00 AM 1.77 35.186 0.1 7.28 1.51 13.92
11/22/2022 5:15:00 AM 1.74 35.132 0.1 7.28 1.54 13.93
11/22/2022 5:30:00 AM 1.71 35.078 0.1 7.27 1.57 13.93
11/22/2022 5:45:00 AM 1.68 35.024 0.1 7.28 1.53 13.95
11/22/2022 6:00:00 AM 1.66 34.988 0.1 7.27 1.53 13.96
11/22/2022 6:15:00 AM 1.63 34.934 0.099 7.28 1.55 13.97
11/22/2022 6:30:00 AM 1.6 34.88 0.099 7.27 1.55 13.97
11/22/2022 6:45:00 AM 1.57 34.826 0.1 7.27 1.54 13.98
11/22/2022 7:00:00 AM 1.55 34.79 0.1 7.27 1.51 13.99
11/22/2022 7:15:00 AM 1.52 34.736 0.1 7.23 1.5 14.01
11/22/2022 7:30:00 AM 1.5 34.7 0.1 7.28 1.46 14.04
11/22/2022 7:45:00 AM 1.49 34.682 0.1 7.28 1.46 14.06
11/22/2022 8:00:00 AM 1.47 34.646 0.1 7.29 1.46 14.1
11/22/2022 8:15:00 AM 1.46 34.628 0.1 7.28 1.43 14.11
11/22/2022 8:30:00 AM 1.46 34.628 0.1 7.3 1.45 14.14
11/22/2022 8:45:00 AM 1.46 34.628 0.1 7.3 1.39 14.16
11/22/2022 9:00:00 AM 1.46 34.628 0.1 7.31 1.41 14.17
11/22/2022 9:15:00 AM 1.48 34.664 0.1 7.32 1.44 14.18
11/22/2022 9:30:00 AM 1.54 34.772 0.1 7.32 1.4 14.19
11/22/2022 9:45:00 AM 1.6 34.88 0.1 7.33 1.38 14.19
11/22/2022 10:00:00 AM 1.68 35.024 0.1 7.27 1.39 14.19
11/22/2022 10:15:00 AM 1.79 35.222 0.099 7.35 1.41 14.17
11/22/2022 10:30:00 AM 1.92 35.456 0.099 7.34 1.43 14.15
11/22/2022 10:45:00 AM 2.02 35.636 0.099 7.36 1.36 14.11
11/22/2022 11:00:00 AM 2.11 35.798 0.099 7.35 1.35 14.07
11/22/2022 11:15:00 AM 2.2 35.96 0.099 7.31 1.38 14.04
11/22/2022 11:30:00 AM 2.34 36.212 0.099 7.36 1.36 14.02
11/22/2022 11:45:00 AM 2.47 36.446 0.099 7.37 1.42 13.97
11/22/2022 12:00:00 PM 2.61 36.698 0.099 7.36 1.37 13.91
11/22/2022 12:15:00 PM 2.76 36.968 0.099 7.37 1.37 13.85
11/22/2022 12:30:00 PM 2.88 37.184 0.099 7.38 1.38 13.81
11/22/2022 12:45:00 PM 3 37.4 0.099 7.38 1.35 13.78
11/22/2022 1:00:00 PM 3.11 37.598 0.099 7.37 1.43 13.73
11/22/2022 1:15:00 PM 3.22 37.796 0.099 7.38 1.39 13.68
11/22/2022 1:30:00 PM 3.33 37.994 0.099 7.38 1.39 13.61
11/22/2022 1:45:00 PM 3.42 38.156 0.099 7.38 1.4 13.55
11/22/2022 2:00:00 PM 3.51 38.318 0.099 7.35 1.4 13.51
11/22/2022 2:15:00 PM 3.58 38.444 0.099 7.38 1.43 13.49
11/22/2022 2:30:00 PM 3.64 38.552 0.099 7.39 1.44 13.46
11/22/2022 2:45:00 PM 3.69 38.642 0.099 7.38 1.44 13.42
11/22/2022 3:00:00 PM 3.73 38.714 0.098 7.37 1.42 13.39
11/22/2022 3:15:00 PM 3.76 38.768 0.098 7.38 1.47 13.37
11/22/2022 3:30:00 PM 3.78 38.804 0.098 7.38 1.47 13.34
11/22/2022 3:45:00 PM 3.78 38.804 0.098 7.36 1.46 13.32
11/22/2022 4:00:00 PM 3.78 38.804 0.099 7.34 1.49 13.3
11/22/2022 4:15:00 PM 3.77 38.786 0.099 7.36 1.47 13.29
11/22/2022 4:30:00 PM 3.74 38.732 0.098 7.32 1.45 13.28
11/22/2022 4:45:00 PM 3.71 38.678 0.099 7.34 1.48 13.26
11/22/2022 5:00:00 PM 3.67 38.606 0.099 7.28 1.5 13.24
11/22/2022 5:15:00 PM 3.62 38.516 0.099 7.33 1.51 13.24
11/22/2022 5:30:00 PM 3.57 38.426 0.099 7.3 1.57 13.24
11/22/2022 5:45:00 PM 3.52 38.336 0.099 7.31 1.54 13.24
11/22/2022 6:00:00 PM 3.48 38.264 0.099 7.31 1.75 13.23
11/22/2022 6:15:00 PM 3.44 38.192 0.099 7.3 1.6 13.23
11/22/2022 6:30:00 PM 3.39 38.102 0.099 7.3 1.64 13.24
11/22/2022 6:45:00 PM 3.36 38.048 0.099 7.27 1.65 13.25
11/22/2022 7:00:00 PM 3.32 37.976 0.099 7.25 1.56 13.26
11/22/2022 7:15:00 PM 3.29 37.922 0.099 7.28 1.58 13.27
11/22/2022 7:30:00 PM 3.27 37.886 0.099 7.3 1.58 13.27
11/22/2022 7:45:00 PM 3.25 37.85 0.099 7.3 1.64 13.29
11/22/2022 8:00:00 PM 3.22 37.796 0.099 7.23 1.63 13.3
11/22/2022 8:15:00 PM 3.19 37.742 0.099 7.29 1.59 13.31
11/22/2022 8:30:00 PM 3.16 37.688 0.099 7.28 1.6 13.31
11/22/2022 8:45:00 PM 3.13 37.634 0.099 7.28 1.66 13.33
11/22/2022 9:00:00 PM 3.1 37.58 0.099 7.29 1.68 13.35
11/22/2022 9:15:00 PM 3.07 37.526 0.099 7.23 1.64 13.35
11/22/2022 9:30:00 PM 3.03 37.454 0.099 7.29 1.62 13.37
11/22/2022 9:45:00 PM 2.99 37.382 0.099 7.29 1.62 13.38
11/22/2022 10:00:00 PM 2.95 37.31 0.099 7.22 1.57 13.39
11/22/2022 10:15:00 PM 2.91 37.238 0.099 7.28 1.55 13.4
11/22/2022 10:30:00 PM 2.87 37.166 0.099 7.29 1.56 13.43
11/22/2022 10:45:00 PM 2.83 37.094 0.099 7.28 1.55 13.43
11/22/2022 11:00:00 PM 2.79 37.022 0.099 7.22 1.51 13.44
11/22/2022 11:15:00 PM 2.75 36.95 0.099 7.28 1.55 13.45
11/22/2022 11:30:00 PM 2.71 36.878 0.1 7.25 1.52 13.47
11/22/2022 11:45:00 PM 2.68 36.824 0.1 7.26 1.51 13.49
11/23/2022 12:00:00 AM 2.65 36.77 0.1 7.29 1.56 13.51
11/23/2022 12:15:00 AM 2.61 36.698 0.1 7.22 1.52 13.52
11/23/2022 12:30:00 AM 2.59 36.662 0.1 7.29 1.53 13.53
11/23/2022 12:45:00 AM 2.56 36.608 0.1 7.28 1.54 13.55
11/23/2022 1:00:00 AM 2.53 36.554 0.1 7.29 1.56 13.56
11/23/2022 1:15:00 AM 2.5 36.5 0.1 7.28 1.54 13.57
11/23/2022 1:30:00 AM 2.47 36.446 0.1 7.28 1.59 13.58
11/23/2022 1:45:00 AM 2.44 36.392 0.1 7.28 1.52 13.59
11/23/2022 2:00:00 AM 2.41 36.338 0.1 7.29 1.51 13.6
11/23/2022 2:15:00 AM 2.39 36.302 0.1 7.29 1.56 13.61
11/23/2022 2:30:00 AM 2.36 36.248 0.1 7.23 1.52 13.62
11/23/2022 2:45:00 AM 2.34 36.212 0.1 7.25 1.5 13.64
11/23/2022 3:00:00 AM 2.31 36.158 0.1 7.28 1.52 13.64
11/23/2022 3:15:00 AM 2.29 36.122 0.1 7.28 1.46 13.64
11/23/2022 3:30:00 AM 2.26 36.068 0.1 7.29 1.48 13.66
11/23/2022 3:45:00 AM 2.24 36.032 0.1 7.29 1.5 13.67
11/23/2022 4:00:00 AM 2.21 35.978 0.1 7.23 1.48 13.67
11/23/2022 4:15:00 AM 2.18 35.924 0.1 7.29 1.48 13.67
11/23/2022 4:30:00 AM 2.15 35.87 0.1 7.28 1.47 13.69
11/23/2022 4:45:00 AM 2.12 35.816 0.1 7.28 1.6 13.7
11/23/2022 5:00:00 AM 2.09 35.762 0.1 7.29 1.45 13.71
11/23/2022 5:15:00 AM 2.07 35.726 0.1 7.28 1.48 13.73
11/23/2022 5:30:00 AM 2.04 35.672 0.1 7.28 1.52 13.74
11/23/2022 5:45:00 AM 2.01 35.618 0.1 7.28 1.48 13.76
11/23/2022 6:00:00 AM 1.98 35.564 0.1 7.29 1.46 13.78
11/23/2022 6:15:00 AM 1.95 35.51 0.1 7.29 1.47 13.79
11/23/2022 6:30:00 AM 1.92 35.456 0.1 7.21 1.43 13.81
11/23/2022 6:45:00 AM 1.9 35.42 0.1 7.26 1.45 13.82
11/23/2022 7:00:00 AM 1.88 35.384 0.1 7.28 1.42 13.83
11/23/2022 7:15:00 AM 1.85 35.33 0.1 7.29 1.44 13.85
11/23/2022 7:30:00 AM 1.83 35.294 0.101 7.23 1.44 13.88
11/23/2022 7:45:00 AM 1.81 35.258 0.101 7.29 1.44 13.91
11/23/2022 8:00:00 AM 1.8 35.24 0.101 7.3 1.38 13.95
11/23/2022 8:15:00 AM 1.79 35.222 0.101 7.29 1.37 13.97
11/23/2022 8:30:00 AM 1.78 35.204 0.101 7.3 1.41 14
11/23/2022 8:45:00 AM 1.78 35.204 0.101 7.31 1.38 14.01
11/23/2022 9:00:00 AM 1.78 35.204 0.1 7.31 1.35 14.03
11/23/2022 9:15:00 AM 1.79 35.222 0.1 7.32 1.37 14.04
11/23/2022 9:30:00 AM 1.83 35.294 0.1 7.32 1.39 14.05
11/23/2022 9:45:00 AM 1.88 35.384 0.1 7.33 1.38 14.06
11/23/2022 10:00:00 AM 1.95 35.51 0.1 7.35 1.36 14.04
11/23/2022 10:15:00 AM 2.03 35.654 0.1 7.35 1.39 14.02
11/23/2022 10:30:00 AM 2.12 35.816 0.1 7.29 1.34 13.99
11/23/2022 10:45:00 AM 2.22 35.996 0.1 7.33 1.36 13.98
11/23/2022 11:00:00 AM 2.33 36.194 0.1 7.35 1.37 13.96
11/23/2022 11:15:00 AM 2.45 36.41 0.1 7.37 1.33 13.94
11/23/2022 11:30:00 AM 2.58 36.644 0.1 7.35 1.37 13.9
11/23/2022 11:45:00 AM 2.72 36.896 0.1 7.38 1.35 13.85
11/23/2022 12:00:00 PM 2.84 37.112 0.1 7.39 1.35 13.8
11/23/2022 12:15:00 PM 2.98 37.364 0.1 7.38 1.36 13.78
11/23/2022 12:30:00 PM 3.1 37.58 0.1 7.39 1.31 13.74
11/23/2022 12:45:00 PM 3.22 37.796 0.1 7.39 1.37 13.69
11/23/2022 1:00:00 PM 3.34 38.012 0.1 7.33 1.33 13.64
11/23/2022 1:15:00 PM 3.45 38.21 0.1 7.39 1.35 13.59
11/23/2022 1:30:00 PM 3.56 38.408 0.1 7.4 1.33 13.55
11/23/2022 1:45:00 PM 3.66 38.588 0.1 7.4 1.37 13.5
11/23/2022 2:00:00 PM 3.76 38.768 0.099 7.37 1.35 13.45
11/23/2022 2:15:00 PM 3.84 38.912 0.099 7.41 1.39 13.41
11/23/2022 2:30:00 PM 3.9 39.02 0.099 7.4 1.41 13.37
11/23/2022 2:45:00 PM 3.96 39.128 0.099 7.4 1.38 13.33
11/23/2022 3:00:00 PM 4 39.2 0.099 7.38 1.39 13.3
11/23/2022 3:15:00 PM 4.03 39.254 0.099 7.39 1.42 13.27
11/23/2022 3:30:00 PM 4.04 39.272 0.099 7.39 1.38 13.26
11/23/2022 3:45:00 PM 4.04 39.272 0.099 7.39 1.46 13.24
11/23/2022 4:00:00 PM 4.03 39.254 0.099 7.38 1.43 13.22
11/23/2022 4:15:00 PM 4.01 39.218 0.099 7.37 1.4 13.2
11/23/2022 4:30:00 PM 3.99 39.182 0.099 7.36 1.44 13.19
11/23/2022 4:45:00 PM 3.95 39.11 0.099 7.34 1.47 13.17
11/23/2022 5:00:00 PM 3.9 39.02 0.099 7.35 1.47 13.17
11/23/2022 5:15:00 PM 3.85 38.93 0.099 7.33 1.47 13.16
11/23/2022 5:30:00 PM 3.8 38.84 0.099 7.32 1.48 13.18
11/23/2022 5:45:00 PM 3.75 38.75 0.099 7.32 1.51 13.18
11/23/2022 6:00:00 PM 3.7 38.66 0.1 7.3 1.51 13.18
11/23/2022 6:15:00 PM 3.66 38.588 0.099 7.31 1.53 13.2
11/23/2022 6:30:00 PM 3.62 38.516 0.1 7.31 1.53 13.21
11/23/2022 6:45:00 PM 3.58 38.444 0.1 7.31 1.5 13.22
11/23/2022 7:00:00 PM 3.54 38.372 0.1 7.25 1.45 13.22
11/23/2022 7:15:00 PM 3.51 38.318 0.1 7.3 1.56 13.23
11/23/2022 7:30:00 PM 3.48 38.264 0.1 7.26 1.52 13.24
11/23/2022 7:45:00 PM 3.45 38.21 0.1 7.31 1.57 13.24
11/23/2022 8:00:00 PM 3.43 38.174 0.1 7.24 1.53 13.25
11/23/2022 8:15:00 PM 3.4 38.12 0.1 7.3 1.57 13.26
11/23/2022 8:30:00 PM 3.37 38.066 0.1 7.3 1.67 13.26
11/23/2022 8:45:00 PM 3.34 38.012 0.1 7.3 1.56 13.28
11/23/2022 9:00:00 PM 3.31 37.958 0.1 7.27 1.53 13.29
11/23/2022 9:15:00 PM 3.28 37.904 0.1 7.27 1.56 13.32
11/23/2022 9:30:00 PM 3.24 37.832 0.1 7.27 1.56 13.33
11/23/2022 9:45:00 PM 3.21 37.778 0.1 7.3 1.6 13.35
11/23/2022 10:00:00 PM 3.17 37.706 0.1 7.3 1.53 13.37
11/23/2022 10:15:00 PM 3.13 37.634 0.1 7.24 1.53 13.39
11/23/2022 10:30:00 PM 3.09 37.562 0.1 7.29 1.54 13.41
11/23/2022 10:45:00 PM 3.05 37.49 0.1 7.3 1.52 13.42
11/23/2022 11:00:00 PM 3.01 37.418 0.1 7.28 1.5 13.44
11/23/2022 11:15:00 PM 2.97 37.346 0.1 7.3 1.49 13.45
11/23/2022 11:30:00 PM 2.94 37.292 0.1 7.26 1.52 13.47
11/23/2022 11:45:00 PM 2.9 37.22 0.1 7.3 1.45 13.48
11/24/2022 12:00:00 AM 2.86 37.148 0.1 7.23 1.47 13.49
11/24/2022 12:15:00 AM 2.82 37.076 0.1 7.3 1.5 13.5
11/24/2022 12:30:00 AM 2.78 37.004 0.1 7.29 1.41 13.51
11/24/2022 12:45:00 AM 2.75 36.95 0.1 7.29 1.45 13.52
11/24/2022 1:00:00 AM 2.71 36.878 0.101 7.3 1.49 13.53
11/24/2022 1:15:00 AM 2.67 36.806 0.101 7.3 1.43 13.56
11/24/2022 1:30:00 AM 2.64 36.752 0.101 7.29 1.41 13.57
11/24/2022 1:45:00 AM 2.61 36.698 0.101 7.29 1.47 13.59
11/24/2022 2:00:00 AM 2.58 36.644 0.101 7.29 1.44 13.6
11/24/2022 2:15:00 AM 2.55 36.59 0.101 7.28 1.45 13.62
11/24/2022 2:30:00 AM 2.51 36.518 0.101 7.29 1.46 13.63
11/24/2022 2:45:00 AM 2.49 36.482 0.101 7.3 1.69 13.65
11/24/2022 3:00:00 AM 2.46 36.428 0.101 7.23 1.49 13.65
11/24/2022 3:15:00 AM 2.43 36.374 0.101 7.28 2.03 13.67
11/24/2022 3:30:00 AM 2.4 36.32 0.101 7.3 1.92 13.68
11/24/2022 3:45:00 AM 2.37 36.266 0.101 7.29 1.56 13.69
11/24/2022 4:00:00 AM 2.34 36.212 0.101 7.29 1.49 13.71
11/24/2022 4:15:00 AM 2.31 36.158 0.101 7.28 1.43 13.71
11/24/2022 4:30:00 AM 2.28 36.104 0.101 7.3 1.45 13.72
11/24/2022 4:45:00 AM 2.25 36.05 0.101 7.24 1.43 13.74
11/24/2022 5:00:00 AM 2.22 35.996 0.101 7.28 1.42 13.74
11/24/2022 5:15:00 AM 2.18 35.924 0.101 7.26 1.47 13.75
11/24/2022 5:30:00 AM 2.15 35.87 0.101 7.3 1.38 13.75
11/24/2022 5:45:00 AM 2.12 35.816 0.101 7.27 1.41 13.77
11/24/2022 6:00:00 AM 2.09 35.762 0.101 7.29 1.45 13.79
11/24/2022 6:15:00 AM 2.06 35.708 0.101 7.29 1.42 13.8
11/24/2022 6:30:00 AM 2.03 35.654 0.101 7.29 1.44 13.82
11/24/2022 6:45:00 AM 2 35.6 0.101 7.24 1.5 13.83
11/24/2022 7:00:00 AM 1.97 35.546 0.101 7.3 1.37 13.85
11/24/2022 7:15:00 AM 1.94 35.492 0.101 7.29 1.36 13.87
11/24/2022 7:30:00 AM 1.91 35.438 0.101 7.29 1.38 13.91
11/24/2022 7:45:00 AM 1.9 35.42 0.101 7.3 1.37 13.95
11/24/2022 8:00:00 AM 1.89 35.402 0.101 7.3 1.38 13.99
11/24/2022 8:15:00 AM 1.89 35.402 0.101 7.32 1.36 14.02
11/24/2022 8:30:00 AM 1.89 35.402 0.101 7.33 1.37 14.05
11/24/2022 8:45:00 AM 1.9 35.42 0.101 7.33 1.39 14.07
11/24/2022 9:00:00 AM 1.91 35.438 0.101 7.34 1.35 14.08
11/24/2022 9:15:00 AM 1.92 35.456 0.101 7.34 1.35 14.09
11/24/2022 9:30:00 AM 1.96 35.528 0.101 7.33 1.34 14.09
11/24/2022 9:45:00 AM 2.04 35.672 0.101 7.36 1.38 14.1
11/24/2022 10:00:00 AM 2.11 35.798 0.101 7.33 1.33 14.08
11/24/2022 10:15:00 AM 2.19 35.942 0.101 7.37 1.35 14.06
11/24/2022 10:30:00 AM 2.29 36.122 0.101 7.37 1.32 14.05
11/24/2022 10:45:00 AM 2.39 36.302 0.101 7.38 1.31 14.03
11/24/2022 11:00:00 AM 2.48 36.464 0.101 7.35 1.3 14
11/24/2022 11:15:00 AM 2.6 36.68 0.101 7.39 1.33 13.96
11/24/2022 11:30:00 AM 2.72 36.896 0.101 7.39 1.29 13.91
11/24/2022 11:45:00 AM 2.84 37.112 0.101 7.4 1.29 13.88
11/24/2022 12:00:00 PM 2.98 37.364 0.101 7.4 1.28 13.84
11/24/2022 12:15:00 PM 3.11 37.598 0.101 7.41 1.36 13.79
11/24/2022 12:30:00 PM 3.22 37.796 0.101 7.4 1.26 13.74
11/24/2022 12:45:00 PM 3.36 38.048 0.101 7.41 1.31 13.67
11/24/2022 1:00:00 PM 3.47 38.246 0.101 7.41 1.3 13.64
11/24/2022 1:15:00 PM 3.58 38.444 0.1 7.42 1.29 13.61
11/24/2022 1:30:00 PM 3.69 38.642 0.1 7.43 1.33 13.56
11/24/2022 1:45:00 PM 3.79 38.822 0.1 7.39 1.3 13.52
11/24/2022 2:00:00 PM 3.88 38.984 0.1 7.39 1.31 13.46
11/24/2022 2:15:00 PM 3.97 39.146 0.1 7.42 1.29 13.41
11/24/2022 2:30:00 PM 4.04 39.272 0.1 7.42 1.36 13.36
11/24/2022 2:45:00 PM 4.1 39.38 0.1 7.43 1.33 13.34
11/24/2022 3:00:00 PM 4.15 39.47 0.1 7.4 1.36 13.32
11/24/2022 3:15:00 PM 4.19 39.542 0.1 7.43 1.36 13.31
11/24/2022 3:30:00 PM 4.2 39.56 0.1 7.42 1.41 13.29
11/24/2022 3:45:00 PM 4.21 39.578 0.1 7.41 1.39 13.27
11/24/2022 4:00:00 PM 4.2 39.56 0.1 7.41 1.42 13.25
11/24/2022 4:15:00 PM 4.18 39.524 0.1 7.4 1.38 13.22
11/24/2022 4:30:00 PM 4.16 39.488 0.1 7.39 1.46 13.18
11/24/2022 4:45:00 PM 4.12 39.416 0.1 7.38 1.4 13.15
11/24/2022 5:00:00 PM 4.08 39.344 0.1 7.37 1.38 13.11
11/24/2022 5:15:00 PM 4.02 39.236 0.1 7.36 1.41 13.09
11/24/2022 5:30:00 PM 3.96 39.128 0.1 7.34 1.45 13.09
11/24/2022 5:45:00 PM 3.9 39.02 0.1 7.27 1.61 13.1
11/24/2022 6:00:00 PM 3.84 38.912 0.1 7.32 1.47 13.12
11/24/2022 6:15:00 PM 3.79 38.822 0.1 7.33 1.45 13.13
11/24/2022 6:30:00 PM 3.76 38.768 0.1 7.32 1.44 13.14
11/24/2022 6:45:00 PM 3.72 38.696 0.1 7.26 1.56 13.14
11/24/2022 7:00:00 PM 3.69 38.642 0.1 7.29 1.61 13.15
11/24/2022 7:15:00 PM 3.66 38.588 0.1 7.31 1.55 13.15
11/24/2022 7:30:00 PM 3.64 38.552 0.1 7.3 1.7 13.16
11/24/2022 7:45:00 PM 3.61 38.498 0.1 7.32 1.57 13.17
11/24/2022 8:00:00 PM 3.59 38.462 0.1 7.26 1.52 13.17
11/24/2022 8:15:00 PM 3.57 38.426 0.1 7.32 1.55 13.18
11/24/2022 8:30:00 PM 3.56 38.408 0.1 7.31 1.53 13.19
11/24/2022 8:45:00 PM 3.55 38.39 0.101 7.29 1.48 13.18
11/24/2022 9:00:00 PM 3.54 38.372 0.101 7.29 1.65 13.19
11/24/2022 9:15:00 PM 3.52 38.336 0.101 7.29 1.75 13.19
11/24/2022 9:30:00 PM 3.51 38.318 0.101 7.3 1.69 13.19
11/24/2022 9:45:00 PM 3.5 38.3 0.101 7.32 1.47 13.19
11/24/2022 10:00:00 PM 3.49 38.282 0.101 7.32 1.48 13.2
11/24/2022 10:15:00 PM 3.48 38.264 0.101 7.31 1.52 13.19
11/24/2022 10:30:00 PM 3.47 38.246 0.101 7.31 1.5 13.2
11/24/2022 10:45:00 PM 3.47 38.246 0.101 7.31 1.5 13.2
11/24/2022 11:00:00 PM 3.46 38.228 0.101 7.32 1.47 13.2
11/24/2022 11:15:00 PM 3.46 38.228 0.101 7.32 1.44 13.2
11/24/2022 11:30:00 PM 3.46 38.228 0.101 7.32 1.48 13.2
11/24/2022 11:45:00 PM 3.46 38.228 0.101 7.31 1.45 13.2
11/25/2022 12:00:00 AM 3.46 38.228 0.101 7.32 1.62 13.2
11/25/2022 12:15:00 AM 3.46 38.228 0.101 7.32 1.49 13.19
11/25/2022 12:30:00 AM 3.46 38.228 0.101 7.32 1.45 13.2
11/25/2022 12:45:00 AM 3.46 38.228 0.101 7.32 1.43 13.19
11/25/2022 1:00:00 AM 3.46 38.228 0.101 7.32 1.46 13.19
11/25/2022 1:15:00 AM 3.47 38.246 0.101 7.32 1.41 13.19
11/25/2022 1:30:00 AM 3.47 38.246 0.101 7.29 1.47 13.18
11/25/2022 1:45:00 AM 3.47 38.246 0.101 7.33 1.47 13.18
11/25/2022 2:00:00 AM 3.48 38.264 0.101 7.27 1.49 13.17
11/25/2022 2:15:00 AM 3.48 38.264 0.101 7.33 1.44 13.17
11/25/2022 2:30:00 AM 3.49 38.282 0.101 7.32 1.44 13.17
11/25/2022 2:45:00 AM 3.5 38.3 0.101 7.32 1.43 13.16
11/25/2022 3:00:00 AM 3.51 38.318 0.101 7.33 1.46 13.16
11/25/2022 3:15:00 AM 3.52 38.336 0.101 7.32 1.39 13.16
11/25/2022 3:30:00 AM 3.54 38.372 0.101 7.31 1.46 13.14
11/25/2022 3:45:00 AM 3.55 38.39 0.101 7.32 1.47 13.14
11/25/2022 4:00:00 AM 3.56 38.408 0.101 7.33 1.38 13.14
11/25/2022 4:15:00 AM 3.58 38.444 0.101 7.3 1.42 13.13
11/25/2022 4:30:00 AM 3.6 38.48 0.101 7.32 1.43 13.12
11/25/2022 4:45:00 AM 3.61 38.498 0.101 7.3 1.4 13.11
11/25/2022 5:00:00 AM 3.63 38.534 0.101 7.33 1.44 13.1
11/25/2022 5:15:00 AM 3.65 38.57 0.101 7.26 1.46 13.1
11/25/2022 5:30:00 AM 3.67 38.606 0.101 7.3 1.44 13.09
11/25/2022 5:45:00 AM 3.69 38.642 0.101 7.3 1.44 13.07
11/25/2022 6:00:00 AM 3.71 38.678 0.101 7.33 1.47 13.07
11/25/2022 6:15:00 AM 3.73 38.714 0.101 7.27 1.46 13.06
11/25/2022 6:30:00 AM 3.75 38.75 0.101 7.33 1.51 13.05
11/25/2022 6:45:00 AM 3.77 38.786 0.101 7.27 1.54 13.03
11/25/2022 7:00:00 AM 3.79 38.822 0.101 7.29 1.52 13.02
11/25/2022 7:15:00 AM 3.82 38.876 0.101 7.33 1.55 13.02
11/25/2022 7:30:00 AM 3.84 38.912 0.101 7.33 1.64 13
11/25/2022 7:45:00 AM 3.86 38.948 0.101 7.28 1.59 13
11/25/2022 8:00:00 AM 3.89 39.002 0.101 7.32 1.5 13